Provisional Data: East Fork First Fork Sinnemahoning Creek near Logue, PA


Please select a monitoring station.
Please select start date.
Please select start date.

Toggle Unit: C/F Toggle Unit: C/F
Sample Time Temperature (C) Temperature (F) Specific Conductivity (mS/cm) pH   Turbidity (NTU+) DO (mg/L)
3/7/2021 12:00:00 AM 1.98 35.564 0.043 6.38 6.33 12.94
3/7/2021 12:15:00 AM 1.94 35.492 0.043 6.36 6.42 12.95
3/7/2021 12:30:00 AM 1.93 35.474 0.043 6.37 7.71 12.96
3/7/2021 12:45:00 AM 1.9 35.42 0.043 6.37 8.01 12.96
3/7/2021 1:00:00 AM 1.86 35.348 0.043 6.36 8.19 12.98
3/7/2021 1:15:00 AM 1.82 35.276 0.043 6.37 7.99 12.99
3/7/2021 1:30:00 AM 1.78 35.204 0.043 6.37 8.11 13.01
3/7/2021 1:45:00 AM 1.72 35.096 0.043 6.37 12.09 13.02
3/7/2021 2:00:00 AM 1.67 35.006 0.043 6.37 9.16 13.05
3/7/2021 2:15:00 AM 1.61 34.898 0.043 6.37 6.49 13.06
3/7/2021 2:30:00 AM 1.56 34.808 0.043 6.37 6.45 13.08
3/7/2021 2:45:00 AM 1.51 34.718 0.043 6.37 6.4 13.09
3/7/2021 3:00:00 AM 1.45 34.61 0.043 6.37 5.39 13.12
3/7/2021 3:15:00 AM 1.4 34.52 0.043 6.37 6.29 13.14
3/7/2021 3:30:00 AM 1.34 34.412 0.043 6.36 6.03 13.17
3/7/2021 3:45:00 AM 1.28 34.304 0.043 6.37 6.07 13.19
3/7/2021 4:00:00 AM 1.22 34.196 0.043 6.36 5.23 13.22
3/7/2021 4:15:00 AM 1.16 34.088 0.043 6.37 5.22 13.24
3/7/2021 4:30:00 AM 1.11 33.998 0.043 6.37 5.28 13.26
3/7/2021 4:45:00 AM 1.05 33.89 0.043 6.37 5.16 13.28
3/7/2021 5:00:00 AM 1 33.8 0.043 6.37 5.17 13.31
3/7/2021 5:15:00 AM 0.94 33.692 0.043 6.36 5.3 13.33
3/7/2021 5:30:00 AM 0.89 33.602 0.043 6.37 5.36 13.36
3/7/2021 5:45:00 AM 0.83 33.494 0.043 6.38 5.3 13.39
3/7/2021 6:00:00 AM 0.78 33.404 0.043 6.37 5.62 13.41
3/7/2021 6:15:00 AM 0.72 33.296 0.043 6.38 5.73 13.44
3/7/2021 6:30:00 AM 0.67 33.206 0.043 6.37 5.11 13.47
3/7/2021 6:45:00 AM 0.61 33.098 0.043 6.38 5.02 13.49
3/7/2021 7:00:00 AM 0.57 33.026 0.043 6.38 5.04 13.54
3/7/2021 7:15:00 AM 0.52 32.936 0.043 6.39 4.98 13.59
3/7/2021 7:30:00 AM 0.48 32.864 0.043 6.39 5 13.64
3/7/2021 7:45:00 AM 0.44 32.792 0.043 6.4 5.03 13.69
3/7/2021 8:00:00 AM 0.41 32.738 0.043 6.4 5.01 13.73
3/7/2021 8:15:00 AM 0.38 32.684 0.043 6.41 5.11 13.76
3/7/2021 8:30:00 AM 0.37 32.666 0.043 6.42 5.04 13.78
3/7/2021 8:45:00 AM 0.37 32.666 0.043 6.43 5.04 13.81
3/7/2021 9:00:00 AM 0.41 32.738 0.043 6.44 5.07 13.82
3/7/2021 9:15:00 AM 0.5 32.9 0.043 6.46 5.04 13.81
3/7/2021 9:30:00 AM 0.63 33.134 0.043 6.46 5.09 13.79
3/7/2021 9:45:00 AM 0.76 33.368 0.043 6.48 5.02 13.76
3/7/2021 10:00:00 AM 0.9 33.62 0.043 6.48 5.01 13.71
3/7/2021 10:15:00 AM 1.07 33.926 0.043 6.49 5.03 13.68
3/7/2021 10:30:00 AM 1.23 34.214 0.043 6.5 5.06 13.64
3/7/2021 10:45:00 AM 1.37 34.466 0.043 6.5 5.02 13.6
3/7/2021 11:00:00 AM 1.49 34.682 0.043 6.49 4.98 13.56
3/7/2021 11:15:00 AM 1.64 34.952 0.043 6.5 5.04 13.52
3/7/2021 11:30:00 AM 1.77 35.186 0.043 6.51 5.02 13.48
3/7/2021 11:45:00 AM 1.93 35.474 0.043 6.52 5.08 13.45
3/7/2021 12:00:00 PM 2.09 35.762 0.043 6.51 5.06 13.4
3/7/2021 12:15:00 PM 2.23 36.014 0.043 6.51 5.14 13.34
3/7/2021 12:30:00 PM 2.44 36.392 0.043 6.51 5.1 13.28
3/7/2021 12:45:00 PM 2.63 36.734 0.043 6.51 5.09 13.21
3/7/2021 1:00:00 PM 2.84 37.112 0.042 6.51 5.02 13.13
3/7/2021 1:15:00 PM 3.02 37.436 0.042 6.52 4.97 13.08
3/7/2021 1:30:00 PM 3.17 37.706 0.042 6.51 4.92 13.02
3/7/2021 1:45:00 PM 3.31 37.958 0.042 6.51 4.95 12.96
3/7/2021 2:00:00 PM 3.42 38.156 0.042 6.5 4.92 12.92
3/7/2021 2:15:00 PM 3.53 38.354 0.042 6.5 5.23 12.87
3/7/2021 2:30:00 PM 3.62 38.516 0.042 6.5 4.9 12.83
3/7/2021 2:45:00 PM 3.72 38.696 0.042 6.5 4.92 12.79
3/7/2021 3:00:00 PM 3.81 38.858 0.042 6.5 4.98 12.74
3/7/2021 3:15:00 PM 3.87 38.966 0.042 6.5 4.95 12.71
3/7/2021 3:30:00 PM 3.88 38.984 0.042 6.5 4.97 12.69
3/7/2021 3:45:00 PM 3.86 38.948 0.042 6.48 4.96 12.68
3/7/2021 4:00:00 PM 3.8 38.84 0.042 6.48 4.98 12.68
3/7/2021 4:15:00 PM 3.7 38.66 0.042 6.48 4.95 12.69
3/7/2021 4:30:00 PM 3.58 38.444 0.042 6.47 5.08 12.7
3/7/2021 4:45:00 PM 3.46 38.228 0.042 6.46 5.19 12.71
3/7/2021 5:00:00 PM 3.36 38.048 0.042 6.44 5.32 12.72
3/7/2021 5:15:00 PM 3.24 37.832 0.043 6.45 5.31 12.74
3/7/2021 5:30:00 PM 3.12 37.616 0.043 6.44 5.33 12.74
3/7/2021 5:45:00 PM 3.02 37.436 0.043 6.43 5.36 12.75
3/7/2021 6:00:00 PM 2.91 37.238 0.043 6.41 5.39 12.76
3/7/2021 6:15:00 PM 2.81 37.058 0.043 6.41 5.36 12.76
3/7/2021 6:30:00 PM 2.73 36.914 0.043 6.39 5.3 12.77
3/7/2021 6:45:00 PM 2.63 36.734 0.043 6.38 5.33 12.79
3/7/2021 7:00:00 PM 2.54 36.572 0.043 6.38 5.65 12.8
3/7/2021 7:15:00 PM 2.46 36.428 0.043 6.38 5.68 12.82
3/7/2021 7:30:00 PM 2.39 36.302 0.043 6.37 5.59 12.84
3/7/2021 7:45:00 PM 2.33 36.194 0.043 6.37 5.39 12.85
3/7/2021 8:00:00 PM 2.28 36.104 0.043 6.37 5.44 12.87
3/7/2021 8:15:00 PM 2.22 35.996 0.043 6.37 5.44 12.88
3/7/2021 8:30:00 PM 2.16 35.888 0.043 6.38 5.5 12.91
3/7/2021 8:45:00 PM 2.1 35.78 0.043 6.37 5.47 12.94
3/7/2021 9:00:00 PM 2.04 35.672 0.043 6.37 5.5 12.96
3/7/2021 9:15:00 PM 1.98 35.564 0.043 6.36 5.46 12.99
3/7/2021 9:30:00 PM 1.91 35.438 0.043 6.36 5.51 13.01
3/7/2021 9:45:00 PM 1.86 35.348 0.043 6.37 5.49 13.03
3/7/2021 10:00:00 PM 1.8 35.24 0.043 6.37 5.4 13.06
3/7/2021 10:15:00 PM 1.74 35.132 0.043 6.37 5.61 13.08
3/7/2021 10:30:00 PM 1.68 35.024 0.043 6.36 5.42 13.1
3/7/2021 10:45:00 PM 1.63 34.934 0.043 6.37 5.41 13.12
3/7/2021 11:00:00 PM 1.58 34.844 0.043 6.37 5.56 13.13
3/7/2021 11:15:00 PM 1.51 34.718 0.043 6.37 5.44 13.16
3/7/2021 11:30:00 PM 1.45 34.61 0.043 6.37 5.56 13.18
3/7/2021 11:45:00 PM 1.4 34.52 0.043 6.37 5.46 13.21
3/8/2021 12:00:00 AM 1.34 34.412 0.043 6.37 5.53 13.23
3/8/2021 12:15:00 AM 1.29 34.322 0.043 6.38 5.54 13.25
3/8/2021 12:30:00 AM 1.22 34.196 0.043 6.38 5.54 13.28
3/8/2021 12:45:00 AM 1.16 34.088 0.043 6.38 5.49 13.3
3/8/2021 1:00:00 AM 1.11 33.998 0.043 6.36 5.55 13.32
3/8/2021 1:15:00 AM 1.05 33.89 0.044 6.38 5.5 13.35
3/8/2021 1:30:00 AM 0.98 33.764 0.044 6.37 5.51 13.37
3/8/2021 1:45:00 AM 0.93 33.674 0.044 6.37 5.42 13.39
3/8/2021 2:00:00 AM 0.87 33.566 0.044 6.38 5.59 13.42
3/8/2021 2:15:00 AM 0.81 33.458 0.044 6.38 5.49 13.45
3/8/2021 2:30:00 AM 0.75 33.35 0.044 6.38 5.47 13.48
3/8/2021 2:45:00 AM 0.7 33.26 0.044 6.38 5.47 13.5
3/8/2021 3:00:00 AM 0.64 33.152 0.044 6.38 5.49 13.52
3/8/2021 3:15:00 AM 0.58 33.044 0.044 6.38 5.51 13.54
3/8/2021 3:30:00 AM 0.52 32.936 0.044 6.38 5.44 13.57
3/8/2021 3:45:00 AM 0.46 32.828 0.044 6.39 5.41 13.6
3/8/2021 4:00:00 AM 0.4 32.72 0.044 6.38 5.49 13.62
3/8/2021 4:15:00 AM 0.35 32.63 0.044 6.39 5.53 13.64
3/8/2021 4:30:00 AM 0.29 32.522 0.044 6.39 5.43 13.67
3/8/2021 4:45:00 AM 0.24 32.432 0.044 6.39 5.46 13.69
3/8/2021 5:00:00 AM 0.19 32.342 0.044 6.39 5.49 13.72
3/8/2021 5:15:00 AM 0.14 32.252 0.044 6.38 5.65 13.73
3/8/2021 5:30:00 AM 0.1 32.18 0.044 6.38 5.69 13.74
3/8/2021 5:45:00 AM 0.06 32.108 0.044 6.38 5.58 13.75
3/8/2021 6:00:00 AM 0.05 32.09 0.044 6.38 5.57 13.76
3/8/2021 6:15:00 AM 0.03 32.054 0.044 6.38 5.48 13.77
3/8/2021 6:30:00 AM 0.02 32.036 0.044 6.39 5.44 13.78
3/8/2021 6:45:00 AM 0 32 0.044 6.38 5.51 13.79
3/8/2021 7:00:00 AM 0 32 0.044 6.39 5.52 13.82
3/8/2021 7:15:00 AM -0.01 31.982 0.044 6.4 5.67 13.85
3/8/2021 7:30:00 AM 0 32 0.044 6.41 5.51 13.88
3/8/2021 7:45:00 AM 0 32 0.044 6.41 5.03 13.92
3/8/2021 8:00:00 AM 0.01 32.018 0.044 6.43 4.9 13.94
3/8/2021 8:15:00 AM 0.01 32.018 0.044 6.43 7.29 13.95
3/8/2021 8:30:00 AM 0.03 32.054 0.044 6.44 5.03 13.98
3/8/2021 8:45:00 AM 0.07 32.126 0.044 6.45 4.91 13.98
3/8/2021 9:00:00 AM 0.13 32.234 0.044 6.46 4.93 13.99
3/8/2021 9:15:00 AM 0.21 32.378 0.044 6.47 4.91 13.98
3/8/2021 9:30:00 AM 0.35 32.63 0.044 6.48 4.91 13.95
3/8/2021 9:45:00 AM 0.51 32.918 0.044 6.49 4.81 13.9
3/8/2021 10:00:00 AM 0.67 33.206 0.044 6.5 4.86 13.87
3/8/2021 10:15:00 AM 0.86 33.548 0.043 6.5 8.95 13.81
3/8/2021 10:30:00 AM 1.05 33.89 0.043 6.51 4.46 13.76
3/8/2021 10:45:00 AM 1.27 34.286 0.043 6.52 4.42 13.71
3/8/2021 11:00:00 AM 1.47 34.646 0.043 6.53 4.42 13.67
3/8/2021 11:15:00 AM 1.66 34.988 0.043 6.54 4.22 13.63
3/8/2021 11:30:00 AM 1.74 35.132 0.043 6.53 4.19 13.61
3/8/2021 11:45:00 AM 1.73 35.114 0.043 6.52 4.16 13.59
3/8/2021 12:00:00 PM 1.7 35.06 0.043 6.51 4.35 13.61
3/8/2021 12:15:00 PM 1.64 34.952 0.043 6.5 4.29 13.61
3/8/2021 12:30:00 PM 1.59 34.862 0.043 6.5 5.28 13.62
3/8/2021 12:45:00 PM 1.54 34.772 0.043 6.49 4.47 13.63
3/8/2021 1:00:00 PM 1.49 34.682 0.043 6.49 5.89 13.64
3/8/2021 1:15:00 PM 1.47 34.646 0.043 6.48 5.66 13.65
3/8/2021 1:30:00 PM 1.52 34.736 0.043 6.49 5.24 13.64
3/8/2021 1:45:00 PM 1.66 34.988 0.043 6.49 5.33 13.62
3/8/2021 2:00:00 PM 1.83 35.294 0.043 6.51 5.27 13.58
3/8/2021 2:15:00 PM 1.98 35.564 0.043 6.51 5.27 13.52
3/8/2021 2:30:00 PM 2.15 35.87 0.043 6.51 5.26 13.45
3/8/2021 2:45:00 PM 2.35 36.23 0.043 6.52 5.41 13.39
3/8/2021 3:00:00 PM 2.46 36.428 0.043 6.51 5.22 13.33
3/8/2021 3:15:00 PM 2.56 36.608 0.043 6.52 5.41 13.28
3/8/2021 3:30:00 PM 2.62 36.716 0.042 6.51 5.26 13.24
3/8/2021 3:45:00 PM 2.67 36.806 0.042 6.52 5.24 13.21
3/8/2021 4:00:00 PM 2.7 36.86 0.042 6.5 5.98 13.18
3/8/2021 4:15:00 PM 2.69 36.842 0.042 6.5 5.72 13.17
3/8/2021 4:30:00 PM 2.66 36.788 0.042 6.5 5.73 13.15
3/8/2021 4:45:00 PM 2.62 36.716 0.042 6.49 5.82 13.14
3/8/2021 5:00:00 PM 2.58 36.644 0.042 6.48 6.16 13.12
3/8/2021 5:15:00 PM 2.55 36.59 0.042 6.47 5.88 13.1
3/8/2021 5:30:00 PM 2.52 36.536 0.042 6.46 5.69 13.07
3/8/2021 5:45:00 PM 2.5 36.5 0.042 6.45 5.79 13.03
3/8/2021 6:00:00 PM 2.49 36.482 0.043 6.44 5.92 12.99
3/8/2021 6:15:00 PM 2.47 36.446 0.043 6.42 5.87 12.95
3/8/2021 6:30:00 PM 2.45 36.41 0.043 6.42 5.89 12.92
3/8/2021 6:45:00 PM 2.42 36.356 0.043 6.4 5.78 12.9
3/8/2021 7:00:00 PM 2.39 36.302 0.043 6.39 5.81 12.88
3/8/2021 7:15:00 PM 2.35 36.23 0.043 6.39 5.65 12.87
3/8/2021 7:30:00 PM 2.33 36.194 0.043 6.39 5.65 12.87
3/8/2021 7:45:00 PM 2.31 36.158 0.043 6.38 5.68 12.87
3/8/2021 8:00:00 PM 2.3 36.14 0.043 6.38 5.82 12.86
3/8/2021 8:15:00 PM 2.28 36.104 0.043 6.39 5.84 12.87
3/8/2021 8:30:00 PM 2.26 36.068 0.043 6.38 5.93 12.86
3/8/2021 8:45:00 PM 2.25 36.05 0.043 6.38 6.05 12.87
3/8/2021 9:00:00 PM 2.23 36.014 0.043 6.37 5.74 12.88
3/8/2021 9:15:00 PM 2.2 35.96 0.043 6.37 5.87 12.88
3/8/2021 9:30:00 PM 2.19 35.942 0.043 6.38 5.8 12.89
3/8/2021 9:45:00 PM 2.18 35.924 0.043 6.37 5.92 12.89
3/8/2021 10:00:00 PM 2.17 35.906 0.043 6.37 5.76 12.9
3/8/2021 10:15:00 PM 2.18 35.924 0.043 6.37 5.79 12.9
3/8/2021 10:30:00 PM 2.18 35.924 0.043 6.37 5.8 12.9
3/8/2021 10:45:00 PM 2.19 35.942 0.043 6.37 5.72 12.89
3/8/2021 11:00:00 PM 2.21 35.978 0.043 6.36 5.71 12.89
3/8/2021 11:15:00 PM 2.21 35.978 0.043 6.37 5.71 12.89
3/8/2021 11:30:00 PM 2.2 35.96 0.043 6.36 5.69 12.89
3/8/2021 11:45:00 PM 2.19 35.942 0.043 6.37 5.8 12.89
3/9/2021 12:00:00 AM 2.17 35.906 0.043 6.37 5.76 12.9
3/9/2021 12:15:00 AM 2.15 35.87 0.043 6.37 5.82 12.9
3/9/2021 12:30:00 AM 2.13 35.834 0.043 6.36 5.83 12.9
3/9/2021 12:45:00 AM 2.13 35.834 0.043 6.36 5.81 12.91
3/9/2021 1:00:00 AM 2.13 35.834 0.043 6.36 5.84 12.91
3/9/2021 1:15:00 AM 2.13 35.834 0.043 6.37 5.79 12.9
3/9/2021 1:30:00 AM 2.14 35.852 0.043 6.37 5.74 12.91
3/9/2021 1:45:00 AM 2.13 35.834 0.043 6.37 5.71 12.91
3/9/2021 2:00:00 AM 2.12 35.816 0.043 6.37 5.66 12.91
3/9/2021 2:15:00 AM 2.11 35.798 0.043 6.37 5.72 12.92
3/9/2021 2:30:00 AM 2.1 35.78 0.043 6.36 5.86 12.91
3/9/2021 2:45:00 AM 2.09 35.762 0.043 6.36 5.71 12.92
3/9/2021 3:00:00 AM 2.08 35.744 0.043 6.36 5.97 12.93
3/9/2021 3:15:00 AM 2.06 35.708 0.043 6.37 5.75 12.93
3/9/2021 3:30:00 AM 2.05 35.69 0.043 6.37 5.71 12.93
3/9/2021 3:45:00 AM 2.03 35.654 0.043 6.36 5.79 12.94
3/9/2021 4:00:00 AM 2.01 35.618 0.043 6.36 5.75 12.94
3/9/2021 4:15:00 AM 1.97 35.546 0.043 6.36 5.75 12.95
3/9/2021 4:30:00 AM 1.95 35.51 0.043 6.36 5.82 12.96
3/9/2021 4:45:00 AM 1.93 35.474 0.043 6.36 5.77 12.98
3/9/2021 5:00:00 AM 1.9 35.42 0.043 6.37 5.77 12.99
3/9/2021 5:15:00 AM 1.88 35.384 0.043 6.36 5.77 13
3/9/2021 5:30:00 AM 1.85 35.33 0.043 6.36 6.71 13
3/9/2021 5:45:00 AM 1.82 35.276 0.043 6.36 5.76 13.02
3/9/2021 6:00:00 AM 1.8 35.24 0.044 6.36 5.77 13.03
3/9/2021 6:15:00 AM 1.77 35.186 0.044 6.36 5.88 13.04
3/9/2021 6:30:00 AM 1.74 35.132 0.044 6.36 5.88 13.04
3/9/2021 6:45:00 AM 1.72 35.096 0.044 6.36 5.97 13.07
3/9/2021 7:00:00 AM 1.7 35.06 0.044 6.38 6.07 13.11
3/9/2021 7:15:00 AM 1.68 35.024 0.043 6.37 6.02 13.15
3/9/2021 7:30:00 AM 1.68 35.024 0.043 6.39 5.95 13.2
3/9/2021 7:45:00 AM 1.67 35.006 0.043 6.4 5.9 13.24
3/9/2021 8:00:00 AM 1.67 35.006 0.043 6.41 5.86 13.28
3/9/2021 8:15:00 AM 1.67 35.006 0.043 6.42 5.89 13.31
3/9/2021 8:30:00 AM 1.69 35.042 0.043 6.43 5.89 13.34
3/9/2021 8:45:00 AM 1.73 35.114 0.043 6.44 6.4 13.35
3/9/2021 9:00:00 AM 1.79 35.222 0.043 6.44 5.96 13.36
3/9/2021 9:15:00 AM 1.88 35.384 0.043 6.46 6.33 13.35
3/9/2021 9:30:00 AM 1.99 35.582 0.043 6.47 5.93 13.34
3/9/2021 9:45:00 AM 2.13 35.834 0.043 6.49 5.9 13.31
3/9/2021 10:00:00 AM 2.3 36.14 0.043 6.5 5.82 13.27
3/9/2021 10:15:00 AM 2.5 36.5 0.043 6.5 5.84 13.24
3/9/2021 10:30:00 AM 2.69 36.842 0.043 6.51 5.78 13.19
3/9/2021 10:45:00 AM 2.89 37.202 0.043 6.52 5.81 13.14
3/9/2021 11:00:00 AM 3.12 37.616 0.043 6.54 5.73 13.08
3/9/2021 11:15:00 AM 3.33 37.994 0.043 6.55 5.8 13.01
3/9/2021 11:30:00 AM 3.54 38.372 0.043 6.55 5.84 12.96
3/9/2021 11:45:00 AM 3.77 38.786 0.043 6.55 5.81 12.89
3/9/2021 12:00:00 PM 4.01 39.218 0.042 6.56 5.73 12.8
3/9/2021 12:15:00 PM 4.25 39.65 0.042 6.56 5.71 12.72
3/9/2021 12:30:00 PM 4.53 40.154 0.042 6.58 6 12.64
3/9/2021 12:45:00 PM 4.8 40.64 0.042 6.57 5.7 12.55
3/9/2021 1:00:00 PM 5 41 0.042 6.56 6.02 12.49
3/9/2021 1:15:00 PM 5.21 41.378 0.042 6.56 6.02 12.42
3/9/2021 1:30:00 PM 5.42 41.756 0.042 6.57 6.01 12.34
3/9/2021 1:45:00 PM 5.57 42.026 0.042 6.58 6.17 12.27
3/9/2021 2:00:00 PM 5.75 42.35 0.042 6.54 6.46 12.2
3/9/2021 2:15:00 PM 5.91 42.638 0.042 6.56 5.18 12.16
3/9/2021 2:30:00 PM 6.04 42.872 0.042 6.57 5.13 12.1
3/9/2021 2:45:00 PM 6.17 43.106 0.042 6.57 5.07 12.04
3/9/2021 3:00:00 PM 6.29 43.322 0.042 6.56 8.99 12
3/9/2021 3:15:00 PM 6.35 43.43 0.043 6.56 5.26 11.96
3/9/2021 3:30:00 PM 6.36 43.448 0.043 6.56 5.78 11.94
3/9/2021 3:45:00 PM 6.4 43.52 0.043 6.55 6.1 11.92
3/9/2021 4:00:00 PM 6.33 43.394 0.043 6.54 4.05 11.9
3/9/2021 4:15:00 PM 6.21 43.178 0.043 6.53 4.61 11.92
3/9/2021 4:30:00 PM 6.07 42.926 0.043 6.52 4.5 11.92
3/9/2021 4:45:00 PM 5.93 42.674 0.043 6.51 4.58 11.92
3/9/2021 5:00:00 PM 5.8 42.44 0.043 6.49 4.52 11.94
3/9/2021 5:15:00 PM 5.67 42.206 0.043 6.47 4.61 11.94
3/9/2021 5:30:00 PM 5.55 41.99 0.043 6.46 5.5 11.93
3/9/2021 5:45:00 PM 5.42 41.756 0.043 6.44 4.88 11.93
3/9/2021 6:00:00 PM 5.28 41.504 0.044 6.42 4.89 11.94
3/9/2021 6:15:00 PM 5.15 41.27 0.044 6.41 5.95 11.96
3/9/2021 6:30:00 PM 5.01 41.018 0.044 6.39 5.26 11.97
3/9/2021 6:45:00 PM 4.88 40.784 0.044 6.38 6.08 11.99
3/9/2021 7:00:00 PM 4.75 40.55 0.044 6.38 6.41 12.01
3/9/2021 7:15:00 PM 4.65 40.37 0.044 6.37 5.1 12.03
3/9/2021 7:30:00 PM 4.56 40.208 0.044 6.37 5.05 12.05
3/9/2021 7:45:00 PM 4.48 40.064 0.044 6.37 4.94 12.08
3/9/2021 8:00:00 PM 4.41 39.938 0.044 6.38 5.26 12.1
3/9/2021 8:15:00 PM 4.34 39.812 0.044 6.37 5.14 12.13
3/9/2021 8:30:00 PM 4.27 39.686 0.044 6.36 5.24 12.15
3/9/2021 8:45:00 PM 4.2 39.56 0.044 6.38 5.02 12.17
3/9/2021 9:00:00 PM 4.13 39.434 0.044 6.37 5.05 12.19
3/9/2021 9:15:00 PM 4.06 39.308 0.044 6.37 4.97 12.22
3/9/2021 9:30:00 PM 3.99 39.182 0.044 6.36 5.14 12.24
3/9/2021 9:45:00 PM 3.93 39.074 0.044 6.38 4.95 12.27
3/9/2021 10:00:00 PM 3.87 38.966 0.044 6.37 5.02 12.29
3/9/2021 10:15:00 PM 3.81 38.858 0.044 6.36 5.29 12.31
3/9/2021 10:30:00 PM 3.76 38.768 0.044 6.37 4.91 12.33
3/9/2021 10:45:00 PM 3.7 38.66 0.044 6.37 5.11 12.36
3/9/2021 11:00:00 PM 3.65 38.57 0.045 6.37 5 12.38
3/9/2021 11:15:00 PM 3.59 38.462 0.044 6.38 4.95 12.39
3/9/2021 11:30:00 PM 3.55 38.39 0.045 6.38 5.03 12.41
3/9/2021 11:45:00 PM 3.5 38.3 0.045 6.37 4.94 12.43
3/10/2021 12:00:00 AM 3.45 38.21 0.045 6.38 5 12.45
3/10/2021 12:15:00 AM 3.41 38.138 0.045 6.37 4.98 12.47
3/10/2021 12:30:00 AM 3.36 38.048 0.045 6.38 5.05 12.49
3/10/2021 12:45:00 AM 3.32 37.976 0.045 6.37 5.16 12.5
3/10/2021 1:00:00 AM 3.28 37.904 0.045 6.37 5.05 12.52
3/10/2021 1:15:00 AM 3.23 37.814 0.045 6.38 5.04 12.54
3/10/2021 1:30:00 AM 3.19 37.742 0.045 6.37 4.99 12.56
3/10/2021 1:45:00 AM 3.15 37.67 0.045 6.38 5.06 12.57
3/10/2021 2:00:00 AM 3.11 37.598 0.045 6.38 4.99 12.59
3/10/2021 2:15:00 AM 3.07 37.526 0.044 6.38 4.99 12.6
3/10/2021 2:30:00 AM 3.03 37.454 0.044 6.38 5.15 12.62
3/10/2021 2:45:00 AM 3 37.4 0.044 6.38 5.05 12.63
3/10/2021 3:00:00 AM 2.96 37.328 0.044 6.37 5.03 12.64
3/10/2021 3:15:00 AM 2.92 37.256 0.044 6.39 5.01 12.66
3/10/2021 3:30:00 AM 2.89 37.202 0.044 6.38 5.04 12.67
3/10/2021 3:45:00 AM 2.86 37.148 0.044 6.38 4.98 12.68
3/10/2021 4:00:00 AM 2.83 37.094 0.044 6.38 4.92 12.69
3/10/2021 4:15:00 AM 2.8 37.04 0.044 6.38 5.01 12.7
3/10/2021 4:30:00 AM 2.76 36.968 0.044 6.39 5.14 12.72
3/10/2021 4:45:00 AM 2.73 36.914 0.044 6.38 4.97 12.73
3/10/2021 5:00:00 AM 2.7 36.86 0.044 6.38 4.98 12.74
3/10/2021 5:15:00 AM 2.67 36.806 0.044 6.38 5.09 12.76
3/10/2021 5:30:00 AM 2.64 36.752 0.044 6.38 4.97 12.77
3/10/2021 5:45:00 AM 2.62 36.716 0.044 6.38 4.97 12.78
3/10/2021 6:00:00 AM 2.59 36.662 0.044 6.38 4.93 12.79
3/10/2021 6:15:00 AM 2.56 36.608 0.044 6.38 4.96 12.81
3/10/2021 6:30:00 AM 2.53 36.554 0.044 6.38 5.11 12.82
3/10/2021 6:45:00 AM 2.51 36.518 0.044 6.39 5.04 12.84
3/10/2021 7:00:00 AM 2.49 36.482 0.044 6.39 5.07 12.87
3/10/2021 7:15:00 AM 2.46 36.428 0.044 6.39 4.94 12.9
3/10/2021 7:30:00 AM 2.45 36.41 0.044 6.4 5.1 12.95
3/10/2021 7:45:00 AM 2.44 36.392 0.044 6.41 4.98 12.98
3/10/2021 8:00:00 AM 2.43 36.374 0.044 6.43 5.14 13.02
3/10/2021 8:15:00 AM 2.43 36.374 0.044 6.43 5.07 13.05
3/10/2021 8:30:00 AM 2.45 36.41 0.044 6.44 4.95 13.07
3/10/2021 8:45:00 AM 2.5 36.5 0.044 6.45 5.01 13.09
3/10/2021 9:00:00 AM 2.58 36.644 0.044 6.47 5.1 13.09
3/10/2021 9:15:00 AM 2.67 36.806 0.043 6.48 5.03 13.09
3/10/2021 9:30:00 AM 2.78 37.004 0.043 6.49 5.02 13.06
3/10/2021 9:45:00 AM 2.92 37.256 0.043 6.5 4.96 13.04
3/10/2021 10:00:00 AM 3.08 37.544 0.043 6.51 5.04 13.01
3/10/2021 10:15:00 AM 3.25 37.85 0.043 6.52 4.99 12.98
3/10/2021 10:30:00 AM 3.43 38.174 0.043 6.53 5.04 12.92
3/10/2021 10:45:00 AM 3.63 38.534 0.043 6.54 4.96 12.88
3/10/2021 11:00:00 AM 3.84 38.912 0.043 6.54 5.17 12.82
3/10/2021 11:15:00 AM 4.07 39.326 0.043 6.55 5.77 12.75
3/10/2021 11:30:00 AM 4.3 39.74 0.043 6.55 5.2 12.69
3/10/2021 11:45:00 AM 4.54 40.172 0.043 6.56 5.37 12.61
3/10/2021 12:00:00 PM 4.79 40.622 0.043 6.57 5.46 12.53
3/10/2021 12:15:00 PM 5.04 41.072 0.043 6.57 5.13 12.46
3/10/2021 12:30:00 PM 5.29 41.522 0.043 6.57 5.26 12.38
3/10/2021 12:45:00 PM 5.53 41.954 0.043 6.57 5.84 12.3
3/10/2021 1:00:00 PM 5.76 42.368 0.043 6.57 5.17 12.23
3/10/2021 1:15:00 PM 5.97 42.746 0.043 6.56 5.74 12.15
3/10/2021 1:30:00 PM 6.15 43.07 0.043 6.57 6.61 12.09
3/10/2021 1:45:00 PM 6.32 43.376 0.043 6.57 5.42 12.03
3/10/2021 2:00:00 PM 6.49 43.682 0.043 6.58 5.63 11.97
3/10/2021 2:15:00 PM 6.64 43.952 0.043 6.58 6.15 11.91
3/10/2021 2:30:00 PM 6.76 44.168 0.043 6.57 6.12 11.86
3/10/2021 2:45:00 PM 6.84 44.312 0.043 6.58 6.43 11.82
3/10/2021 3:00:00 PM 6.91 44.438 0.043 6.58 6.44 11.79
3/10/2021 3:15:00 PM 6.95 44.51 0.043 6.56 6.74 11.76
3/10/2021 3:30:00 PM 6.92 44.456 0.043 6.55 6.97 11.75
3/10/2021 3:45:00 PM 6.89 44.402 0.043 6.56 7.26 11.73
3/10/2021 4:00:00 PM 6.8 44.24 0.043 6.54 7.01 11.73
3/10/2021 4:15:00 PM 6.7 44.06 0.043 6.53 7.05 11.72
3/10/2021 4:30:00 PM 6.59 43.862 0.043 6.51 6.34 11.73
3/10/2021 4:45:00 PM 6.49 43.682 0.044 6.5 6.04 11.74
3/10/2021 5:00:00 PM 6.4 43.52 0.044 6.49 5.99 11.75
3/10/2021 5:15:00 PM 6.29 43.322 0.044 6.46 6.62 11.75
3/10/2021 5:30:00 PM 6.17 43.106 0.044 6.46 9.73 11.74
3/10/2021 5:45:00 PM 6.05 42.89 0.044 6.43 9.6 11.73
3/10/2021 6:00:00 PM 5.93 42.674 0.044 6.42 6.44 11.72
3/10/2021 6:15:00 PM 5.81 42.458 0.044 6.4 6.76 11.72
3/10/2021 6:30:00 PM 5.71 42.278 0.044 6.37 6.92 11.72
3/10/2021 6:45:00 PM 5.62 42.116 0.044 6.35 7.36 11.72
3/10/2021 7:00:00 PM 5.53 41.954 0.044 6.35 7.53 11.72
3/10/2021 7:15:00 PM 5.44 41.792 0.044 6.35 8.92 11.74
3/10/2021 7:30:00 PM 5.36 41.648 0.044 6.36 11.12 11.76
3/10/2021 7:45:00 PM 5.27 41.486 0.044 6.33 7.62 11.78
3/10/2021 8:00:00 PM 5.19 41.342 0.044 6.33 8.84 11.81
3/10/2021 8:15:00 PM 5.12 41.216 0.044 6.33 7.64 11.84
3/10/2021 8:30:00 PM 5.05 41.09 0.044 6.34 7.34 11.86
3/10/2021 8:45:00 PM 4.99 40.982 0.044 6.34 16.23 11.87
3/10/2021 9:00:00 PM 4.93 40.874 0.044 6.32 7.67 11.9
3/10/2021 9:15:00 PM 4.87 40.766 0.044 6.33 17.26 11.91
3/10/2021 9:30:00 PM 4.82 40.676 0.044 6.32 18.57 11.93
3/10/2021 9:45:00 PM 4.76 40.568 0.044 6.32 8.04 11.95
3/10/2021 10:00:00 PM 4.71 40.478 0.043 6.32 8.02 11.96
3/10/2021 10:15:00 PM 4.66 40.388 0.043 6.32 13.32 11.99
3/10/2021 10:30:00 PM 4.61 40.298 0.043 6.31 27.51 12
3/10/2021 10:45:00 PM 4.56 40.208 0.043 6.31 7.58 12.02
3/10/2021 11:00:00 PM 4.52 40.136 0.043 6.3 10.58 12.04
3/10/2021 11:15:00 PM 4.48 40.064 0.043 6.32 9.51 12.06
3/10/2021 11:30:00 PM 4.44 39.992 0.043 6.32 10.86 12.07
3/10/2021 11:45:00 PM 4.42 39.956 0.043 6.31 12.19 12.07
3/11/2021 12:00:00 AM 4.4 39.92 0.043 6.3 10.67 12.09
3/11/2021 12:15:00 AM 4.38 39.884 0.042 6.3 8.18 12.09
3/11/2021 12:30:00 AM 4.36 39.848 0.042 6.3 8.72 12.11
3/11/2021 12:45:00 AM 4.35 39.83 0.042 6.29 10.67 12.1
3/11/2021 1:00:00 AM 4.34 39.812 0.042 6.3 8.08 12.11
3/11/2021 1:15:00 AM 4.34 39.812 0.042 6.3 10.2 12.11
3/11/2021 1:30:00 AM 4.33 39.794 0.042 6.3 10.91 12.11
3/11/2021 1:45:00 AM 4.33 39.794 0.042 6.28 15.52 12.12
3/11/2021 2:00:00 AM 4.32 39.776 0.042 6.3 9.35 12.12
3/11/2021 2:15:00 AM 4.32 39.776 0.041 6.29 9.03 12.11
3/11/2021 2:30:00 AM 4.32 39.776 0.041 6.29 8.59 12.11
3/11/2021 2:45:00 AM 4.32 39.776 0.041 6.28 8.53 12.12
3/11/2021 3:00:00 AM 4.32 39.776 0.041 6.28 10.05 12.11
3/11/2021 3:15:00 AM 4.31 39.758 0.041 6.28 9.38 12.11
3/11/2021 3:30:00 AM 4.32 39.776 0.041 6.27 13.17 12.11
3/11/2021 3:45:00 AM 4.31 39.758 0.041 6.27 24.39 12.11
3/11/2021 4:00:00 AM 4.32 39.776 0.041 6.29 19.97 12.12
3/11/2021 4:15:00 AM 4.32 39.776 0.041 6.29 11.53 12.11
3/11/2021 4:30:00 AM 4.32 39.776 0.041 6.29 11.7 12.11
3/11/2021 4:45:00 AM 4.32 39.776 0.041 6.29 10.14 12.11
3/11/2021 5:00:00 AM 4.32 39.776 0.041 6.29 10 12.11
3/11/2021 5:15:00 AM 4.31 39.758 0.041 6.29 16.58 12.11
3/11/2021 5:30:00 AM 4.29 39.722 0.041 6.29 8.88 12.12
3/11/2021 5:45:00 AM 4.28 39.704 0.04 6.27 28.88 12.12
3/11/2021 6:00:00 AM 4.27 39.686 0.04 6.27 10.67 12.12
3/11/2021 6:15:00 AM 4.26 39.668 0.04 6.28 12.09 12.13
3/11/2021 6:30:00 AM 4.25 39.65 0.04 6.29 11.51 12.13
3/11/2021 6:45:00 AM 4.23 39.614 0.04 6.29 12.29 12.13
3/11/2021 7:00:00 AM 4.22 39.596 0.04 6.28 10.76 12.15
3/11/2021 7:15:00 AM 4.21 39.578 0.04 6.28 12.27 12.17
3/11/2021 7:30:00 AM 4.2 39.56 0.04 6.25 40.01 12.2
3/11/2021 7:45:00 AM 4.22 39.596 0.04 6.28 22.62 12.23
3/11/2021 8:00:00 AM 4.26 39.668 0.04 6.31 13.82 12.26
3/11/2021 8:15:00 AM 4.31 39.758 0.04 6.32 11.56 12.26
3/11/2021 8:30:00 AM 4.36 39.848 0.04 6.32 10.11 12.27
3/11/2021 8:45:00 AM 4.41 39.938 0.04 6.31 9.94 12.28
3/11/2021 9:00:00 AM 4.47 40.046 0.04 6.28 10.87 12.27
3/11/2021 9:15:00 AM 4.51 40.118 0.04 6.28 11.87 12.23
3/11/2021 9:30:00 AM 4.55 40.19 0.04 6.25 10.29 12.22
3/11/2021 9:45:00 AM 4.6 40.28 0.04 6.26 8.74 12.21
3/11/2021 10:00:00 AM 4.68 40.424 0.04 6.26 8.88 12.21
3/11/2021 10:15:00 AM 4.79 40.622 0.04 6.29 9.42 12.2
3/11/2021 10:30:00 AM 4.93 40.874 0.04 6.3 10.56 12.17
3/11/2021 10:45:00 AM 5.11 41.198 0.04 6.34 10.88 12.15
3/11/2021 11:00:00 AM 5.24 41.432 0.04 6.34 10.89 12.12
3/11/2021 11:15:00 AM 5.42 41.756 0.04 6.34 9.89 12.07
3/11/2021 11:30:00 AM 5.57 42.026 0.04 6.35 14.59 12.03
3/11/2021 11:45:00 AM 5.69 42.242 0.039 6.35 8.83 11.99
3/11/2021 12:00:00 PM 5.8 42.44 0.039 6.35 8.72 11.95
3/11/2021 12:15:00 PM 5.91 42.638 0.039 6.34 9.04 11.91
3/11/2021 12:30:00 PM 5.98 42.764 0.039 6.33 9.42 11.87
3/11/2021 12:45:00 PM 6.06 42.908 0.039 6.29 9.46 11.84
3/11/2021 1:00:00 PM 6.11 42.998 0.039 6.28 14.91 11.82
3/11/2021 1:15:00 PM 6.28 43.304 0.039 6.39 14.14 11.8
3/11/2021 1:30:00 PM 6.39 43.502 0.039 6.42 12.13 11.75
3/11/2021 1:45:00 PM 6.45 43.61 0.039 6.34 11.6 11.71
3/11/2021 2:00:00 PM 6.48 43.664 0.039 6.35 11.34 11.69
3/11/2021 2:15:00 PM 6.49 43.682 0.039 6.37 15.3 11.64
3/11/2021 2:30:00 PM 6.48 43.664 0.039 6.3 16.02 11.61
3/11/2021 2:45:00 PM 6.43 43.574 0.039 6.21 23.39 11.58
3/11/2021 3:00:00 PM 6.36 43.448 0.039 6.17 19.63 11.57
3/11/2021 3:15:00 PM 6.31 43.358 0.039 6.13 43.48 11.56
3/11/2021 3:30:00 PM 6.26 43.268 0.039 6.16 21.2 11.56
3/11/2021 3:45:00 PM 6.21 43.178 0.039 6.18 23.1 11.57
3/11/2021 4:00:00 PM 6.15 43.07 0.039 6.2 19.26 11.57
3/11/2021 4:15:00 PM 6.12 43.016 0.039 6.25 21.6 11.58
3/11/2021 4:30:00 PM 6.1 42.98 0.039 6.17 24.45 11.58
3/11/2021 4:45:00 PM 6.08 42.944 0.039 6.08 21.35 11.57
3/11/2021 5:00:00 PM 6.05 42.89 0.039 6.08 33.86 11.56
3/11/2021 5:15:00 PM 6.03 42.854 0.039 6.15 36.81 11.56
3/11/2021 5:30:00 PM 6.01 42.818 0.038 6.11 25.44 11.56
3/11/2021 5:45:00 PM 5.98 42.764 0.038 6.16 31.03 11.57
3/11/2021 6:00:00 PM 5.93 42.674 0.038 6.12 28.8 11.58
3/11/2021 6:15:00 PM 5.89 42.602 0.038 6.12 75.78 11.59
3/11/2021 6:30:00 PM 5.85 42.53 0.038 6.05 42.73 11.6
3/11/2021 6:45:00 PM 5.8 42.44 0.038 6.05 42.98 11.6
3/11/2021 7:00:00 PM 5.75 42.35 0.038 6.03 48.93 11.62
3/11/2021 7:15:00 PM 5.71 42.278 0.038 6.01 44.04 11.63
3/11/2021 7:30:00 PM 5.66 42.188 0.038 6.03 78.89 11.65
3/11/2021 7:45:00 PM 5.61 42.098 0.038 6.09 44.15 11.66
3/11/2021 8:00:00 PM 5.57 42.026 0.037 6 330.32 11.67
3/11/2021 8:15:00 PM 5.53 41.954 0.026 5.98 150.57 11.69
3/11/2021 8:30:00 PM 5.5 41.9 0.02 5.94 486.94 11.71
3/11/2021 8:45:00 PM 5.48 41.864 0.024 5.98 79.52 11.71
3/11/2021 9:00:00 PM 5.45 41.81 0.022 5.96 536.06 11.72
3/11/2021 9:15:00 PM 5.41 41.738 0.038 5.99 83.24 11.71
3/11/2021 9:30:00 PM 5.38 41.684 0.037 5.92 95.34 11.74
3/11/2021 9:45:00 PM 5.35 41.63 0.038 5.91 107.26 11.75
3/11/2021 10:00:00 PM 5.34 41.612 0.038 5.95 281.7 11.75
3/11/2021 10:15:00 PM 5.33 41.594 0.037 5.9 145.33 11.76
3/11/2021 10:30:00 PM 5.32 41.576 0.036 5.9 154.43 11.74
3/11/2021 10:45:00 PM 5.3 41.54 0.037 5.92 134.34 11.75
3/11/2021 11:00:00 PM 5.29 41.522 0.037 5.9 288.23 11.77
3/11/2021 11:15:00 PM 5.27 41.486 0.038 5.96 171.8 11.77
3/11/2021 11:30:00 PM 5.26 41.468 0.038 5.94 700.11 11.78
3/11/2021 11:45:00 PM 5.25 41.45 0.038 5.92 208 11.79
3/12/2021 12:00:00 AM 5.24 41.432 0.038 5.92 719.14 11.78
3/12/2021 12:15:00 AM 5.22 41.396 0.038 5.91 536.48 11.76
3/12/2021 12:30:00 AM 5.21 41.378 0.038 5.93 1252.18 11.77
3/12/2021 12:45:00 AM 5.21 41.378 0.039 5.94 182.78 11.77
3/12/2021 1:00:00 AM 5.2 41.36 0.037 5.91 108.75 11.81
3/12/2021 1:15:00 AM 5.19 41.342 0.038 5.9 791.47 11.81
3/12/2021 1:30:00 AM 5.19 41.342 0.038 6.02 136.71 11.82
3/12/2021 1:45:00 AM 5.18 41.324 0.038 6 168.49 11.82
3/12/2021 2:00:00 AM 5.19 41.342 0.036 5.85 164.68 11.82
3/12/2021 2:15:00 AM 5.2 41.36 0.038 5.85 167.63 11.82
3/12/2021 2:30:00 AM 5.21 41.378 0.035 5.98 159.29 11.82
3/12/2021 2:45:00 AM 5.2 41.36 0.033 5.92 155.39 11.82
3/12/2021 3:00:00 AM 5.19 41.342 0.034 5.83 147.47 11.82
3/12/2021 3:15:00 AM 5.18 41.324 0.036 5.77 148.75 11.82
3/12/2021 3:30:00 AM 5.15 41.27 0.036 5.94 150.72 11.83
3/12/2021 3:45:00 AM 5.13 41.234 0.034 5.88 149.36 11.83
3/12/2021 4:00:00 AM 5.12 41.216 0.033 5.88 149.3 11.83
3/12/2021 4:15:00 AM 5.11 41.198 0.032 6.01 149.47 11.84
3/12/2021 4:30:00 AM 5.09 41.162 0.032 5.9 151.09 11.82
3/12/2021 4:45:00 AM 5.07 41.126 0.032 5.9 150.17 11.8
3/12/2021 5:00:00 AM 5.04 41.072 0.032 5.93 149.92 11.81
3/12/2021 5:15:00 AM 5.01 41.018 0.032 5.95 148.3 11.86
3/12/2021 5:30:00 AM 4.98 40.964 0.033 5.97 148.32 11.9
3/12/2021 5:45:00 AM 4.96 40.928 0.033 5.9 147.06 11.92
3/12/2021 6:00:00 AM 4.93 40.874 0.034 5.87 146.57 11.92
3/12/2021 6:15:00 AM 4.91 40.838 0.034 6 145.54 11.93
3/12/2021 6:30:00 AM 4.89 40.802 0.034 5.99 146.39 11.95
3/12/2021 6:45:00 AM 4.87 40.766 0.034 6.03 144.51 11.94
3/12/2021 7:00:00 AM 4.85 40.73 0.033 5.97 145.96 11.95
3/12/2021 7:15:00 AM 4.84 40.712 0.032 5.96 140.5 11.96
3/12/2021 7:30:00 AM 4.82 40.676 0.033 6.05 135.32 11.97
3/12/2021 7:45:00 AM 4.81 40.658 0.034 5.94 133.4 11.98
3/12/2021 8:00:00 AM 4.81 40.658 0.035 5.93 141.03 11.99
3/12/2021 8:15:00 AM 4.81 40.658 0.037 5.91 151.27 12
3/12/2021 8:30:00 AM 4.84 40.712 0.037 5.89 359.45 12.01
3/12/2021 8:45:00 AM 4.88 40.784 0.037 5.95 268.92 12.01
3/12/2021 9:00:00 AM 4.94 40.892 0.036 5.94 985.32 12
3/12/2021 9:15:00 AM 5 41 0.037 5.97 8148.82 11.98
3/12/2021 9:30:00 AM 5.08 41.144 0.037 6 6634.16 11.97
3/12/2021 9:45:00 AM 5.18 41.324 0.036 6.05 3609.22 11.96
3/12/2021 10:00:00 AM 5.27 41.486 0.036 5.99 157.01 11.93
3/12/2021 10:15:00 AM 5.37 41.666 0.035 5.93 157.1 11.9
3/12/2021 10:30:00 AM 5.48 41.864 0.036 5.84 154.86 11.87
3/12/2021 10:45:00 AM 5.59 42.062 0.035 5.94 153.83 11.84
3/12/2021 11:00:00 AM 5.72 42.296 0.035 5.97 154.59 11.81
3/12/2021 11:15:00 AM 5.85 42.53 0.035 5.88 155.05 11.77
3/12/2021 11:30:00 AM 5.98 42.764 0.035 5.96 153.86 11.73
3/12/2021 11:45:00 AM 6.12 43.016 0.035 5.95 154.86 11.7
3/12/2021 12:00:00 PM 6.25 43.25 0.035 5.92 155.09 11.66
3/12/2021 12:15:00 PM 6.38 43.484 0.035 5.92 154.58 11.61
3/12/2021 12:30:00 PM 6.5 43.7 0.035 5.91 154.62 11.57
3/12/2021 12:45:00 PM 6.63 43.934 0.035 5.9 154.17 11.52
3/12/2021 1:00:00 PM 6.75 44.15 0.035 5.88 154.41 11.48
3/12/2021 1:15:00 PM 6.85 44.33 0.035 5.89 152.42 11.47
3/12/2021 1:30:00 PM 6.96 44.528 0.034 5.9 152.77 11.43
3/12/2021 1:45:00 PM 7.04 44.672 0.032 5.91 152.54 11.4
3/12/2021 2:00:00 PM 7.12 44.816 0.033 5.95 152.55 11.36
3/12/2021 2:15:00 PM 7.16 44.888 0.033 5.94 152.88 11.36
3/12/2021 2:30:00 PM 7.19 44.942 0.033 5.96 151.68 11.33
3/12/2021 2:45:00 PM 7.21 44.978 0.031 5.92 151.09 11.32
3/12/2021 3:00:00 PM 7.21 44.978 0.031 5.93 150.55 11.33
3/12/2021 3:15:00 PM 7.19 44.942 0.031 5.97 149.08 11.31
3/12/2021 3:30:00 PM 7.15 44.87 0.031 6.06 148.43 11.33
3/12/2021 3:45:00 PM 7.09 44.762 0.031 6.12 148.42 11.33
3/12/2021 4:00:00 PM 7.02 44.636 0.031 6.07 148.68 11.32
3/12/2021 4:15:00 PM 6.94 44.492 0.031 5.93 148.86 11.32
3/12/2021 4:30:00 PM 6.86 44.348 0.031 5.84 146.49 11.34
3/12/2021 4:45:00 PM 6.75 44.15 0.033 5.82 145.13 11.38
3/12/2021 5:00:00 PM 6.65 43.97 0.033 5.7 145.66 11.4
3/12/2021 5:15:00 PM 6.52 43.736 0.034 5.91 144.6 11.42
3/12/2021 5:30:00 PM 6.41 43.538 0.033 5.9 144.91 11.44
3/12/2021 5:45:00 PM 6.29 43.322 0.034 5.88 144.06 11.46
3/12/2021 6:00:00 PM 6.19 43.142 0.034 5.86 141.81 11.49
3/12/2021 6:15:00 PM 6.1 42.98 0.033 5.87 142.46 11.51
3/12/2021 6:30:00 PM 6.01 42.818 0.031 5.81 143.79 11.54
3/12/2021 6:45:00 PM 5.92 42.656 0.031 5.79 145.02 11.58
3/12/2021 7:00:00 PM 5.84 42.512 0.031 5.8 144.6 11.61
3/12/2021 7:15:00 PM 5.76 42.368 0.033 5.79 143.62 11.63
3/12/2021 7:30:00 PM 5.69 42.242 0.032 5.79 142.66 11.64
3/12/2021 7:45:00 PM 5.63 42.134 0.031 5.82 141.9 11.66
3/12/2021 8:00:00 PM 5.58 42.044 0.032 5.93 142.51 11.67
3/12/2021 8:15:00 PM 5.53 41.954 0.032 5.93 142.02 11.68
3/12/2021 8:30:00 PM 5.48 41.864 0.033 5.97 141.69 11.68
3/12/2021 8:45:00 PM 5.44 41.792 0.033 5.97 141.88 11.7
3/12/2021 9:00:00 PM 5.4 41.72 0.033 5.97 141.11 11.72
3/12/2021 9:15:00 PM 5.36 41.648 0.033 5.99 142 11.72
3/12/2021 9:30:00 PM 5.33 41.594 0.034 6 140.96 11.74
3/12/2021 9:45:00 PM 5.29 41.522 0.034 6.07 140.08 11.75
3/12/2021 10:00:00 PM 5.26 41.468 0.034 6.08 139.47 11.77
3/12/2021 10:15:00 PM 5.22 41.396 0.034 6.12 139.26 11.79
3/12/2021 10:30:00 PM 5.19 41.342 0.034 6.05 138.92 11.78
3/12/2021 10:45:00 PM 5.16 41.288 0.034 5.98 138.39 11.81
3/12/2021 11:00:00 PM 5.13 41.234 0.033 6.04 137.28 11.83
3/12/2021 11:15:00 PM 5.08 41.144 0.033 6.08 137.45 11.85
3/12/2021 11:30:00 PM 5.04 41.072 0.033 5.96 137.67 11.87
3/12/2021 11:45:00 PM 5.01 41.018 0.033 5.93 137.9 11.88
3/13/2021 12:00:00 AM 4.96 40.928 0.033 5.92 137.02 11.88
3/13/2021 12:15:00 AM 4.9 40.82 0.032 5.93 137.16 11.9
3/13/2021 12:30:00 AM 4.85 40.73 0.033 5.92 136.46 11.92
3/13/2021 12:45:00 AM 4.8 40.64 0.032 5.93 136.16 11.94
3/13/2021 1:00:00 AM 4.76 40.568 0.034 5.95 135.86 11.98
3/13/2021 1:15:00 AM 4.74 40.532 0.033 6.01 136.03 11.98
3/13/2021 1:30:00 AM 4.71 40.478 0.033 6.01 136.09 11.98
3/13/2021 1:45:00 AM 4.66 40.388 0.034 6 135.9 12
3/13/2021 2:00:00 AM 4.64 40.352 0.034 6.01 136.53 12.03
3/13/2021 2:15:00 AM 4.6 40.28 0.034 6.04 135.91 12.05
3/13/2021 2:30:00 AM 4.55 40.19 0.034 6.03 135.7 12.04
3/13/2021 2:45:00 AM 4.51 40.118 0.034 5.95 135.9 12.06
3/13/2021 3:00:00 AM 4.47 40.046 0.034 5.98 135.58 12.08
3/13/2021 3:15:00 AM 4.43 39.974 0.034 5.99 136.88 12.08
3/13/2021 3:30:00 AM 4.41 39.938 0.034 5.91 135.95 12.1
3/13/2021 3:45:00 AM 4.38 39.884 0.033 5.93 136.6 12.09
3/13/2021 4:00:00 AM 4.35 39.83 0.033 5.95 136.96 12.08
3/13/2021 4:15:00 AM 4.33 39.794 0.033 5.92 136.44 12.1
3/13/2021 4:30:00 AM 4.31 39.758 0.033 5.94 136.58 12.12
3/13/2021 4:45:00 AM 4.28 39.704 0.033 5.95 136.7 12.1
3/13/2021 5:00:00 AM 4.26 39.668 0.032 5.95 137.36 12.13
3/13/2021 5:15:00 AM 4.24 39.632 0.032 5.95 136.8 12.12
3/13/2021 5:30:00 AM 4.21 39.578 0.031 5.97 136.97 12.1
3/13/2021 5:45:00 AM 4.2 39.56 0.031 5.96 136.62 12.12
3/13/2021 6:00:00 AM 4.18 39.524 0.031 5.94 137.33 12.15
3/13/2021 6:15:00 AM 4.15 39.47 0.031 5.95 138.04 12.14
3/13/2021 6:30:00 AM 4.13 39.434 0.031 5.94 138.33 12.17
3/13/2021 6:45:00 AM 4.11 39.398 0.034 5.94 137.99 12.21
3/13/2021 7:00:00 AM 4.09 39.362 0.033 5.94 137.59 12.21
3/13/2021 7:15:00 AM 4.08 39.344 0.032 5.95 137.08 12.22
3/13/2021 7:30:00 AM 4.06 39.308 0.034 5.95 137.62 12.23
3/13/2021 7:45:00 AM 4.04 39.272 0.033 5.96 137.42 12.26
3/13/2021 8:00:00 AM 4.04 39.272 0.033 5.98 137.88 12.27
3/13/2021 8:15:00 AM 4.04 39.272 0.034 6.02 137.3 12.27
3/13/2021 8:30:00 AM 4.06 39.308 0.036 6.04 137.59 12.27
3/13/2021 8:45:00 AM 4.08 39.344 0.036 6.02 137.26 12.25
3/13/2021 9:00:00 AM 4.1 39.38 0.036 6.02 137.39 12.27
3/13/2021 9:15:00 AM 4.15 39.47 0.037 6 137.47 12.27
3/13/2021 9:30:00 AM 4.21 39.578 0.039 6.04 137.59 12.27
3/13/2021 9:45:00 AM 4.3 39.74 0.037 6.01 137.79 12.25
3/13/2021 10:00:00 AM 4.38 39.884 0.036 5.95 137.6 12.25
3/13/2021 10:15:00 AM 4.47 40.046 0.036 5.92 137.63 12.23
3/13/2021 10:30:00 AM 4.56 40.208 0.034 5.93 137.69 12.2
3/13/2021 10:45:00 AM 4.66 40.388 0.033 5.92 137.3 12.17
3/13/2021 11:00:00 AM 4.78 40.604 0.034 5.92 138.05 12.14
3/13/2021 11:15:00 AM 4.9 40.82 0.034 5.91 137.88 12.12
3/13/2021 11:30:00 AM 5.04 41.072 0.035 5.91 137.92 12.09
3/13/2021 11:45:00 AM 5.17 41.306 0.034 5.9 137.3 12.04
3/13/2021 12:00:00 PM 5.31 41.558 0.035 5.9 137.12 11.99
3/13/2021 12:15:00 PM 5.45 41.81 0.034 5.9 136.65 11.94
3/13/2021 12:30:00 PM 5.6 42.08 0.036 5.91 136.83 11.91
3/13/2021 12:45:00 PM 5.74 42.332 0.037 5.9 137.33 11.85
3/13/2021 1:00:00 PM 5.9 42.62 0.037 5.88 137.87 11.84
3/13/2021 1:15:00 PM 6.03 42.854 0.035 5.88 137.79 11.79
3/13/2021 1:30:00 PM 6.16 43.088 0.034 5.87 137.67 11.74
3/13/2021 1:45:00 PM 6.29 43.322 0.038 5.88 138.37 11.71
3/13/2021 2:00:00 PM 6.4 43.52 0.038 5.9 203.33 11.67
3/13/2021 2:15:00 PM 6.5 43.7 0.038 5.91 198.47 11.63
3/13/2021 2:30:00 PM 6.57 43.826 0.038 5.89 193.43 11.6
3/13/2021 2:45:00 PM 6.63 43.934 0.038 5.9 183.45 11.57
3/13/2021 3:00:00 PM 6.68 44.024 0.039 5.88 186.21 11.55
3/13/2021 3:15:00 PM 6.69 44.042 0.039 5.88 184.66 11.54
3/13/2021 3:30:00 PM 6.68 44.024 0.039 5.87 189.03 11.53
3/13/2021 3:45:00 PM 6.66 43.988 0.039 5.84 198.86 11.52
3/13/2021 4:00:00 PM 6.62 43.916 0.039 5.86 161.86 11.52
3/13/2021 4:15:00 PM 6.57 43.826 0.039 5.96 163.17 11.52
3/13/2021 4:30:00 PM 6.51 43.718 0.039 5.9 165.05 11.53
3/13/2021 4:45:00 PM 6.45 43.61 0.039 5.9 165.17 11.54
3/13/2021 5:00:00 PM 6.37 43.466 0.04 5.9 165.66 11.55
3/13/2021 5:15:00 PM 6.28 43.304 0.039 5.9 166.16 11.56
3/13/2021 5:30:00 PM 6.18 43.124 0.039 5.89 166.15 11.57
3/13/2021 5:45:00 PM 6.09 42.962 0.04 5.9 165.17 11.59
3/13/2021 6:00:00 PM 5.99 42.782 0.04 5.9 168.85 11.6
3/13/2021 6:15:00 PM 5.91 42.638 0.041 5.89 162.41 11.62
3/13/2021 6:30:00 PM 5.82 42.476 0.041 5.74 163.35 11.65
3/13/2021 6:45:00 PM 5.73 42.314 0.041 5.8 157.75 11.65
3/13/2021 7:00:00 PM 5.65 42.17 0.042 5.81 155.57 11.68
3/13/2021 7:15:00 PM 5.57 42.026 0.042 5.89 157.19 11.7
3/13/2021 7:30:00 PM 5.49 41.882 0.042 5.9 146.25 11.73
3/13/2021 7:45:00 PM 5.41 41.738 0.042 5.9 143.76 11.75
3/13/2021 8:00:00 PM 5.34 41.612 0.042 5.88 140.79 11.77
3/13/2021 8:15:00 PM 5.27 41.486 0.042 5.9 138.64 11.79
3/13/2021 8:30:00 PM 5.2 41.36 0.041 5.93 133.1 11.82
3/13/2021 8:45:00 PM 5.14 41.252 0.041 5.97 125.32 11.84
3/13/2021 9:00:00 PM 5.08 41.144 0.041 5.94 120.32 11.86
3/13/2021 9:15:00 PM 5.02 41.036 0.042 5.96 121.6 11.88
3/13/2021 9:30:00 PM 4.97 40.946 0.042 5.89 120.11 11.89
3/13/2021 9:45:00 PM 4.93 40.874 0.042 5.89 117.76 11.9
3/13/2021 10:00:00 PM 4.88 40.784 0.042 5.9 119.01 11.92
3/13/2021 10:15:00 PM 4.85 40.73 0.042 5.91 121.48 11.93
3/13/2021 10:30:00 PM 4.81 40.658 0.042 5.92 120.92 11.94
3/13/2021 10:45:00 PM 4.78 40.604 0.042 5.91 121.59 11.95
3/13/2021 11:00:00 PM 4.75 40.55 0.042 5.88 119.18 11.96
3/13/2021 11:15:00 PM 4.72 40.496 0.042 5.89 121.29 11.97
3/13/2021 11:30:00 PM 4.69 40.442 0.042 5.89 121.46 11.97
3/13/2021 11:45:00 PM 4.66 40.388 0.042 5.88 120.28 11.98
3/14/2021 12:00:00 AM 4.64 40.352 0.042 5.89 116.92 11.99
3/14/2021 12:15:00 AM 4.61 40.298 0.042 5.89 116.25 11.99
3/14/2021 12:30:00 AM 4.59 40.262 0.042 5.88 115.17 12.01
3/14/2021 12:45:00 AM 4.57 40.226 0.042 5.88 115.39 12.01
3/14/2021 1:00:00 AM 4.56 40.208 0.042 5.88 113.9 12.02
3/14/2021 1:15:00 AM 4.54 40.172 0.042 5.88 115.14 12.03
3/14/2021 1:30:00 AM 4.52 40.136 0.042 5.88 115.16 12.03
3/14/2021 1:45:00 AM 4.51 40.118 0.042 5.88 114.96 12.03
3/14/2021 3:45:00 AM 4.44 39.992 0.042 5.88 115.83 12.04
3/14/2021 4:00:00 AM 4.43 39.974 0.042 5.87 115.36 12.04
3/14/2021 4:15:00 AM 4.41 39.938 0.042 5.87 115.69 12.05
3/14/2021 4:30:00 AM 4.4 39.92 0.042 5.87 115.47 12.05
3/14/2021 4:45:00 AM 4.39 39.902 0.042 5.88 115.29 11.98
3/14/2021 5:00:00 AM 4.38 39.884 0.042 5.87 114.77 12.05
3/14/2021 5:15:00 AM 4.36 39.848 0.042 5.87 115.78 12.05
3/14/2021 5:30:00 AM 4.35 39.83 0.042 5.88 117.17 12.06
3/14/2021 5:45:00 AM 4.34 39.812 0.042 5.87 116.3 12.06
3/14/2021 6:00:00 AM 4.32 39.776 0.042 5.88 116.81 12.06
3/14/2021 6:15:00 AM 4.31 39.758 0.042 5.89 117.49 12.07
3/14/2021 6:30:00 AM 4.3 39.74 0.042 5.88 116.78 12.06
3/14/2021 6:45:00 AM 4.29 39.722 0.042 5.89 116.48 12.07
3/14/2021 7:00:00 AM 4.28 39.704 0.042 5.89 115.79 12.07
3/14/2021 7:15:00 AM 4.27 39.686 0.042 5.89 115.79 12.07
3/14/2021 7:30:00 AM 4.26 39.668 0.042 5.88 115.76 12.09
3/14/2021 7:45:00 AM 4.25 39.65 0.042 5.88 115.72 12.09
3/14/2021 8:00:00 AM 4.24 39.632 0.042 5.88 114.26 12.1
3/14/2021 8:15:00 AM 4.23 39.614 0.042 5.88 114.16 12.1
3/14/2021 8:30:00 AM 4.22 39.596 0.042 5.88 114.62 12.12
3/14/2021 8:45:00 AM 4.22 39.596 0.042 5.9 113.58 12.13
3/14/2021 9:00:00 AM 4.23 39.614 0.043 5.88 114.11 12.14
3/14/2021 9:15:00 AM 4.25 39.65 0.043 5.89 114.98 12.14
3/14/2021 9:30:00 AM 4.28 39.704 0.043 5.89 116.22 12.15
3/14/2021 9:45:00 AM 4.34 39.812 0.042 5.9 116.45 12.14
3/14/2021 10:00:00 AM 4.41 39.938 0.043 5.9 117.37 12.13
3/14/2021 10:15:00 AM 4.49 40.082 0.043 5.9 117.28 12.11
3/14/2021 10:30:00 AM 4.58 40.244 0.043 5.91 117.42 12.1
3/14/2021 10:45:00 AM 4.68 40.424 0.043 5.92 119.49 12.07
3/14/2021 11:00:00 AM 4.79 40.622 0.042 5.92 119.33 12.04
3/14/2021 11:15:00 AM 4.9 40.82 0.043 5.93 116.73 12.02
3/14/2021 11:30:00 AM 5.02 41.036 0.043 5.92 117.19 12
3/14/2021 11:45:00 AM 5.16 41.288 0.043 5.94 116.59 11.97
3/14/2021 12:00:00 PM 5.31 41.558 0.043 5.94 116.75 11.92
3/14/2021 12:15:00 PM 5.45 41.81 0.043 5.93 117.36 11.89
3/14/2021 12:30:00 PM 5.52 41.936 0.043 5.93 117.5 11.86
3/14/2021 12:45:00 PM 5.6 42.08 0.043 5.92 117.78 11.84
3/14/2021 1:00:00 PM 5.65 42.17 0.043 5.91 117.54 11.82
3/14/2021 1:15:00 PM 5.81 42.458 0.043 5.93 118.28 11.77
3/14/2021 1:30:00 PM 6 42.8 0.043 5.94 117.73 11.72
3/14/2021 1:45:00 PM 6.07 42.926 0.043 5.92 119.18 11.69
3/14/2021 2:00:00 PM 6.04 42.872 0.043 5.89 119.33 11.68
3/14/2021 2:15:00 PM 6.24 43.232 0.043 5.93 119.85 11.65
3/14/2021 2:30:00 PM 6.46 43.628 0.043 5.95 121.38 11.58
3/14/2021 2:45:00 PM 6.64 43.952 0.043 5.95 122.28 11.53
3/14/2021 3:00:00 PM 6.76 44.168 0.044 5.93 122.17 11.49
3/14/2021 3:15:00 PM 6.83 44.294 0.044 5.93 121.18 11.47
3/14/2021 3:30:00 PM 6.9 44.42 0.044 5.93 121.78 11.46
3/14/2021 3:45:00 PM 6.85 44.33 0.044 5.89 121.84 11.46
3/14/2021 4:00:00 PM 6.73 44.114 0.044 5.87 120.27 11.48
3/14/2021 4:15:00 PM 6.55 43.79 0.044 5.83 119.19 11.51
3/14/2021 4:30:00 PM 6.44 43.592 0.044 5.84 119.51 11.54
3/14/2021 4:45:00 PM 6.36 43.448 0.044 5.86 118.66 11.56
3/14/2021 5:00:00 PM 6.29 43.322 0.044 5.86 119.86 11.58
3/14/2021 5:15:00 PM 6.22 43.196 0.044 5.87 120.43 11.57
3/14/2021 5:30:00 PM 6.13 43.034 0.044 5.86 121.04 11.58
3/14/2021 5:45:00 PM 6.06 42.908 0.044 5.86 119.5 11.58
3/14/2021 6:00:00 PM 5.97 42.746 0.044 5.87 118.02 11.6
3/14/2021 6:15:00 PM 5.86 42.548 0.044 5.87 118.08 11.63
3/14/2021 6:30:00 PM 5.76 42.368 0.044 5.87 118.35 11.66
3/14/2021 6:45:00 PM 5.64 42.152 0.043 5.87 119.87 11.69
3/14/2021 7:00:00 PM 5.54 41.972 0.044 5.87 119.77 11.71
3/14/2021 7:15:00 PM 5.42 41.756 0.044 5.87 119.76 11.73
3/14/2021 7:30:00 PM 5.33 41.594 0.043 5.87 118.9 11.74
3/14/2021 7:45:00 PM 5.23 41.414 0.044 5.89 119.27 11.79
3/14/2021 8:00:00 PM 5.14 41.252 0.044 5.89 119.83 11.81
3/14/2021 8:15:00 PM 5.04 41.072 0.044 5.89 119.86 11.85
3/14/2021 8:30:00 PM 4.94 40.892 0.044 5.9 119.3 11.88
3/14/2021 8:45:00 PM 4.84 40.712 0.044 5.89 119.61 11.91
3/14/2021 9:00:00 PM 4.75 40.55 0.044 5.9 119.19 11.94
3/14/2021 9:15:00 PM 4.65 40.37 0.045 5.9 119.72 11.98
3/14/2021 9:30:00 PM 4.56 40.208 0.045 5.9 121.2 12.03
3/14/2021 9:45:00 PM 4.49 40.082 0.044 5.91 119.9 12.05
3/14/2021 10:00:00 PM 4.41 39.938 0.044 5.92 120.54 12.09
3/14/2021 10:15:00 PM 4.33 39.794 0.044 5.91 120.41 12.11
3/14/2021 10:30:00 PM 4.25 39.65 0.044 5.91 119.85 12.14
3/14/2021 10:45:00 PM 4.19 39.542 0.044 5.92 119.67 12.17
3/14/2021 11:00:00 PM 4.1 39.38 0.045 5.93 120.46 12.2
3/14/2021 11:15:00 PM 4 39.2 0.044 5.92 121.68 12.23
3/14/2021 11:30:00 PM 3.94 39.092 0.044 5.93 121.49 12.26
3/14/2021 11:45:00 PM 3.86 38.948 0.044 5.92 122.74 12.29
3/15/2021 12:00:00 AM 3.79 38.822 0.044 5.92 122.45 12.3
3/15/2021 12:15:00 AM 3.73 38.714 0.044 5.92 120.98 12.33
3/15/2021 12:30:00 AM 3.68 38.624 0.044 5.93 119.61 12.34
3/15/2021 12:45:00 AM 3.63 38.534 0.043 5.93 119 12.35
3/15/2021 1:00:00 AM 3.58 38.444 0.044 5.92 119.82 12.36
3/15/2021 1:15:00 AM 3.53 38.354 0.044 5.93 117.83 12.39
3/15/2021 1:30:00 AM 3.46 38.228 0.044 5.93 117.44 12.43
3/15/2021 1:45:00 AM 3.41 38.138 0.044 5.94 116.59 12.44
3/15/2021 2:00:00 AM 3.37 38.066 0.044 5.94 117.61 12.46
3/15/2021 2:15:00 AM 3.33 37.994 0.044 5.94 118.22 12.48
3/15/2021 2:30:00 AM 3.29 37.922 0.044 5.94 118.02 12.5
3/15/2021 2:45:00 AM 3.25 37.85 0.044 5.95 117.81 12.51
3/15/2021 3:00:00 AM 3.22 37.796 0.043 5.94 119.68 12.52
3/15/2021 3:15:00 AM 3.19 37.742 0.043 5.94 118.56 12.52
3/15/2021 3:30:00 AM 3.16 37.688 0.043 5.95 120.38 12.52
3/15/2021 3:45:00 AM 3.14 37.652 0.043 5.94 121.15 12.54
3/15/2021 4:00:00 AM 3.11 37.598 0.043 5.94 120.33 12.54
3/15/2021 4:15:00 AM 3.09 37.562 0.043 5.94 120.35 12.56
3/15/2021 4:30:00 AM 3.06 37.508 0.043 5.95 121.21 12.55
3/15/2021 4:45:00 AM 3.03 37.454 0.043 5.94 122.56 12.58
3/15/2021 5:00:00 AM 3.01 37.418 0.043 5.94 123.39 12.57
3/15/2021 5:15:00 AM 2.98 37.364 0.044 5.94 122.15 12.58
3/15/2021 5:30:00 AM 2.96 37.328 0.044 5.94 120.81 12.6
3/15/2021 5:45:00 AM 2.93 37.274 0.043 5.94 120.4 12.61
3/15/2021 6:00:00 AM 2.91 37.238 0.043 5.94 122.06 12.61
3/15/2021 6:15:00 AM 2.89 37.202 0.043 5.94 121.77 12.62
3/15/2021 6:30:00 AM 2.86 37.148 0.043 5.94 123.46 12.63
3/15/2021 6:45:00 AM 2.84 37.112 0.043 5.94 123.34 12.64
3/15/2021 7:00:00 AM 2.82 37.076 0.043 5.94 122.87 12.65
3/15/2021 7:15:00 AM 2.8 37.04 0.043 5.88 123.26 12.66
3/15/2021 7:30:00 AM 2.77 36.986 0.04 5.81 122.98 12.65
3/15/2021 7:45:00 AM 2.75 36.95 0.04 5.83 122.07 12.7
3/15/2021 8:00:00 AM 2.73 36.914 0.04 5.93 123 12.69
3/15/2021 8:15:00 AM 2.72 36.896 0.04 5.94 122.99 12.7
3/15/2021 8:30:00 AM 2.71 36.878 0.039 5.92 123.36 12.79
3/15/2021 8:45:00 AM 2.69 36.842 0.04 5.93 123.92 12.8
3/15/2021 9:00:00 AM 2.69 36.842 0.04 5.93 124.34 12.81
3/15/2021 9:15:00 AM 2.69 36.842 0.04 5.94 124 12.83
3/15/2021 9:30:00 AM 2.71 36.878 0.041 5.94 122.45 12.84
3/15/2021 9:45:00 AM 2.73 36.914 0.04 5.93 123.61 12.84
3/15/2021 10:00:00 AM 2.76 36.968 0.04 5.94 122.27 12.84
3/15/2021 10:15:00 AM 2.81 37.058 0.04 5.96 121.97 12.84
3/15/2021 10:30:00 AM 2.87 37.166 0.04 5.95 121.85 12.83
3/15/2021 10:45:00 AM 2.96 37.328 0.04 5.96 122.59 12.82
3/15/2021 11:00:00 AM 3.06 37.508 0.04 5.97 123.99 12.79
3/15/2021 11:15:00 AM 3.16 37.688 0.04 5.96 122.68 12.78
3/15/2021 11:30:00 AM 3.26 37.868 0.04 5.97 122.38 12.74
3/15/2021 11:45:00 AM 3.38 38.084 0.04 5.96 122.84 12.71
3/15/2021 12:00:00 PM 3.52 38.336 0.04 5.95 122.35 12.67
3/15/2021 12:15:00 PM 3.66 38.588 0.04 5.95 123.1 12.64
3/15/2021 12:30:00 PM 3.79 38.822 0.04 5.95 122.95 12.6
3/15/2021 12:45:00 PM 3.95 39.11 0.04 5.96 123.45 12.55
3/15/2021 1:00:00 PM 4.11 39.398 0.04 5.95 125.88 12.49
3/15/2021 1:15:00 PM 4.27 39.686 0.04 5.95 126.84 12.44
3/15/2021 1:30:00 PM 4.44 39.992 0.04 5.95 126.38 12.39
3/15/2021 1:45:00 PM 4.61 40.298 0.04 5.95 127.2 12.32
3/15/2021 2:00:00 PM 4.77 40.586 0.04 5.94 127.21 12.28
3/15/2021 2:15:00 PM 4.93 40.874 0.04 5.94 128.06 12.14
3/15/2021 2:30:00 PM 5.06 41.108 0.039 5.94 126.21 12.15
3/15/2021 2:45:00 PM 5.21 41.378 0.039 5.92 126.39 12.13
3/15/2021 3:00:00 PM 5.34 41.612 0.039 5.91 125.8 12.08
3/15/2021 3:15:00 PM 5.47 41.846 0.039 5.9 128.6 12.02
3/15/2021 3:30:00 PM 5.57 42.026 0.04 5.89 128.67 11.99
3/15/2021 3:45:00 PM 5.66 42.188 0.04 5.88 127.84 11.96
3/15/2021 4:00:00 PM 5.7 42.26 0.039 5.84 124.29 11.92
3/15/2021 4:15:00 PM 5.73 42.314 0.039 5.86 123.89 11.91
3/15/2021 4:30:00 PM 5.74 42.332 0.039 5.84 124.25 11.89
3/15/2021 4:45:00 PM 5.71 42.278 0.039 5.83 125.15 11.88
3/15/2021 5:00:00 PM 5.67 42.206 0.039 5.81 125.04 11.87
3/15/2021 5:15:00 PM 5.64 42.152 0.039 5.8 124.84 11.87
3/15/2021 5:30:00 PM 5.58 42.044 0.039 5.79 124.78 11.87
3/15/2021 5:45:00 PM 5.54 41.972 0.039 5.8 123.54 11.86
3/15/2021 6:00:00 PM 5.47 41.846 0.039 5.79 123.33 11.88
3/15/2021 6:15:00 PM 5.4 41.72 0.039 5.78 123.08 11.9
3/15/2021 6:30:00 PM 5.34 41.612 0.038 5.79 123.85 11.9
3/15/2021 6:45:00 PM 5.28 41.504 0.038 5.79 123.43 11.91
3/15/2021 7:00:00 PM 5.21 41.378 0.038 5.78 123.59 11.92
3/15/2021 7:15:00 PM 5.14 41.252 0.038 5.79 123.3 11.92
3/15/2021 7:30:00 PM 5.06 41.108 0.038 5.78 123.62 11.93
3/15/2021 7:45:00 PM 4.98 40.964 0.038 5.78 122.24 11.94
3/15/2021 8:00:00 PM 4.9 40.82 0.039 5.78 121.98 11.96
3/15/2021 8:15:00 PM 4.83 40.694 0.039 5.78 123.7 11.97
3/15/2021 8:30:00 PM 4.76 40.568 0.039 5.79 123.92 11.99
3/15/2021 8:45:00 PM 4.68 40.424 0.039 5.78 125.59 12
3/15/2021 9:00:00 PM 4.61 40.298 0.039 5.78 125.37 12.03
3/15/2021 9:15:00 PM 4.54 40.172 0.039 5.78 125.17 12.06
3/15/2021 9:30:00 PM 4.47 40.046 0.039 5.78 125.25 12.08
3/15/2021 9:45:00 PM 4.42 39.956 0.038 5.78 123.66 12.1
3/15/2021 10:00:00 PM 4.36 39.848 0.038 5.79 123.69 12.12
3/15/2021 10:15:00 PM 4.32 39.776 0.038 5.79 122.92 12.11
3/15/2021 10:30:00 PM 4.27 39.686 0.038 5.79 122.74 11.98
3/15/2021 10:45:00 PM 4.23 39.614 0.038 5.79 122.95 12.15
3/15/2021 11:00:00 PM 4.19 39.542 0.038 5.79 123.52 12.18
3/15/2021 11:15:00 PM 4.16 39.488 0.039 5.8 123.11 12.19
3/15/2021 11:30:00 PM 4.12 39.416 0.038 5.8 124.25 12.21
3/15/2021 11:45:00 PM 4.1 39.38 0.038 5.79 124.6 12.21
3/16/2021 12:00:00 AM 4.07 39.326 0.038 5.8 124.82 12.22
3/16/2021 12:15:00 AM 4.03 39.254 0.039 5.8 124.08 12.23
3/16/2021 12:30:00 AM 4.01 39.218 0.039 5.8 123.76 12.24
3/16/2021 12:45:00 AM 3.99 39.182 0.039 5.8 123.57 12.25
3/16/2021 1:00:00 AM 3.97 39.146 0.04 5.8 125.15 12.26
3/16/2021 1:15:00 AM 3.95 39.11 0.04 5.8 124.72 12.26
3/16/2021 1:30:00 AM 3.93 39.074 0.04 5.81 124.88 12.27
3/16/2021 1:45:00 AM 3.9 39.02 0.04 5.8 123.88 12.28
3/16/2021 2:00:00 AM 3.89 39.002 0.04 5.81 124.48 12.27
3/16/2021 2:15:00 AM 3.88 38.984 0.04 5.81 124.56 12.28
3/16/2021 2:30:00 AM 3.87 38.966 0.04 5.81 123.76 12.28
3/16/2021 2:45:00 AM 3.85 38.93 0.039 5.81 123.57 12.28
3/16/2021 3:00:00 AM 3.84 38.912 0.039 5.81 123.32 12.29
3/16/2021 3:15:00 AM 3.83 38.894 0.039 5.8 123.17 12.28
3/16/2021 3:30:00 AM 3.83 38.894 0.039 5.79 123.22 12.29
3/16/2021 3:45:00 AM 3.82 38.876 0.039 5.8 122.31 12.3
3/16/2021 4:00:00 AM 3.8 38.84 0.039 5.79 123.28 12.29
3/16/2021 4:15:00 AM 3.79 38.822 0.039 5.79 123.17 12.3
3/16/2021 4:30:00 AM 3.78 38.804 0.039 5.8 122.81 12.22
3/16/2021 4:45:00 AM 3.78 38.804 0.039 5.79 123.18 12.28
3/16/2021 5:00:00 AM 3.77 38.786 0.04 5.8 123.22 12.22
3/16/2021 5:15:00 AM 3.76 38.768 0.04 5.8 123.02 12.26
3/16/2021 5:30:00 AM 3.76 38.768 0.04 5.81 122.79 12.3
3/16/2021 5:45:00 AM 3.76 38.768 0.04 5.81 123.48 12.29
3/16/2021 6:00:00 AM 3.76 38.768 0.04 5.81 122.89 12.29
3/16/2021 6:15:00 AM 3.76 38.768 0.039 5.8 122.39 12.3
3/16/2021 6:30:00 AM 3.75 38.75 0.039 5.8 123.03 12.29
3/16/2021 6:45:00 AM 3.75 38.75 0.04 5.78 124.99 12.29
3/16/2021 7:00:00 AM 3.74 38.732 0.039 5.78 122.25 12.3
3/16/2021 7:15:00 AM 3.71 38.678 0.039 5.77 122.11 12.3
3/16/2021 7:30:00 AM 3.67 38.606 0.039 5.77 122.9 12.31
3/16/2021 7:45:00 AM 3.63 38.534 0.039 5.77 122.35 12.32
3/16/2021 8:00:00 AM 3.57 38.426 0.039 5.76 122.18 12.33
3/16/2021 8:15:00 AM 3.48 38.264 0.04 5.76 121.28 12.35
3/16/2021 8:30:00 AM 3.41 38.138 0.038 5.76 119.96 12.38
3/16/2021 8:45:00 AM 3.38 38.084 0.04 5.77 120.02 12.41
3/16/2021 9:00:00 AM 3.38 38.084 0.04 5.78 120.08 12.43
3/16/2021 9:15:00 AM 3.39 38.102 0.04 5.8 120.32 12.44
3/16/2021 9:30:00 AM 3.4 38.12 0.04 5.8 121.24 12.46
3/16/2021 9:45:00 AM 3.43 38.174 0.04 5.81 120.72 12.47
3/16/2021 10:00:00 AM 3.47 38.246 0.039 5.81 120.94 12.47
3/16/2021 10:15:00 AM 3.5 38.3 0.039 5.82 121.76 12.47
3/16/2021 10:30:00 AM 3.53 38.354 0.039 5.82 121.71 12.47
3/16/2021 10:45:00 AM 3.57 38.426 0.04 5.82 123.33 12.48
3/16/2021 11:00:00 AM 3.61 38.498 0.041 5.82 122.69 12.48
3/16/2021 11:15:00 AM 3.64 38.552 0.04 5.83 123.83 12.47
3/16/2021 11:30:00 AM 3.68 38.624 0.04 5.82 122.48 12.46
3/16/2021 11:45:00 AM 3.71 38.678 0.04 5.82 122.12 12.46
3/16/2021 12:00:00 PM 3.75 38.75 0.038 5.82 122.83 12.45
3/16/2021 12:15:00 PM 3.79 38.822 0.038 5.82 123.73 12.44
3/16/2021 12:30:00 PM 3.82 38.876 0.038 5.81 122.77 12.42
3/16/2021 12:45:00 PM 3.86 38.948 0.038 5.81 122.45 12.42
3/16/2021 1:00:00 PM 3.89 39.002 0.038 5.81 122.32 12.41
3/16/2021 1:15:00 PM 3.92 39.056 0.038 5.81 123.23 12.39
3/16/2021 1:30:00 PM 3.95 39.11 0.038 5.81 123.04 12.38
3/16/2021 1:45:00 PM 3.97 39.146 0.038 5.81 121.74 12.37
3/16/2021 2:00:00 PM 3.99 39.182 0.038 5.81 122.79 12.35
3/16/2021 2:15:00 PM 4.01 39.218 0.038 5.81 122.72 12.33
3/16/2021 2:30:00 PM 4.04 39.272 0.038 5.8 122.45 12.32
3/16/2021 2:45:00 PM 4.08 39.344 0.039 5.81 123.51 12.31
3/16/2021 3:00:00 PM 4.11 39.398 0.039 5.82 122.36 12.3
3/16/2021 3:15:00 PM 4.14 39.452 0.039 5.82 123.82 12.28
3/16/2021 3:30:00 PM 4.18 39.524 0.039 5.82 123.58 12.28
3/16/2021 3:45:00 PM 4.2 39.56 0.039 5.82 124.53 12.26
3/16/2021 4:00:00 PM 4.24 39.632 0.039 5.82 123.57 12.26
3/16/2021 4:15:00 PM 4.27 39.686 0.039 5.82 124.7 12.25
3/16/2021 4:30:00 PM 4.29 39.722 0.039 5.82 124.96 12.23
3/16/2021 4:45:00 PM 4.32 39.776 0.039 5.82 124.42 12.23
3/16/2021 5:00:00 PM 4.35 39.83 0.038 5.82 124.07 12.22
3/16/2021 5:15:00 PM 4.37 39.866 0.038 5.83 123.3 12.21
3/16/2021 5:30:00 PM 4.38 39.884 0.038 5.82 124.01 12.19
3/16/2021 5:45:00 PM 4.38 39.884 0.039 5.81 123.85 12.18
3/16/2021 6:00:00 PM 4.39 39.902 0.039 5.82 123.38 12.18
3/16/2021 6:15:00 PM 4.39 39.902 0.039 5.82 123.53 12.17
3/16/2021 6:30:00 PM 4.4 39.92 0.039 5.82 122.15 12.15
3/16/2021 6:45:00 PM 4.41 39.938 0.039 5.82 121.07 12.14
3/16/2021 7:00:00 PM 4.4 39.92 0.039 5.82 121.61 12.12
3/16/2021 7:15:00 PM 4.39 39.902 0.039 5.8 120.87 12.1
3/16/2021 7:30:00 PM 4.38 39.884 0.039 5.81 121 12.09
3/16/2021 7:45:00 PM 4.37 39.866 0.039 5.81 120.57 12.09
3/16/2021 8:00:00 PM 4.37 39.866 0.039 5.81 120.19 12.08
3/16/2021 8:15:00 PM 4.37 39.866 0.039 5.82 121.58 12.07
3/16/2021 8:30:00 PM 4.37 39.866 0.039 5.82 121.67 12.07
3/16/2021 8:45:00 PM 4.37 39.866 0.039 5.82 121.48 12.06
3/16/2021 9:00:00 PM 4.37 39.866 0.039 5.82 122.23 12.06
3/16/2021 9:15:00 PM 4.37 39.866 0.039 5.83 121.53 12.07
3/16/2021 9:30:00 PM 4.37 39.866 0.039 5.83 121.14 12.06
3/16/2021 9:45:00 PM 4.37 39.866 0.039 5.85 122.47 12.06
3/16/2021 10:00:00 PM 4.37 39.866 0.039 5.84 120.96 12.06
3/16/2021 10:15:00 PM 4.36 39.848 0.039 5.84 121.59 12.07
3/16/2021 10:30:00 PM 4.36 39.848 0.039 5.85 121.2 12.06
3/16/2021 10:45:00 PM 4.36 39.848 0.039 5.85 121.32 12.06
3/16/2021 11:00:00 PM 4.35 39.83 0.039 5.84 122.83 12.06
3/16/2021 11:15:00 PM 4.35 39.83 0.039 5.84 122.13 12.07
3/16/2021 11:30:00 PM 4.35 39.83 0.039 5.84 120.74 12.07
3/16/2021 11:45:00 PM 4.34 39.812 0.039 5.84 123.22 12.07
3/17/2021 12:00:00 AM 4.33 39.794 0.039 5.84 123.15 12.08
3/17/2021 12:15:00 AM 4.33 39.794 0.04 5.84 124.5 12.07
3/17/2021 12:30:00 AM 4.32 39.776 0.04 5.84 123.91 12.08
3/17/2021 12:45:00 AM 4.31 39.758 0.04 5.85 123.34 12.07
3/17/2021 1:00:00 AM 4.31 39.758 0.04 5.85 123.85 12.07
3/17/2021 1:15:00 AM 4.3 39.74 0.04 5.85 123.74 12.08
3/17/2021 1:30:00 AM 4.3 39.74 0.039 5.85 124.03 12.08
3/17/2021 1:45:00 AM 4.3 39.74 0.039 5.86 123.07 12.08
3/17/2021 2:00:00 AM 4.3 39.74 0.04 5.86 123.32 12.09
3/17/2021 2:15:00 AM 4.29 39.722 0.039 5.85 122.76 12.08
3/17/2021 2:30:00 AM 4.29 39.722 0.039 5.87 124.48 12.08
3/17/2021 2:45:00 AM 4.29 39.722 0.039 5.86 123.16 12.09
3/17/2021 3:00:00 AM 4.29 39.722 0.039 5.87 123.81 12.08
3/17/2021 3:15:00 AM 4.28 39.704 0.04 5.87 122.19 12.08
3/17/2021 3:30:00 AM 4.28 39.704 0.039 5.87 123.15 12.09
3/17/2021 3:45:00 AM 4.27 39.686 0.04 5.86 122.28 12.08
3/17/2021 4:00:00 AM 4.27 39.686 0.039 5.86 122.47 12.08
3/17/2021 4:15:00 AM 4.27 39.686 0.039 5.86 124.13 12.09
3/17/2021 4:30:00 AM 4.26 39.668 0.04 5.85 124.4 12.08
3/17/2021 4:45:00 AM 4.26 39.668 0.04 5.86 122.92 12.08
3/17/2021 5:00:00 AM 4.26 39.668 0.04 5.85 122.71 12.09
3/17/2021 5:15:00 AM 4.26 39.668 0.04 5.86 122.05 12.08
3/17/2021 5:30:00 AM 4.26 39.668 0.039 5.86 122.39 12.1
3/17/2021 5:45:00 AM 4.26 39.668 0.039 5.86 121.97 12.09
3/17/2021 6:00:00 AM 4.26 39.668 0.039 5.86 120.63 12.09
3/17/2021 6:15:00 AM 4.26 39.668 0.04 5.86 120.84 12.09
3/17/2021 6:30:00 AM 4.26 39.668 0.04 5.86 121.48 12.09
3/17/2021 6:45:00 AM 4.26 39.668 0.039 5.86 121.59 12.1
3/17/2021 7:00:00 AM 4.25 39.65 0.039 5.86 121.92 12.1
3/17/2021 7:15:00 AM 4.25 39.65 0.039 5.86 121.38 12.1
3/17/2021 7:30:00 AM 4.25 39.65 0.039 5.86 121.89 12.1
3/17/2021 7:45:00 AM 4.26 39.668 0.039 5.86 120.1 12.11
3/17/2021 8:00:00 AM 4.26 39.668 0.039 5.86 120.85 12.11
3/17/2021 8:15:00 AM 4.26 39.668 0.039 5.86 120.78 12.13
3/17/2021 8:30:00 AM 4.28 39.704 0.039 5.86 119.9 12.14
3/17/2021 8:45:00 AM 4.29 39.722 0.039 5.87 119.99 12.15
3/17/2021 9:00:00 AM 4.31 39.758 0.039 5.87 120.18 12.17
3/17/2021 9:15:00 AM 4.33 39.794 0.04 5.86 121.63 12.17
3/17/2021 9:30:00 AM 4.36 39.848 0.039 5.86 121.59 12.19
3/17/2021 9:45:00 AM 4.39 39.902 0.04 5.86 120.96 12.2
3/17/2021 10:00:00 AM 4.43 39.974 0.04 5.87 120.18 12.2
3/17/2021 10:15:00 AM 4.47 40.046 0.04 5.87 120.64 12.19
3/17/2021 10:30:00 AM 4.51 40.118 0.04 5.88 121.95 12.19
3/17/2021 10:45:00 AM 4.57 40.226 0.04 5.88 121.46 12.19
3/17/2021 11:00:00 AM 4.64 40.352 0.039 5.88 122.61 12.18
3/17/2021 11:15:00 AM 4.71 40.478 0.039 5.88 121.11 12.16
3/17/2021 11:30:00 AM 4.78 40.604 0.04 5.88 121.29 12.14
3/17/2021 11:45:00 AM 4.87 40.766 0.039 5.89 120.61 12.13
3/17/2021 12:00:00 PM 4.95 40.91 0.04 5.89 119.98 12.11
3/17/2021 12:15:00 PM 5.05 41.09 0.04 5.89 120.44 12.09
3/17/2021 12:30:00 PM 5.16 41.288 0.04 5.89 118.85 12.06
3/17/2021 12:45:00 PM 5.34 41.612 0.04 5.9 120.27 12.01
3/17/2021 1:00:00 PM 5.41 41.738 0.04 5.89 120.14 11.98
3/17/2021 1:15:00 PM 5.6 42.08 0.039 5.89 119.03 11.93
3/17/2021 1:30:00 PM 5.89 42.602 0.04 5.91 117.38 11.86
3/17/2021 1:45:00 PM 6.09 42.962 0.04 5.9 120.85 11.8
3/17/2021 2:00:00 PM 6.24 43.232 0.04 5.89 120.16 11.75
3/17/2021 2:15:00 PM 6.41 43.538 0.04 5.88 120.2 11.7
3/17/2021 2:30:00 PM 6.59 43.862 0.04 5.88 118.67 11.63
3/17/2021 2:45:00 PM 6.75 44.15 0.04 5.87 117.11 11.58
3/17/2021 3:00:00 PM 6.91 44.438 0.04 5.87 117.73 11.52
3/17/2021 3:15:00 PM 7.06 44.708 0.04 5.89 118.28 11.47
3/17/2021 3:30:00 PM 7.19 44.942 0.04 5.87 116.49 11.43
3/17/2021 3:45:00 PM 7.31 45.158 0.04 5.85 116.42 11.38
3/17/2021 4:00:00 PM 7.41 45.338 0.04 5.85 118.83 11.35
3/17/2021 4:15:00 PM 7.49 45.482 0.041 5.84 118.27 11.32
3/17/2021 4:30:00 PM 7.55 45.59 0.041 5.82 117.76 11.29
3/17/2021 4:45:00 PM 7.58 45.644 0.041 5.82 116.77 11.27
3/17/2021 5:00:00 PM 7.58 45.644 0.041 5.8 115.91 11.25
3/17/2021 5:15:00 PM 7.57 45.626 0.041 5.69 116.28 11.22
3/17/2021 5:30:00 PM 7.56 45.608 0.041 5.78 117.59 11.22
3/17/2021 5:45:00 PM 7.54 45.572 0.041 5.76 116.55 11.2
3/17/2021 6:00:00 PM 7.5 45.5 0.041 5.64 115.21 11.2
3/17/2021 6:15:00 PM 7.45 45.41 0.041 5.73 116.54 11.2
3/17/2021 6:30:00 PM 7.39 45.302 0.041 5.67 116.76 11.2
3/17/2021 6:45:00 PM 7.32 45.176 0.041 5.69 116.76 11.19
3/17/2021 7:00:00 PM 7.23 45.014 0.041 5.73 117.15 11.2
3/17/2021 7:15:00 PM 7.14 44.852 0.041 5.72 116.01 11.21
3/17/2021 7:30:00 PM 7.06 44.708 0.041 5.62 115.94 11.21
3/17/2021 7:45:00 PM 6.97 44.546 0.041 5.73 116.62 11.22
3/17/2021 8:00:00 PM 6.89 44.402 0.041 5.72 115.99 11.23
3/17/2021 8:15:00 PM 6.8 44.24 0.041 5.72 116.12 11.24
3/17/2021 8:30:00 PM 6.7 44.06 0.04 5.72 116.47 11.26
3/17/2021 8:45:00 PM 6.61 43.898 0.04 5.72 117.92 11.29
3/17/2021 9:00:00 PM 6.51 43.718 0.041 5.72 118.8 11.32
3/17/2021 9:15:00 PM 6.42 43.556 0.041 5.72 119.36 11.35
3/17/2021 9:30:00 PM 6.33 43.394 0.041 5.59 120.27 11.38
3/17/2021 9:45:00 PM 6.23 43.214 0.041 5.72 119.73 11.41
3/17/2021 10:00:00 PM 6.13 43.034 0.041 5.72 121.33 11.43
3/17/2021 10:15:00 PM 6.04 42.872 0.041 5.73 119.77 11.46
3/17/2021 10:30:00 PM 5.95 42.71 0.041 5.73 120.35 11.49
3/17/2021 10:45:00 PM 5.86 42.548 0.041 5.73 119.63 11.53
3/17/2021 11:00:00 PM 5.77 42.386 0.041 5.73 121.09 11.56
3/17/2021 11:15:00 PM 5.68 42.224 0.041 5.73 121.33 11.59
3/17/2021 11:30:00 PM 5.6 42.08 0.041 5.73 119.16 11.61
3/17/2021 11:45:00 PM 5.52 41.936 0.041 5.74 119.48 11.63
3/18/2021 12:00:00 AM 5.44 41.792 0.041 5.74 118.6 11.66
3/18/2021 12:15:00 AM 5.36 41.648 0.041 5.74 119.58 11.68
3/18/2021 12:30:00 AM 5.29 41.522 0.041 5.75 117.84 11.7
3/18/2021 12:45:00 AM 5.22 41.396 0.041 5.75 118.47 11.73
3/18/2021 1:00:00 AM 5.17 41.306 0.041 5.76 117.77 11.74
3/18/2021 1:15:00 AM 5.13 41.234 0.04 5.75 117.62 11.76
3/18/2021 1:30:00 AM 5.1 41.18 0.04 5.76 116.44 11.78
3/18/2021 1:45:00 AM 5.07 41.126 0.04 5.76 116.76 11.79
3/18/2021 2:00:00 AM 5.05 41.09 0.04 5.77 116 11.8
3/18/2021 2:15:00 AM 5.03 41.054 0.04 5.78 117.17 11.8
3/18/2021 2:30:00 AM 5.01 41.018 0.041 5.8 118.26 11.82
3/18/2021 2:45:00 AM 5 41 0.041 5.79 118.23 11.82
3/18/2021 3:00:00 AM 4.99 40.982 0.04 5.79 117.55 11.82
3/18/2021 3:15:00 AM 4.98 40.964 0.041 5.79 118.81 11.82
3/18/2021 3:30:00 AM 4.97 40.946 0.041 5.8 115.8 11.82
3/18/2021 3:45:00 AM 4.96 40.928 0.041 5.79 115.92 11.82
3/18/2021 4:00:00 AM 4.95 40.91 0.041 5.79 114.43 11.83
3/18/2021 4:15:00 AM 4.94 40.892 0.041 5.78 115.03 11.83
3/18/2021 4:30:00 AM 4.94 40.892 0.041 5.79 115.28 11.82
3/18/2021 4:45:00 AM 4.93 40.874 0.041 5.8 115.53 11.83
3/18/2021 5:00:00 AM 4.93 40.874 0.041 5.8 114.8 11.83
3/18/2021 5:15:00 AM 4.93 40.874 0.041 5.8 114.36 11.83
3/18/2021 5:30:00 AM 4.93 40.874 0.041 5.8 117.15 11.82
3/18/2021 5:45:00 AM 4.93 40.874 0.041 5.8 117.64 11.83
3/18/2021 6:00:00 AM 4.93 40.874 0.041 5.8 117.07 11.82
3/18/2021 6:15:00 AM 4.93 40.874 0.041 5.79 114.03 11.82
3/18/2021 6:30:00 AM 4.93 40.874 0.041 5.8 115.1 11.82
3/18/2021 6:45:00 AM 4.93 40.874 0.041 5.79 114.76 11.82
3/18/2021 7:00:00 AM 4.93 40.874 0.041 5.8 113.77 11.81
3/18/2021 7:15:00 AM 4.93 40.874 0.041 5.79 114.04 11.81
3/18/2021 7:30:00 AM 4.93 40.874 0.041 5.79 113.76 11.81
3/18/2021 7:45:00 AM 4.93 40.874 0.042 5.79 113.67 11.81
3/18/2021 8:00:00 AM 4.93 40.874 0.042 5.79 113.79 11.81
3/18/2021 8:15:00 AM 4.93 40.874 0.042 5.78 115.27 11.82
3/18/2021 8:30:00 AM 4.94 40.892 0.042 5.8 112.92 11.82
3/18/2021 8:45:00 AM 4.95 40.91 0.042 5.78 112.81 11.82
3/18/2021 9:00:00 AM 4.95 40.91 0.042 5.78 112.52 11.84
3/18/2021 9:15:00 AM 4.96 40.928 0.042 5.78 112.76 11.84
3/18/2021 9:30:00 AM 4.97 40.946 0.042 5.79 113.22 11.85
3/18/2021 9:45:00 AM 4.99 40.982 0.042 5.79 113.22 11.86
3/18/2021 10:00:00 AM 5.01 41.018 0.042 5.79 112.07 11.87
3/18/2021 10:15:00 AM 5.03 41.054 0.042 5.78 114.72 11.87
3/18/2021 10:30:00 AM 5.05 41.09 0.042 5.79 112.9 11.87
3/18/2021 10:45:00 AM 5.08 41.144 0.042 5.78 114.59 11.87
3/18/2021 11:00:00 AM 5.11 41.198 0.042 5.79 113.36 11.87
3/18/2021 11:15:00 AM 5.14 41.252 0.042 5.78 112.63 11.88
3/18/2021 11:30:00 AM 5.17 41.306 0.042 5.79 114.3 11.87
3/18/2021 11:45:00 AM 5.19 41.342 0.042 5.78 113.88 11.86
3/18/2021 12:00:00 PM 5.22 41.396 0.042 5.78 114.06 11.85
3/18/2021 12:15:00 PM 5.24 41.432 0.042 5.78 113.17 11.85
3/18/2021 12:30:00 PM 5.28 41.504 0.042 5.79 113.19 11.85
3/18/2021 12:45:00 PM 5.32 41.576 0.042 5.78 112.19 11.84
3/18/2021 1:00:00 PM 5.37 41.666 0.042 5.78 113.21 11.84
3/18/2021 1:15:00 PM 5.42 41.756 0.042 5.78 113.85 11.83
3/18/2021 1:30:00 PM 5.45 41.81 0.042 5.78 113.03 11.82
3/18/2021 1:45:00 PM 5.47 41.846 0.042 5.78 111.98 11.8
3/18/2021 2:00:00 PM 5.48 41.864 0.042 5.77 112.94 11.79
3/18/2021 2:15:00 PM 5.49 41.882 0.042 5.76 113.78 11.78
3/18/2021 2:30:00 PM 5.5 41.9 0.042 5.76 113.47 11.77
3/18/2021 2:45:00 PM 5.51 41.918 0.042 5.76 113.07 11.76
3/18/2021 3:00:00 PM 5.52 41.936 0.042 5.77 112.4 11.75
3/18/2021 3:15:00 PM 5.52 41.936 0.042 5.77 111 11.75
3/18/2021 3:30:00 PM 5.52 41.936 0.042 5.77 112.64 11.74
3/18/2021 3:45:00 PM 5.52 41.936 0.042 5.78 113.27 11.73
3/18/2021 4:00:00 PM 5.51 41.918 0.042 5.78 113.46 11.72
3/18/2021 4:15:00 PM 5.5 41.9 0.042 5.79 113.66 11.72
3/18/2021 4:30:00 PM 5.49 41.882 0.042 5.79 112.79 11.72
3/18/2021 4:45:00 PM 5.48 41.864 0.042 5.8 113.75 11.72
3/18/2021 5:00:00 PM 5.48 41.864 0.042 5.81 113.17 11.73
3/18/2021 5:15:00 PM 5.47 41.846 0.042 5.82 112.09 11.72
3/18/2021 5:30:00 PM 5.46 41.828 0.042 5.82 112.08 11.72
3/18/2021 5:45:00 PM 5.44 41.792 0.042 5.83 111.92 11.72
3/18/2021 6:00:00 PM 5.42 41.756 0.042 5.85 112.21 11.72
3/18/2021 6:15:00 PM 5.41 41.738 0.042 5.85 111.08 11.71
3/18/2021 6:30:00 PM 5.39 41.702 0.042 5.86 111.35 11.71
3/18/2021 6:45:00 PM 5.36 41.648 0.043 5.86 109.9 11.7
3/18/2021 7:00:00 PM 5.33 41.594 0.043 5.86 110.84 11.7
3/18/2021 7:15:00 PM 5.31 41.558 0.043 5.87 109.78 11.7
3/18/2021 7:30:00 PM 5.28 41.504 0.043 5.88 110.09 11.7
3/18/2021 7:45:00 PM 5.25 41.45 0.043 5.89 111.27 11.71
3/18/2021 8:00:00 PM 5.22 41.396 0.042 5.89 111.59 11.72
3/18/2021 8:15:00 PM 5.19 41.342 0.043 5.9 112.3 11.73
3/18/2021 8:30:00 PM 5.15 41.27 0.043 5.91 112.47 11.74
3/18/2021 8:45:00 PM 5.12 41.216 0.043 5.91 113.42 11.74
3/18/2021 9:00:00 PM 5.08 41.144 0.043 5.92 112.45 11.75
3/18/2021 9:15:00 PM 5.04 41.072 0.043 5.92 112.86 11.77
3/18/2021 9:30:00 PM 5.02 41.036 0.043 5.93 113.28 11.78
3/18/2021 9:45:00 PM 4.99 40.982 0.043 5.93 113.21 11.79
3/18/2021 10:00:00 PM 4.96 40.928 0.044 5.94 112.8 11.8
3/18/2021 10:15:00 PM 4.92 40.856 0.044 5.9 113.61 11.81
3/18/2021 10:30:00 PM 4.89 40.802 0.044 5.95 115.02 11.83
3/18/2021 10:45:00 PM 4.84 40.712 0.044 5.96 114.74 11.84
3/18/2021 11:00:00 PM 4.81 40.658 0.044 5.96 113.47 11.85
3/18/2021 11:15:00 PM 4.77 40.586 0.043 5.95 113.46 11.87
3/18/2021 11:30:00 PM 4.73 40.514 0.043 5.96 112.38 11.88
3/18/2021 11:45:00 PM 4.69 40.442 0.043 5.97 111.83 11.89
3/19/2021 12:00:00 AM 4.65 40.37 0.043 5.98 103.28 11.9
3/19/2021 12:15:00 AM 4.6 40.28 0.043 5.98 102.1 11.92
3/19/2021 12:30:00 AM 4.55 40.19 0.043 5.98 79.75 11.95
3/19/2021 12:45:00 AM 4.52 40.136 0.043 5.99 70.01 11.97
3/19/2021 1:00:00 AM 4.47 40.046 0.043 5.99 74.51 11.98
3/19/2021 1:15:00 AM 4.43 39.974 0.043 5.99 76.89 11.99
3/19/2021 1:30:00 AM 4.39 39.902 0.043 5.99 87.4 12.01
3/19/2021 1:45:00 AM 4.35 39.83 0.043 5.99 72.08 12.03
3/19/2021 2:00:00 AM 4.3 39.74 0.043 6 71.9 12.05
3/19/2021 2:15:00 AM 4.25 39.65 0.043 5.99 69.06 12.07
3/19/2021 2:30:00 AM 4.19 39.542 0.043 5.99 71.51 12.08
3/19/2021 2:45:00 AM 4.12 39.416 0.043 5.99 76.14 12.1
3/19/2021 3:00:00 AM 4.06 39.308 0.043 6 83.91 12.12
3/19/2021 3:15:00 AM 4.01 39.218 0.042 6 69.4 12.15
3/19/2021 3:30:00 AM 3.94 39.092 0.042 6.01 92.23 12.17
3/19/2021 3:45:00 AM 3.88 38.984 0.043 6.01 102.73 12.19
3/19/2021 4:00:00 AM 3.83 38.894 0.043 6.02 112.84 12.22
3/19/2021 4:15:00 AM 3.78 38.804 0.042 6.02 119.56 12.24
3/19/2021 4:30:00 AM 3.74 38.732 0.043 6.02 107.13 12.26
3/19/2021 4:45:00 AM 3.7 38.66 0.044 6.03 86.76 12.27
3/19/2021 5:00:00 AM 3.66 38.588 0.044 6.03 95.12 12.29
3/19/2021 5:15:00 AM 3.61 38.498 0.044 6.02 82.3 12.3
3/19/2021 5:30:00 AM 3.57 38.426 0.044 6.03 47.22 12.33
3/19/2021 5:45:00 AM 3.52 38.336 0.044 6.03 45.67 12.35
3/19/2021 6:00:00 AM 3.47 38.246 0.044 6.03 44.77 12.36
3/19/2021 6:15:00 AM 3.43 38.174 0.044 6.03 45.37 12.38
3/19/2021 6:30:00 AM 3.39 38.102 0.044 6.03 42.53 12.4
3/19/2021 6:45:00 AM 3.35 38.03 0.044 6.03 42.08 12.42
3/19/2021 7:00:00 AM 3.31 37.958 0.044 6.03 42.02 12.44
3/19/2021 7:15:00 AM 3.27 37.886 0.044 6.03 50.76 12.46
3/19/2021 7:30:00 AM 3.22 37.796 0.044 6.03 51.92 12.49
3/19/2021 7:45:00 AM 3.17 37.706 0.044 6.03 67.35 12.51
3/19/2021 8:00:00 AM 3.13 37.634 0.044 6.04 53.01 12.54
3/19/2021 8:15:00 AM 3.1 37.58 0.044 6.04 101.76 12.57
3/19/2021 8:30:00 AM 3.07 37.526 0.044 6.04 58.15 12.6
3/19/2021 8:45:00 AM 3.05 37.49 0.044 6.03 205.98 12.62
3/19/2021 9:00:00 AM 3.04 37.472 0.044 6.06 304.88 12.65
3/19/2021 9:15:00 AM 3.03 37.454 0.044 6.06 145.19 12.67
3/19/2021 9:30:00 AM 3.03 37.454 0.044 6.05 253.75 12.69
3/19/2021 9:45:00 AM 3.05 37.49 0.044 6.06 158.77 12.7
3/19/2021 10:00:00 AM 3.07 37.526 0.044 6.06 637.3 12.71
3/19/2021 10:15:00 AM 3.13 37.634 0.044 6.07 342.14 12.71
3/19/2021 10:30:00 AM 3.22 37.796 0.044 6.09 89.61 12.7
3/19/2021 10:45:00 AM 3.32 37.976 0.044 6.09 113.26 12.68
3/19/2021 11:00:00 AM 3.43 38.174 0.044 6.09 423.89 12.66
3/19/2021 11:15:00 AM 3.54 38.372 0.044 6.09 298.37 12.63
3/19/2021 11:30:00 AM 3.66 38.588 0.044 6.1 3394.47 12.61
3/19/2021 11:45:00 AM 3.79 38.822 0.044 6.1 142.1 12.58
3/19/2021 12:00:00 PM 3.95 39.11 0.044 6.12 187.27 12.54
3/19/2021 12:15:00 PM 4.11 39.398 0.044 6.13 158.58 12.49
3/19/2021 12:30:00 PM 4.29 39.722 0.044 6.14 160.15 12.44
3/19/2021 12:45:00 PM 4.45 40.01 0.044 6.13 159.91 12.4
3/19/2021 1:00:00 PM 4.63 40.334 0.044 6.14 120.03 12.35
3/19/2021 1:15:00 PM 4.81 40.658 0.044 6.13 127.07 12.3
3/19/2021 1:30:00 PM 4.98 40.964 0.044 6.13 137.8 12.25
3/19/2021 1:45:00 PM 5.14 41.252 0.044 6.12 136.52 12.2
3/19/2021 2:00:00 PM 5.3 41.54 0.044 6.11 138.36 12.14
3/19/2021 2:15:00 PM 5.45 41.81 0.044 6.1 141.45 12.09
3/19/2021 2:30:00 PM 5.59 42.062 0.044 6.11 144.51 12.05
3/19/2021 2:45:00 PM 5.73 42.314 0.044 6.12 128.78 12
3/19/2021 3:00:00 PM 5.86 42.548 0.044 6.1 131.71 11.95
3/19/2021 3:15:00 PM 5.98 42.764 0.044 6.09 139.79 11.9
3/19/2021 3:30:00 PM 6.09 42.962 0.045 6.1 147.44 11.87
3/19/2021 3:45:00 PM 6.18 43.124 0.045 6.11 148.44 11.83
3/19/2021 4:00:00 PM 6.24 43.232 0.045 6.09 147.85 11.81
3/19/2021 4:15:00 PM 6.26 43.268 0.045 6.07 155.25 11.79
3/19/2021 4:30:00 PM 6.27 43.286 0.044 6.06 249.8 11.77
3/19/2021 4:45:00 PM 6.25 43.25 0.045 6.1 261.81 11.76
3/19/2021 5:00:00 PM 6.21 43.178 0.044 6.06 233.26 11.76
3/19/2021 5:15:00 PM 6.18 43.124 0.045 6.04 135.71 11.75
3/19/2021 5:30:00 PM 6.14 43.052 0.044 6.03 138.37 11.75
3/19/2021 5:45:00 PM 6.08 42.944 0.044 6.04 101.49 11.75
3/19/2021 6:00:00 PM 6.01 42.818 0.044 6.03 98.52 11.76
3/19/2021 6:15:00 PM 5.94 42.692 0.044 6.02 104.7 11.77
3/19/2021 6:30:00 PM 5.85 42.53 0.044 6.04 105.38 11.79
3/19/2021 6:45:00 PM 5.75 42.35 0.044 6.03 106.26 11.8
3/19/2021 7:00:00 PM 5.66 42.188 0.044 6.03 105.37 11.81
3/19/2021 7:15:00 PM 5.57 42.026 0.045 6.02 86.34 11.83
3/19/2021 7:30:00 PM 5.48 41.864 0.044 6.02 93.86 11.84
3/19/2021 7:45:00 PM 5.4 41.72 0.044 6.01 95.2 11.85
3/19/2021 8:00:00 PM 5.31 41.558 0.044 6.01 96.44 11.87
3/19/2021 8:15:00 PM 5.22 41.396 0.044 6.01 91.95 11.89
3/19/2021 8:30:00 PM 5.13 41.234 0.044 6.01 89.78 11.92
3/19/2021 8:45:00 PM 5.04 41.072 0.044 6.01 89.84 11.95
3/19/2021 9:00:00 PM 4.96 40.928 0.044 6 87.87 11.97
3/19/2021 9:15:00 PM 4.88 40.784 0.044 6 91.45 12
3/19/2021 9:30:00 PM 4.79 40.622 0.044 6 89.73 12.03
3/19/2021 9:45:00 PM 4.71 40.478 0.044 6 89.4 12.05
3/19/2021 10:00:00 PM 4.64 40.352 0.044 5.99 86.3 12.08
3/19/2021 10:15:00 PM 4.56 40.208 0.044 5.99 85.13 12.12
3/19/2021 10:30:00 PM 4.49 40.082 0.044 5.99 87.85 12.14
3/19/2021 10:45:00 PM 4.43 39.974 0.044 5.99 91.89 12.17
3/19/2021 11:00:00 PM 4.36 39.848 0.044 6 95.89 12.19
3/19/2021 11:15:00 PM 4.29 39.722 0.044 6 94.04 12.21
3/19/2021 11:30:00 PM 4.23 39.614 0.044 6 92.95 12.23
3/19/2021 11:45:00 PM 4.17 39.506 0.044 6 89.88 12.25
3/20/2021 12:00:00 AM 4.11 39.398 0.044 6.01 93.18 12.27
3/20/2021 12:15:00 AM 4.05 39.29 0.044 6.01 92.41 12.3
3/20/2021 12:30:00 AM 4 39.2 0.044 6.02 91.69 12.32
3/20/2021 12:45:00 AM 3.94 39.092 0.044 6.02 91.35 12.35
3/20/2021 1:00:00 AM 3.89 39.002 0.044 6.02 93.38 12.37
3/20/2021 1:15:00 AM 3.84 38.912 0.044 6.01 92.03 12.39
3/20/2021 1:30:00 AM 3.8 38.84 0.044 6.02 98.17 12.41
3/20/2021 1:45:00 AM 3.75 38.75 0.044 6.01 98.16 12.42
3/20/2021 2:00:00 AM 3.71 38.678 0.044 6.02 108.2 12.44
3/20/2021 2:15:00 AM 3.67 38.606 0.044 6.01 101.79 12.45
3/20/2021 2:30:00 AM 3.63 38.534 0.044 6 103.18 12.47
3/20/2021 2:45:00 AM 3.59 38.462 0.044 6 97.79 12.48
3/20/2021 3:00:00 AM 3.55 38.39 0.044 6.02 321.98 12.49
3/20/2021 3:15:00 AM 3.52 38.336 0.044 6.02 281.44 12.51
3/20/2021 3:30:00 AM 3.48 38.264 0.044 6.02 209.14 12.52
3/20/2021 3:45:00 AM 3.45 38.21 0.044 6.01 157.43 12.53
3/20/2021 4:00:00 AM 3.42 38.156 0.044 6.01 202.84 12.55
3/20/2021 4:15:00 AM 3.39 38.102 0.044 6 99.11 12.56
3/20/2021 4:30:00 AM 3.36 38.048 0.044 6.01 181.59 12.57
3/20/2021 4:45:00 AM 3.33 37.994 0.044 6.01 173.01 12.59
3/20/2021 5:00:00 AM 3.3 37.94 0.044 6.01 167.43 12.6
3/20/2021 5:15:00 AM 3.27 37.886 0.044 6 164.15 12.61
3/20/2021 5:30:00 AM 3.24 37.832 0.044 6 166.99 12.62
3/20/2021 5:45:00 AM 3.21 37.778 0.043 6 165.5 12.63
3/20/2021 6:00:00 AM 3.18 37.724 0.043 6 166.36 12.64
3/20/2021 6:15:00 AM 3.15 37.67 0.043 6.01 170.48 12.65
3/20/2021 6:30:00 AM 3.12 37.616 0.043 6 184.87 12.67
3/20/2021 6:45:00 AM 3.09 37.562 0.043 6 182.37 12.68
3/20/2021 7:00:00 AM 3.06 37.508 0.043 6.01 160.55 12.69
3/20/2021 7:15:00 AM 3.04 37.472 0.043 6.02 161.34 12.7
3/20/2021 7:30:00 AM 3.01 37.418 0.043 6.01 163.47 12.71
3/20/2021 7:45:00 AM 2.99 37.382 0.043 6.01 162.31 12.73
3/20/2021 8:00:00 AM 2.97 37.346 0.043 6.02 162.25 12.76
3/20/2021 8:15:00 AM 2.96 37.328 0.043 6 161.75 12.77
3/20/2021 8:30:00 AM 2.95 37.31 0.043 6.02 160.68 12.8
3/20/2021 8:45:00 AM 2.95 37.31 0.043 6.03 159.81 12.81
3/20/2021 9:00:00 AM 2.96 37.328 0.043 6.04 162.09 12.83
3/20/2021 9:15:00 AM 2.99 37.382 0.043 6.04 163.13 12.83
3/20/2021 9:30:00 AM 3.03 37.454 0.043 6.04 160.86 12.83
3/20/2021 9:45:00 AM 3.09 37.562 0.043 6.05 163.22 12.84
3/20/2021 10:00:00 AM 3.16 37.688 0.043 6.07 162.99 12.83
3/20/2021 10:15:00 AM 3.25 37.85 0.043 6.08 162.22 12.81
3/20/2021 10:30:00 AM 3.36 38.048 0.043 6.07 163.28 12.78
3/20/2021 10:45:00 AM 3.5 38.3 0.043 6.09 162.44 12.75
3/20/2021 11:00:00 AM 3.65 38.57 0.043 6.09 162.47 12.71
3/20/2021 11:15:00 AM 3.82 38.876 0.043 6.09 162.61 12.67
3/20/2021 11:30:00 AM 4 39.2 0.043 6.09 163.16 12.62
3/20/2021 11:45:00 AM 4.2 39.56 0.043 6.09 163.84 12.57
3/20/2021 12:00:00 PM 4.41 39.938 0.043 6.1 163.67 12.51
3/20/2021 12:15:00 PM 4.63 40.334 0.043 6.1 163.37 12.44
3/20/2021 12:30:00 PM 4.85 40.73 0.043 6.11 164.65 12.37
3/20/2021 12:45:00 PM 5.08 41.144 0.043 6.11 164.68 12.3
3/20/2021 1:00:00 PM 5.31 41.558 0.043 6.1 164.59 12.24
3/20/2021 1:15:00 PM 5.54 41.972 0.043 6.1 164.79 12.16
3/20/2021 1:30:00 PM 5.77 42.386 0.043 6.1 164.84 12.09
3/20/2021 1:45:00 PM 5.99 42.782 0.044 6.1 164.71 12.01
3/20/2021 2:00:00 PM 6.21 43.178 0.044 6.09 164.86 11.95
3/20/2021 2:15:00 PM 6.42 43.556 0.044 6.1 164.74 11.88
3/20/2021 2:30:00 PM 6.62 43.916 0.044 6.09 164.89 11.8
3/20/2021 2:45:00 PM 6.81 44.258 0.044 6.09 164.8 11.74
3/20/2021 3:00:00 PM 6.99 44.582 0.044 6.09 164.87 11.68
3/20/2021 3:15:00 PM 7.16 44.888 0.044 6.09 161.27 11.62
3/20/2021 3:30:00 PM 7.31 45.158 0.044 6.08 161.42 11.56
3/20/2021 3:45:00 PM 7.43 45.374 0.044 6.07 162.87 11.52
3/20/2021 4:00:00 PM 7.53 45.554 0.044 6.06 163.03 11.48
3/20/2021 4:15:00 PM 7.6 45.68 0.044 6.11 166.33 11.45
3/20/2021 4:30:00 PM 7.63 45.734 0.044 6.1 166.75 11.43
3/20/2021 4:45:00 PM 7.65 45.77 0.044 6.08 163.38 11.41
3/20/2021 5:00:00 PM 7.63 45.734 0.044 6.06 165.47 11.39
3/20/2021 5:15:00 PM 7.61 45.698 0.044 6.03 162.54 11.38
3/20/2021 5:30:00 PM 7.58 45.644 0.044 6.03 159.93 11.37
3/20/2021 5:45:00 PM 7.54 45.572 0.044 6.03 160.72 11.36
3/20/2021 6:00:00 PM 7.47 45.446 0.044 6.02 160.18 11.37
3/20/2021 6:15:00 PM 7.39 45.302 0.043 6.01 159.68 11.37
3/20/2021 6:30:00 PM 7.29 45.122 0.043 6 156.42 11.38
3/20/2021 6:45:00 PM 7.17 44.906 0.043 5.98 157.22 11.39
3/20/2021 7:00:00 PM 7.05 44.69 0.043 5.98 158.09 11.41
3/20/2021 7:15:00 PM 6.94 44.492 0.043 5.97 154.03 11.43
3/20/2021 7:30:00 PM 6.83 44.294 0.043 5.98 155.78 11.44
3/20/2021 7:45:00 PM 6.72 44.096 0.043 5.98 154.74 11.46
3/20/2021 8:00:00 PM 6.61 43.898 0.043 5.97 155.96 11.48
3/20/2021 8:15:00 PM 6.49 43.682 0.044 5.99 151.96 11.52
3/20/2021 8:30:00 PM 6.37 43.466 0.044 5.98 153.13 11.55
3/20/2021 8:45:00 PM 6.26 43.268 0.044 5.98 151.62 11.58
3/20/2021 9:00:00 PM 6.15 43.07 0.044 5.98 152.21 11.61
3/20/2021 9:15:00 PM 6.04 42.872 0.044 5.98 157.38 11.65
3/20/2021 9:30:00 PM 5.93 42.674 0.044 5.99 156 11.68
3/20/2021 9:45:00 PM 5.83 42.494 0.043 5.99 157.51 11.72
3/20/2021 10:00:00 PM 5.72 42.296 0.044 5.99 159.34 11.76
3/20/2021 10:15:00 PM 5.62 42.116 0.044 5.99 160.16 11.79
3/20/2021 10:30:00 PM 5.53 41.954 0.044 5.99 160.32 11.82
3/20/2021 10:45:00 PM 5.43 41.774 0.044 5.99 159.04 11.85
3/20/2021 11:00:00 PM 5.34 41.612 0.044 5.99 160.43 11.87
3/20/2021 11:15:00 PM 5.26 41.468 0.044 5.98 159.06 11.91
3/20/2021 11:30:00 PM 5.17 41.306 0.044 6 160.14 11.94
3/20/2021 11:45:00 PM 5.08 41.144 0.044 6.01 156.03 11.97
3/21/2021 12:00:00 AM 5.01 41.018 0.044 6.01 156.66 12
3/21/2021 12:15:00 AM 4.93 40.874 0.044 6.01 155.1 12.02
3/21/2021 12:30:00 AM 4.86 40.748 0.044 6.01 154.37 12.04
3/21/2021 12:45:00 AM 4.79 40.622 0.043 6.01 152.91 12.07
3/21/2021 1:00:00 AM 4.72 40.496 0.044 6.01 153.36 12.09
3/21/2021 1:15:00 AM 4.66 40.388 0.044 6.02 152 12.11
3/21/2021 1:30:00 AM 4.6 40.28 0.043 6.02 155.5 12.14
3/21/2021 1:45:00 AM 4.54 40.172 0.043 6.03 155.49 12.15
3/21/2021 2:00:00 AM 4.48 40.064 0.043 6.02 155.8 12.18
3/21/2021 2:15:00 AM 4.42 39.956 0.043 6.02 154.84 12.2
3/21/2021 2:30:00 AM 4.37 39.866 0.043 6.01 153.16 12.2
3/21/2021 2:45:00 AM 4.32 39.776 0.043 6.02 154.36 12.23
3/21/2021 3:00:00 AM 4.27 39.686 0.043 6.02 156.3 12.24
3/21/2021 3:15:00 AM 4.22 39.596 0.043 6.03 156.35 12.25
3/21/2021 3:30:00 AM 4.18 39.524 0.043 6.03 159.65 12.27
3/21/2021 3:45:00 AM 4.13 39.434 0.043 6.02 159.95 12.29
3/21/2021 4:00:00 AM 4.09 39.362 0.043 6.02 158.19 12.3
3/21/2021 4:15:00 AM 4.05 39.29 0.043 6.03 159.7 12.31
3/21/2021 4:30:00 AM 4.01 39.218 0.043 6.03 160.5 12.33
3/21/2021 4:45:00 AM 3.97 39.146 0.043 6.03 157.49 12.35
3/21/2021 5:00:00 AM 3.93 39.074 0.043 6.03 159.61 12.36
3/21/2021 5:15:00 AM 3.89 39.002 0.043 6.03 160.58 12.38
3/21/2021 5:30:00 AM 3.86 38.948 0.043 6.03 160.59 12.39
3/21/2021 5:45:00 AM 3.82 38.876 0.043 6.02 159.42 12.41
3/21/2021 6:00:00 AM 3.79 38.822 0.043 6.03 160.78 12.41
3/21/2021 6:15:00 AM 3.76 38.768 0.043 6.02 160.56 12.43
3/21/2021 6:30:00 AM 3.72 38.696 0.043 6.03 158.83 12.45
3/21/2021 6:45:00 AM 3.69 38.642 0.043 6.03 159.85 12.46
3/21/2021 7:00:00 AM 3.65 38.57 0.043 6.03 160.02 12.47
3/21/2021 7:15:00 AM 3.62 38.516 0.043 6.04 160.96 12.48
3/21/2021 7:30:00 AM 3.6 38.48 0.043 6.04 157.82 12.5
3/21/2021 7:45:00 AM 3.57 38.426 0.043 6.04 157.73 12.52
3/21/2021 8:00:00 AM 3.55 38.39 0.043 6.05 156.39 12.54
3/21/2021 8:15:00 AM 3.53 38.354 0.043 6.04 157.88 12.56
3/21/2021 8:30:00 AM 3.52 38.336 0.043 6.05 157.19 12.58
3/21/2021 8:45:00 AM 3.51 38.318 0.043 6.06 154.67 12.6
3/21/2021 9:00:00 AM 3.52 38.336 0.043 6.06 156.44 12.61
3/21/2021 9:15:00 AM 3.55 38.39 0.043 6.07 155.68 12.62
3/21/2021 9:30:00 AM 3.6 38.48 0.043 6.08 156.71 12.63
3/21/2021 9:45:00 AM 3.66 38.588 0.043 6.08 156.77 12.63
3/21/2021 10:00:00 AM 3.75 38.75 0.044 6.08 158.77 12.61
3/21/2021 10:15:00 AM 3.85 38.93 0.043 6.09 159.24 12.6
3/21/2021 10:30:00 AM 3.97 39.146 0.043 6.11 160.11 12.57
3/21/2021 10:45:00 AM 4.12 39.416 0.043 6.11 159.07 12.54
3/21/2021 11:00:00 AM 4.29 39.722 0.043 6.11 159.97 12.49
3/21/2021 11:15:00 AM 4.47 40.046 0.044 6.12 158.32 12.45
3/21/2021 11:30:00 AM 4.67 40.406 0.043 6.11 158.22 12.39
3/21/2021 11:45:00 AM 4.87 40.766 0.043 6.11 158.57 12.34
3/21/2021 12:00:00 PM 5.08 41.144 0.043 6.12 158.75 12.28
3/21/2021 12:15:00 PM 5.31 41.558 0.043 6.12 159.51 12.21
3/21/2021 12:30:00 PM 5.54 41.972 0.043 6.13 158.23 12.15
3/21/2021 12:45:00 PM 5.77 42.386 0.044 6.14 158.03 12.09
3/21/2021 1:00:00 PM 6 42.8 0.043 6.14 158.13 12.01
3/21/2021 1:15:00 PM 6.24 43.232 0.043 6.14 156.91 11.94
3/21/2021 1:30:00 PM 6.47 43.646 0.043 6.13 157.13 11.87
3/21/2021 1:45:00 PM 6.69 44.042 0.043 6.13 156.13 11.8
3/21/2021 2:00:00 PM 6.92 44.456 0.043 6.15 154.96 11.73
3/21/2021 2:15:00 PM 7.13 44.834 0.044 6.13 156.54 11.66
3/21/2021 2:30:00 PM 7.34 45.212 0.043 6.13 154.69 11.58
3/21/2021 2:45:00 PM 7.53 45.554 0.044 6.19 152.66 11.53
3/21/2021 3:00:00 PM 7.72 45.896 0.045 6.16 151.41 11.47
3/21/2021 3:15:00 PM 7.89 46.202 0.044 6.14 152.46 11.4
3/21/2021 3:30:00 PM 8.04 46.472 0.044 6.13 153.24 11.35
3/21/2021 3:45:00 PM 8.18 46.724 0.044 6.16 153.7 11.31
3/21/2021 4:00:00 PM 8.27 46.886 0.044 6.17 153.49 11.26
3/21/2021 4:15:00 PM 8.35 47.03 0.044 6.14 155.24 11.24
3/21/2021 4:30:00 PM 8.39 47.102 0.044 6.12 157.08 11.2
3/21/2021 4:45:00 PM 8.39 47.102 0.044 6.1 156.09 11.19
3/21/2021 5:00:00 PM 8.38 47.084 0.044 6.11 152.51 11.17
3/21/2021 5:15:00 PM 8.34 47.012 0.044 6.09 151.21 11.16
3/21/2021 5:30:00 PM 8.31 46.958 0.044 6.08 151.02 11.14
3/21/2021 5:45:00 PM 8.27 46.886 0.044 6.08 150.44 11.14
3/21/2021 6:00:00 PM 8.22 46.796 0.044 6.09 149.8 11.14
3/21/2021 6:15:00 PM 8.14 46.652 0.044 6.09 147.82 11.14
3/21/2021 6:30:00 PM 8.04 46.472 0.044 6.12 148.82 11.14
3/21/2021 6:45:00 PM 7.93 46.274 0.044 6.09 148.46 11.15
3/21/2021 7:00:00 PM 7.81 46.058 0.044 6.05 148.92 11.16
3/21/2021 7:15:00 PM 7.7 45.86 0.044 6.03 150.07 11.18
3/21/2021 7:30:00 PM 7.58 45.644 0.044 6.03 146.37 11.19
3/21/2021 7:45:00 PM 7.47 45.446 0.044 6.07 147.23 11.21
3/21/2021 8:00:00 PM 7.36 45.248 0.044 6.06 149.47 11.23
3/21/2021 8:15:00 PM 7.23 45.014 0.044 6.06 151.27 11.26
3/21/2021 8:30:00 PM 7.1 44.78 0.044 6.07 147.64 11.29
3/21/2021 8:45:00 PM 6.98 44.564 0.044 6.08 146.13 11.33
3/21/2021 9:00:00 PM 6.86 44.348 0.044 6.05 146.94 11.36
3/21/2021 9:15:00 PM 6.74 44.132 0.044 6.05 146.82 11.39
3/21/2021 9:30:00 PM 6.62 43.916 0.044 6.04 143.49 11.43
3/21/2021 9:45:00 PM 6.5 43.7 0.044 6.04 144.96 11.47
3/21/2021 10:00:00 PM 6.38 43.484 0.044 6.07 143.6 11.51
3/21/2021 10:15:00 PM 6.26 43.268 0.044 6.05 143.14 11.54
3/21/2021 10:30:00 PM 6.15 43.07 0.044 5.96 144.26 11.58
3/21/2021 10:45:00 PM 6.04 42.872 0.044 6.03 143.4 11.61
3/21/2021 11:00:00 PM 5.94 42.692 0.044 6.09 141.46 11.64
3/21/2021 11:15:00 PM 5.84 42.512 0.044 6.07 138.9 11.68
3/21/2021 11:30:00 PM 5.74 42.332 0.044 6.04 142.66 11.71
3/21/2021 11:45:00 PM 5.65 42.17 0.044 6.09 142.97 11.74
3/22/2021 12:00:00 AM 5.55 41.99 0.044 6.06 142.87 11.77
3/22/2021 12:15:00 AM 5.46 41.828 0.044 6.05 142.98 11.8
3/22/2021 12:30:00 AM 5.37 41.666 0.044 6.05 142.46 11.82
3/22/2021 12:45:00 AM 5.28 41.504 0.044 6.06 145.06 11.85
3/22/2021 1:00:00 AM 5.2 41.36 0.044 6.07 145.38 11.89
3/22/2021 1:15:00 AM 5.12 41.216 0.044 6.09 146.44 11.91
3/22/2021 1:30:00 AM 5.04 41.072 0.044 6.09 146.07 11.94
3/22/2021 1:45:00 AM 4.96 40.928 0.044 6.15 143.14 11.96
3/22/2021 2:00:00 AM 4.89 40.802 0.044 6.09 146.69 11.98
3/22/2021 2:15:00 AM 4.83 40.694 0.044 6.07 145.84 12
3/22/2021 2:30:00 AM 4.76 40.568 0.044 6.09 148 12.02
3/22/2021 2:45:00 AM 4.7 40.46 0.044 6.07 145.98 12.04
3/22/2021 3:00:00 AM 4.65 40.37 0.044 6.07 144.42 12.06
3/22/2021 3:15:00 AM 4.59 40.262 0.044 6.07 145.17 12.08
3/22/2021 3:30:00 AM 4.54 40.172 0.044 6.08 144.07 12.1
3/22/2021 3:45:00 AM 4.48 40.064 0.044 6.08 143.94 12.12
3/22/2021 4:00:00 AM 4.43 39.974 0.044 6.08 143.75 12.13
3/22/2021 4:15:00 AM 4.38 39.884 0.044 6.1 146.38 12.15
3/22/2021 4:30:00 AM 4.33 39.794 0.044 6.09 145.49 12.17
3/22/2021 4:45:00 AM 4.29 39.722 0.044 6.09 145.42 12.19
3/22/2021 5:00:00 AM 4.24 39.632 0.044 6.11 143.54 12.19
3/22/2021 5:15:00 AM 4.2 39.56 0.044 6.11 144.4 12.21
3/22/2021 5:30:00 AM 4.16 39.488 0.044 6.08 141.39 12.22
3/22/2021 5:45:00 AM 4.12 39.416 0.044 6.08 143.24 12.24
3/22/2021 6:00:00 AM 4.08 39.344 0.044 6.08 139.35 12.25
3/22/2021 6:15:00 AM 4.04 39.272 0.044 6.09 139.3 12.26
3/22/2021 6:30:00 AM 4.01 39.218 0.044 6.08 137.35 12.28
3/22/2021 6:45:00 AM 3.98 39.164 0.044 6.09 137.13 12.29
3/22/2021 7:00:00 AM 3.94 39.092 0.044 6.09 138.43 12.31
3/22/2021 7:15:00 AM 3.91 39.038 0.044 6.08 139.86 12.32
3/22/2021 7:30:00 AM 3.88 38.984 0.044 6.09 138.86 12.34
3/22/2021 7:45:00 AM 3.85 38.93 0.044 6.08 139.03 12.37
3/22/2021 8:00:00 AM 3.83 38.894 0.044 6.11 139.52 12.39
3/22/2021 8:15:00 AM 3.82 38.876 0.044 6.12 137.93 12.42
3/22/2021 8:30:00 AM 3.81 38.858 0.044 6.12 137.57 12.44
3/22/2021 8:45:00 AM 3.81 38.858 0.044 6.13 136.88 12.46
3/22/2021 9:00:00 AM 3.82 38.876 0.044 6.15 136.64 12.47
3/22/2021 9:15:00 AM 3.85 38.93 0.044 6.14 135.46 12.48
3/22/2021 9:30:00 AM 3.9 39.02 0.044 6.15 136.74 12.49
3/22/2021 9:45:00 AM 3.97 39.146 0.044 6.21 133.64 12.48
3/22/2021 10:00:00 AM 4.06 39.308 0.044 6.2 134.1 12.46
3/22/2021 10:15:00 AM 4.16 39.488 0.044 6.19 132.18 12.44
3/22/2021 10:30:00 AM 4.28 39.704 0.044 6.24 130.04 12.42
3/22/2021 10:45:00 AM 4.43 39.974 0.044 6.19 130.14 12.39
3/22/2021 11:00:00 AM 4.61 40.298 0.044 6.19 130.71 12.35
3/22/2021 11:15:00 AM 4.8 40.64 0.044 6.24 131.71 12.29
3/22/2021 11:30:00 AM 4.99 40.982 0.044 6.21 131.22 12.25
3/22/2021 11:45:00 AM 5.2 41.36 0.044 6.24 130.28 12.2
3/22/2021 12:00:00 PM 5.42 41.756 0.044 6.2 131.55 12.13
3/22/2021 12:15:00 PM 5.64 42.152 0.044 6.21 131.86 12.06
3/22/2021 12:30:00 PM 5.87 42.566 0.044 6.24 130.73 12
3/22/2021 12:45:00 PM 6.11 42.998 0.044 6.26 131.98 11.93
3/22/2021 1:00:00 PM 6.35 43.43 0.044 6.21 134.54 11.86
3/22/2021 1:15:00 PM 6.59 43.862 0.045 6.24 135.52 11.78
3/22/2021 1:30:00 PM 6.82 44.276 0.045 6.21 133.37 11.71
3/22/2021 1:45:00 PM 7.05 44.69 0.045 6.2 134.24 11.65
3/22/2021 2:00:00 PM 7.26 45.068 0.045 6.21 134.17 11.57
3/22/2021 2:15:00 PM 7.48 45.464 0.045 6.22 133.45 11.5
3/22/2021 2:30:00 PM 7.68 45.824 0.045 6.19 132.68 11.44
3/22/2021 2:45:00 PM 7.88 46.184 0.045 6.2 134.18 11.38
3/22/2021 3:00:00 PM 8.07 46.526 0.045 6.22 134.56 11.31
3/22/2021 3:15:00 PM 8.24 46.832 0.045 6.2 134.74 11.26
3/22/2021 3:30:00 PM 8.4 47.12 0.045 6.19 134.03 11.2
3/22/2021 3:45:00 PM 8.54 47.372 0.045 6.22 131.82 11.14
3/22/2021 4:00:00 PM 8.64 47.552 0.045 6.17 129.93 11.11
3/22/2021 4:15:00 PM 8.71 47.678 0.045 6.14 131.26 11.08
3/22/2021 4:30:00 PM 8.75 47.75 0.045 6.14 131.02 11.05
3/22/2021 4:45:00 PM 8.76 47.768 0.045 6.18 130.34 11.03
3/22/2021 5:00:00 PM 8.74 47.732 0.045 6.19 127.77 11.01
3/22/2021 5:15:00 PM 8.72 47.696 0.045 6.13 127.59 11
3/22/2021 5:30:00 PM 8.7 47.66 0.045 6.16 126.8 10.99
3/22/2021 5:45:00 PM 8.65 47.57 0.045 6.18 129.07 10.98
3/22/2021 6:00:00 PM 8.61 47.498 0.045 6.13 130.21 10.97
3/22/2021 6:15:00 PM 8.53 47.354 0.045 6.14 129.04 10.97
3/22/2021 6:30:00 PM 8.43 47.174 0.045 6.12 127.21 10.98
3/22/2021 6:45:00 PM 8.32 46.976 0.045 6.06 126.88 10.99
3/22/2021 7:00:00 PM 8.21 46.778 0.045 6.06 126.44 11
3/22/2021 7:15:00 PM 8.09 46.562 0.045 6.06 125.68 11.01
3/22/2021 7:30:00 PM 7.99 46.382 0.045 6.07 126.52 11.01
3/22/2021 7:45:00 PM 7.88 46.184 0.045 6.09 126.83 11.02
3/22/2021 8:00:00 PM 7.76 45.968 0.045 6.07 127.38 11.05
3/22/2021 8:15:00 PM 7.64 45.752 0.045 6.1 128.57 11.07
3/22/2021 8:30:00 PM 7.52 45.536 0.045 6.07 126.07 11.1
3/22/2021 8:45:00 PM 7.39 45.302 0.045 6.08 129.8 11.13
3/22/2021 9:00:00 PM 7.27 45.086 0.045 6.11 128.17 11.16
3/22/2021 9:15:00 PM 7.14 44.852 0.045 6.13 127.56 11.2
3/22/2021 9:30:00 PM 7.02 44.636 0.045 6.05 126.55 11.24
3/22/2021 9:45:00 PM 6.89 44.402 0.045 6.07 125.87 11.28
3/22/2021 10:00:00 PM 6.77 44.186 0.045 6.05 126.92 11.32
3/22/2021 10:15:00 PM 6.65 43.97 0.045 6.07 127.05 11.35
3/22/2021 10:30:00 PM 6.54 43.772 0.045 6.09 125.72 11.39
3/22/2021 10:45:00 PM 6.43 43.574 0.045 6.08 126.39 11.43
3/22/2021 11:00:00 PM 6.32 43.376 0.045 6.06 125.36 11.46
3/22/2021 11:15:00 PM 6.21 43.178 0.045 6.07 127.94 11.5
3/22/2021 11:30:00 PM 6.11 42.998 0.045 6.14 124.54 11.53
3/22/2021 11:45:00 PM 6.01 42.818 0.045 6.08 130.32 11.56
3/23/2021 12:00:00 AM 5.91 42.638 0.045 6.08 139.6 11.59
3/23/2021 12:15:00 AM 5.81 42.458 0.045 6.09 138.73 11.63
3/23/2021 12:30:00 AM 5.72 42.296 0.045 6.09 134.94 11.66
3/23/2021 12:45:00 AM 5.63 42.134 0.045 6.07 131.88 11.69
3/23/2021 1:00:00 AM 5.55 41.99 0.045 6.07 136.29 11.71
3/23/2021 1:15:00 AM 5.46 41.828 0.045 6.06 138.44 11.74
3/23/2021 1:30:00 AM 5.39 41.702 0.045 6.06 135.74 11.76
3/23/2021 1:45:00 AM 5.31 41.558 0.045 6.05 137.74 11.79
3/23/2021 2:00:00 AM 5.24 41.432 0.044 6.06 138.84 11.81
3/23/2021 2:15:00 AM 5.17 41.306 0.044 6.06 138.8 11.84
3/23/2021 2:30:00 AM 5.11 41.198 0.044 6.07 138.04 11.87
3/23/2021 2:45:00 AM 5.04 41.072 0.044 6.07 137.61 11.89
3/23/2021 3:00:00 AM 4.98 40.964 0.044 6.07 138.83 11.91
3/23/2021 3:15:00 AM 4.92 40.856 0.044 6.08 137.25 11.92
3/23/2021 3:30:00 AM 4.87 40.766 0.044 6.07 136.09 11.94
3/23/2021 3:45:00 AM 4.81 40.658 0.044 6.08 136.37 11.96
3/23/2021 4:00:00 AM 4.76 40.568 0.044 6.08 137.43 11.97
3/23/2021 4:15:00 AM 4.71 40.478 0.044 6.08 138.31 11.99
3/23/2021 4:30:00 AM 4.66 40.388 0.044 6.06 139.32 12
3/23/2021 4:45:00 AM 4.61 40.298 0.044 6.07 136.96 12.02
3/23/2021 5:00:00 AM 4.57 40.226 0.044 6.07 136.82 12.04
3/23/2021 5:15:00 AM 4.53 40.154 0.044 6.07 134.52 12.05
3/23/2021 5:30:00 AM 4.49 40.082 0.044 6.07 135.78 12.07
3/23/2021 5:45:00 AM 4.45 40.01 0.044 6.08 139.45 12.08
3/23/2021 6:00:00 AM 4.41 39.938 0.044 6.08 141.28 12.09
3/23/2021 6:15:00 AM 4.37 39.866 0.044 6.09 142.09 12.11
3/23/2021 6:30:00 AM 4.33 39.794 0.044 6.07 142.78 12.12
3/23/2021 6:45:00 AM 4.3 39.74 0.044 6.08 143.1 12.13
3/23/2021 7:00:00 AM 4.27 39.686 0.044 6.08 143.45 12.15
3/23/2021 7:15:00 AM 4.23 39.614 0.042 6.08 144.91 12.16
3/23/2021 7:30:00 AM 4.2 39.56 0.042 6.08 146.99 12.17
3/23/2021 7:45:00 AM 4.18 39.524 0.043 6.1 142.15 12.2
3/23/2021 8:00:00 AM 4.17 39.506 0.042 6.06 144.86 12.23
3/23/2021 8:15:00 AM 4.16 39.488 0.042 6.06 144.85 12.26
3/23/2021 8:30:00 AM 4.16 39.488 0.042 6.07 146.8 12.28
3/23/2021 8:45:00 AM 4.17 39.506 0.042 6.08 142.32 12.3
3/23/2021 9:00:00 AM 4.19 39.542 0.042 6.09 140.36 12.32
3/23/2021 9:15:00 AM 4.22 39.596 0.042 6.09 140.82 12.32
3/23/2021 9:30:00 AM 4.28 39.704 0.041 6.11 143.58 12.33
3/23/2021 9:45:00 AM 4.36 39.848 0.041 6.13 141.51 12.33
3/23/2021 10:00:00 AM 4.45 40.01 0.042 6.14 142.23 12.31
3/23/2021 10:15:00 AM 4.56 40.208 0.041 6.16 142.27 12.3
3/23/2021 10:30:00 AM 4.67 40.406 0.042 6.18 146.21 12.27
3/23/2021 10:45:00 AM 4.83 40.694 0.041 6.17 143.78 12.23
3/23/2021 11:00:00 AM 5.02 41.036 0.041 6.16 144.32 12.2
3/23/2021 11:15:00 AM 5.2 41.36 0.041 6.17 146.06 12.15
3/23/2021 11:30:00 AM 5.37 41.666 0.042 6.18 143.42 12.1
3/23/2021 11:45:00 AM 5.57 42.026 0.042 6.2 141.17 12.05
3/23/2021 12:00:00 PM 5.77 42.386 0.042 6.19 143.27 12
3/23/2021 12:15:00 PM 6.01 42.818 0.042 6.23 146.58 11.93
3/23/2021 12:30:00 PM 6.22 43.196 0.042 6.21 145.69 11.88
3/23/2021 12:45:00 PM 6.43 43.574 0.042 6.21 145.1 11.82
3/23/2021 1:00:00 PM 6.63 43.934 0.042 6.21 143.61 11.76
3/23/2021 1:15:00 PM 6.84 44.312 0.043 6.23 142.01 11.69
3/23/2021 1:30:00 PM 7.03 44.654 0.043 6.22 141.44 11.63
3/23/2021 1:45:00 PM 7.21 44.978 0.043 6.25 147.15 11.57
3/23/2021 2:00:00 PM 7.36 45.248 0.043 6.25 142.81 11.51
3/23/2021 2:15:00 PM 7.48 45.464 0.043 6.16 146.56 11.47
3/23/2021 2:30:00 PM 7.59 45.662 0.043 6.16 147.79 11.42
3/23/2021 2:45:00 PM 7.71 45.878 0.043 6.2 149.41 11.39
3/23/2021 3:00:00 PM 7.82 46.076 0.043 6.17 147.19 11.34
3/23/2021 3:15:00 PM 7.91 46.238 0.043 6.16 145.18 11.3
3/23/2021 3:30:00 PM 7.99 46.382 0.044 6.14 149.37 11.27
3/23/2021 3:45:00 PM 8.05 46.49 0.044 6.12 150.7 11.25
3/23/2021 4:00:00 PM 8.11 46.598 0.044 6.12 149.64 11.22
3/23/2021 4:15:00 PM 8.18 46.724 0.044 6.13 153.95 11.19
3/23/2021 4:30:00 PM 8.21 46.778 0.044 6.13 152.95 11.17
3/23/2021 4:45:00 PM 8.25 46.85 0.044 6.12 149.64 11.16
3/23/2021 5:00:00 PM 8.3 46.94 0.044 6.1 149.5 11.14
3/23/2021 5:15:00 PM 8.31 46.958 0.044 6.09 145.3 11.11
3/23/2021 5:30:00 PM 8.31 46.958 0.044 6.09 144.21 11.1
3/23/2021 5:45:00 PM 8.33 46.994 0.044 6.08 144.1 11.1
3/23/2021 6:00:00 PM 8.32 46.976 0.044 6.09 146.55 11.08
3/23/2021 6:15:00 PM 8.3 46.94 0.044 6.09 149.08 11.07
3/23/2021 6:30:00 PM 8.27 46.886 0.044 6.11 146.84 11.06
3/23/2021 6:45:00 PM 8.23 46.814 0.044 6.09 143.95 11.06
3/23/2021 7:00:00 PM 8.19 46.742 0.044 6.08 151.31 11.04
3/23/2021 7:15:00 PM 8.13 46.634 0.044 6.08 152.36 11.02
3/23/2021 7:30:00 PM 8.06 46.508 0.044 6.07 151.67 11.01
3/23/2021 7:45:00 PM 8 46.4 0.044 6.06 150.73 10.99
3/23/2021 8:00:00 PM 7.93 46.274 0.044 6.05 152.92 11
3/23/2021 8:15:00 PM 7.86 46.148 0.044 6.06 152.74 11
3/23/2021 8:30:00 PM 7.79 46.022 0.044 6.08 152.41 11.02
3/23/2021 8:45:00 PM 7.71 45.878 0.044 6.09 152 11.03
3/23/2021 9:00:00 PM 7.64 45.752 0.044 6.1 152.57 11.05
3/23/2021 9:15:00 PM 7.56 45.608 0.044 6.07 152.04 11.07
3/23/2021 9:30:00 PM 7.48 45.464 0.044 6.07 152.11 11.09
3/23/2021 9:45:00 PM 7.39 45.302 0.044 6.06 151.99 11.11
3/23/2021 10:00:00 PM 7.31 45.158 0.044 6.06 147.49 11.13
3/23/2021 10:15:00 PM 7.22 44.996 0.044 6.05 147.66 11.16
3/23/2021 10:30:00 PM 7.13 44.834 0.044 6.06 147.35 11.19
3/23/2021 10:45:00 PM 7.04 44.672 0.043 6.06 144.89 11.22
3/23/2021 11:00:00 PM 6.95 44.51 0.043 6.06 148.07 11.24
3/23/2021 11:15:00 PM 6.86 44.348 0.043 6.07 144.41 11.26
3/23/2021 11:30:00 PM 6.78 44.204 0.043 6.08 144.25 11.28
3/23/2021 11:45:00 PM 6.71 44.078 0.043 6.09 145.3 11.3
3/24/2021 12:00:00 AM 6.63 43.934 0.043 6.09 147.42 11.32
3/24/2021 12:15:00 AM 6.56 43.808 0.043 6.09 147.42 11.35
3/24/2021 12:30:00 AM 6.49 43.682 0.043 6.1 149.02 11.38
3/24/2021 12:45:00 AM 6.43 43.574 0.043 6.09 150.25 11.4
3/24/2021 1:00:00 AM 6.38 43.484 0.043 6.09 150.37 11.42
3/24/2021 1:15:00 AM 6.33 43.394 0.043 6.1 149.74 11.44
3/24/2021 1:30:00 AM 6.29 43.322 0.043 6.11 148.4 11.45
3/24/2021 1:45:00 AM 6.25 43.25 0.043 6.12 149.52 11.46
3/24/2021 2:00:00 AM 6.21 43.178 0.043 6.14 154.49 11.47
3/24/2021 2:15:00 AM 6.17 43.106 0.043 6.12 154.93 11.48
3/24/2021 2:30:00 AM 6.14 43.052 0.043 6.1 154.65 11.49
3/24/2021 2:45:00 AM 6.11 42.998 0.043 6.01 157.61 11.5
3/24/2021 3:00:00 AM 6.09 42.962 0.043 6.05 154.83 11.51
3/24/2021 3:15:00 AM 6.08 42.944 0.043 6.05 151.17 11.51
3/24/2021 3:30:00 AM 6.07 42.926 0.043 6.02 150.89 11.51
3/24/2021 3:45:00 AM 6.06 42.908 0.043 6 151.66 11.52
3/24/2021 4:00:00 AM 6.06 42.908 0.043 6.01 149.75 11.52
3/24/2021 4:15:00 AM 6.06 42.908 0.043 6.01 148.9 11.52
3/24/2021 4:30:00 AM 6.07 42.926 0.043 6.01 152.01 11.52
3/24/2021 4:45:00 AM 6.07 42.926 0.043 6.02 152.07 11.51
3/24/2021 5:00:00 AM 6.08 42.944 0.043 6.02 150.02 11.51
3/24/2021 5:15:00 AM 6.09 42.962 0.043 6.02 146.43 11.5
3/24/2021 5:30:00 AM 6.1 42.98 0.043 6.02 153.32 11.5
3/24/2021 5:45:00 AM 6.11 42.998 0.043 6.03 151.31 11.5
3/24/2021 6:00:00 AM 6.12 43.016 0.043 6.04 155.62 11.49
3/24/2021 6:15:00 AM 6.13 43.034 0.043 6.03 151.26 11.49
3/24/2021 6:30:00 AM 6.15 43.07 0.043 6.03 150.55 11.49
3/24/2021 6:45:00 AM 6.16 43.088 0.043 6.03 152.5 11.48
3/24/2021 7:00:00 AM 6.17 43.106 0.043 6.03 155.64 11.48
3/24/2021 7:15:00 AM 6.19 43.142 0.043 6.03 153.44 11.48
3/24/2021 7:30:00 AM 6.2 43.16 0.043 6.03 156.52 11.47
3/24/2021 7:45:00 AM 6.22 43.196 0.043 6.02 155.01 11.47
3/24/2021 8:00:00 AM 6.24 43.232 0.044 6.03 158.43 11.47
3/24/2021 8:15:00 AM 6.26 43.268 0.044 6.02 157.02 11.47
3/24/2021 8:30:00 AM 6.27 43.286 0.044 6.02 155.84 11.47
3/24/2021 8:45:00 AM 6.3 43.34 0.044 6.02 156.58 11.48
3/24/2021 9:00:00 AM 6.32 43.376 0.044 6.02 153.86 11.49
3/24/2021 9:15:00 AM 6.34 43.412 0.044 6.03 158.78 11.5
3/24/2021 9:30:00 AM 6.37 43.466 0.044 6.03 155.98 11.51
3/24/2021 9:45:00 AM 6.41 43.538 0.044 6.04 155.17 11.52
3/24/2021 10:00:00 AM 6.45 43.61 0.044 6.05 157.93 11.54
3/24/2021 10:15:00 AM 6.49 43.682 0.044 6.05 155.11 11.54
3/24/2021 10:30:00 AM 6.53 43.754 0.044 6.06 158.15 11.53
3/24/2021 10:45:00 AM 6.56 43.808 0.044 6.07 160.96 11.53
3/24/2021 11:00:00 AM 6.59 43.862 0.044 6.07 160.69 11.52
3/24/2021 11:15:00 AM 6.63 43.934 0.044 6.07 163.69 11.51
3/24/2021 11:30:00 AM 6.68 44.024 0.044 6.08 167.54 11.51
3/24/2021 11:45:00 AM 6.73 44.114 0.044 6.08 165.13 11.5
3/24/2021 12:00:00 PM 6.79 44.222 0.044 6.09 159.79 11.49
3/24/2021 12:15:00 PM 6.84 44.312 0.044 6.08 157.73 11.48
3/24/2021 12:30:00 PM 6.9 44.42 0.044 6.09 162.4 11.46
3/24/2021 12:45:00 PM 6.96 44.528 0.044 6.09 158.18 11.45
3/24/2021 1:00:00 PM 7.01 44.618 0.044 6.09 158.57 11.44
3/24/2021 1:15:00 PM 7.07 44.726 0.044 6.1 154.05 11.43
3/24/2021 1:30:00 PM 7.12 44.816 0.044 6.1 157.84 11.41
3/24/2021 1:45:00 PM 7.17 44.906 0.044 6.1 163.3 11.39
3/24/2021 2:00:00 PM 7.22 44.996 0.044 6.1 160.64 11.37
3/24/2021 2:15:00 PM 7.26 45.068 0.044 6.1 160.21 11.34
3/24/2021 2:30:00 PM 7.29 45.122 0.044 6.09 166.37 11.33
3/24/2021 2:45:00 PM 7.34 45.212 0.044 6.1 164.13 11.32
3/24/2021 3:00:00 PM 7.4 45.32 0.044 6.1 166.02 11.3
3/24/2021 3:15:00 PM 7.46 45.428 0.045 6.1 164.87 11.29
3/24/2021 3:30:00 PM 7.52 45.536 0.044 6.1 163.2 11.28
3/24/2021 3:45:00 PM 7.59 45.662 0.044 6.1 163.15 11.26
3/24/2021 4:00:00 PM 7.65 45.77 0.044 6.1 167.64 11.25
3/24/2021 4:15:00 PM 7.72 45.896 0.044 6.11 167.86 11.23
3/24/2021 4:30:00 PM 7.78 46.004 0.044 6.11 163.97 11.22
3/24/2021 4:45:00 PM 7.81 46.058 0.044 6.23 162.5 11.19
3/24/2021 5:00:00 PM 7.81 46.058 0.044 6.23 164 11.17
3/24/2021 5:15:00 PM 7.81 46.058 0.044 6.23 163.27 11.15
3/24/2021 5:30:00 PM 7.81 46.058 0.044 6.23 161.16 11.13
3/24/2021 5:45:00 PM 7.82 46.076 0.044 6.23 159.14 11.11
3/24/2021 6:00:00 PM 7.83 46.094 0.044 6.22 161.31 11.1
3/24/2021 6:15:00 PM 7.83 46.094 0.044 6.22 165.56 11.08
3/24/2021 6:30:00 PM 7.83 46.094 0.044 6.22 166.27 11.06
3/24/2021 6:45:00 PM 7.83 46.094 0.044 6.22 169.89 11.04
3/24/2021 7:00:00 PM 7.83 46.094 0.044 6.21 168.7 11.02
3/24/2021 7:15:00 PM 7.82 46.076 0.044 6.21 169.85 11.01
3/24/2021 7:30:00 PM 7.81 46.058 0.044 6.2 169.4 10.99
3/24/2021 7:45:00 PM 7.79 46.022 0.044 6.19 175.08 10.98
3/24/2021 8:00:00 PM 7.76 45.968 0.044 6.18 173.56 10.98
3/24/2021 8:15:00 PM 7.74 45.932 0.044 6.18 174.65 10.98
3/24/2021 8:30:00 PM 7.72 45.896 0.044 6.18 171.08 10.98
3/24/2021 8:45:00 PM 7.7 45.86 0.044 6.18 167.94 10.98
3/24/2021 9:00:00 PM 7.68 45.824 0.045 6.17 167.67 10.99
3/24/2021 9:15:00 PM 7.66 45.788 0.045 6.17 169.42 10.99
3/24/2021 9:30:00 PM 7.64 45.752 0.045 6.17 170.12 11
3/24/2021 9:45:00 PM 7.61 45.698 0.045 6.17 169.07 11.01
3/24/2021 10:00:00 PM 7.59 45.662 0.045 6.16 166.98 11.02
3/24/2021 10:15:00 PM 7.57 45.626 0.044 6.16 171.26 11.02
3/24/2021 10:30:00 PM 7.54 45.572 0.044 6.15 172.96 11.03
3/24/2021 10:45:00 PM 7.52 45.536 0.044 6.15 177.89 11.04
3/24/2021 11:00:00 PM 7.49 45.482 0.044 6.16 178.99 11.05
3/24/2021 11:15:00 PM 7.48 45.464 0.044 6.15 176.97 11.05
3/24/2021 11:30:00 PM 7.46 45.428 0.044 6.15 175.35 11.06
3/24/2021 11:45:00 PM 7.45 45.41 0.044 6.15 175.42 11.06
3/25/2021 12:00:00 AM 7.43 45.374 0.044 6.15 172.62 11.06
3/25/2021 12:15:00 AM 7.41 45.338 0.044 6.14 174.79 11.07
3/25/2021 12:30:00 AM 7.39 45.302 0.044 6.14 174.74 11.08
3/25/2021 12:45:00 AM 7.38 45.284 0.044 6.13 174.35 11.08
3/25/2021 1:00:00 AM 7.36 45.248 0.044 6.14 173.16 11.09
3/25/2021 1:15:00 AM 7.35 45.23 0.044 6.22 169.47 11.09
3/25/2021 1:30:00 AM 7.34 45.212 0.044 6.2 169.55 11.09
3/25/2021 1:45:00 AM 7.33 45.194 0.044 6.17 170.66 11.1
3/25/2021 2:00:00 AM 7.32 45.176 0.044 6.23 169.21 11.1
3/25/2021 2:15:00 AM 7.31 45.158 0.044 6.18 167.68 11.1
3/25/2021 2:30:00 AM 7.3 45.14 0.044 6.12 166.99 11.1
3/25/2021 2:45:00 AM 7.29 45.122 0.044 6.18 170.1 11.11
3/25/2021 3:00:00 AM 7.28 45.104 0.044 6.19 170.02 11.11
3/25/2021 3:15:00 AM 7.27 45.086 0.044 6.15 171.88 11.12
3/25/2021 3:30:00 AM 7.26 45.068 0.044 6.19 169.98 11.12
3/25/2021 3:45:00 AM 7.25 45.05 0.044 6.22 170.46 11.12
3/25/2021 4:00:00 AM 7.24 45.032 0.044 6.23 170.33 11.12
3/25/2021 4:15:00 AM 7.23 45.014 0.044 6.28 168.38 11.13
3/25/2021 4:30:00 AM 7.22 44.996 0.044 6.25 168.36 11.13
3/25/2021 4:45:00 AM 7.21 44.978 0.044 6.23 166.81 11.13
3/25/2021 5:00:00 AM 7.2 44.96 0.044 6.23 167.11 11.14
3/25/2021 5:15:00 AM 7.19 44.942 0.044 6.29 166.05 11.15
3/25/2021 5:30:00 AM 7.18 44.924 0.044 6.27 164.33 11.14
3/25/2021 5:45:00 AM 7.17 44.906 0.044 6.27 163.65 11.15
3/25/2021 6:00:00 AM 7.16 44.888 0.044 6.25 161.4 11.15
3/25/2021 6:15:00 AM 7.15 44.87 0.044 6.28 160.95 11.16
3/25/2021 6:30:00 AM 7.14 44.852 0.044 6.33 162.51 11.16
3/25/2021 6:45:00 AM 7.13 44.834 0.044 6.36 161.9 11.17
3/25/2021 7:00:00 AM 7.12 44.816 0.044 6.16 161.74 11.18
3/25/2021 7:15:00 AM 7.11 44.798 0.044 6.19 159.96 11.18
3/25/2021 7:30:00 AM 7.11 44.798 0.044 6.3 159.2 11.19
3/25/2021 7:45:00 AM 7.1 44.78 0.044 6.21 157.96 11.21
3/25/2021 8:00:00 AM 7.11 44.798 0.044 6.26 158.26 11.22
3/25/2021 8:15:00 AM 7.11 44.798 0.044 6.26 157.99 11.24
3/25/2021 8:30:00 AM 7.12 44.816 0.044 6.24 157.86 11.26
3/25/2021 8:45:00 AM 7.14 44.852 0.044 6.27 158.28 11.28
3/25/2021 9:00:00 AM 7.16 44.888 0.044 6.29 157.73 11.3
3/25/2021 9:15:00 AM 7.19 44.942 0.043 6.28 157.14 11.32
3/25/2021 9:30:00 AM 7.23 45.014 0.043 6.31 156.67 11.33
3/25/2021 9:45:00 AM 7.29 45.122 0.043 6.33 157.45 11.33
3/25/2021 10:00:00 AM 7.35 45.23 0.043 6.35 157.57 11.34
3/25/2021 10:15:00 AM 7.44 45.392 0.043 6.34 157.63 11.34
3/25/2021 10:30:00 AM 7.54 45.572 0.043 6.4 154.51 11.33
3/25/2021 10:45:00 AM 7.66 45.788 0.043 6.45 152.81 11.31
3/25/2021 11:00:00 AM 7.8 46.04 0.043 6.44 151.79 11.29
3/25/2021 11:15:00 AM 7.92 46.256 0.043 6.43 153.86 11.25
3/25/2021 11:30:00 AM 8.08 46.544 0.043 6.43 152.46 11.22
3/25/2021 11:45:00 AM 8.23 46.814 0.043 6.45 151.75 11.17
3/25/2021 12:00:00 PM 8.4 47.12 0.043 6.46 156.55 11.15
3/25/2021 12:15:00 PM 8.6 47.48 0.043 6.46 152.74 11.1
3/25/2021 12:30:00 PM 8.78 47.804 0.043 6.49 154.08 11.05
3/25/2021 12:45:00 PM 8.96 48.128 0.043 6.51 152.02 11.01
3/25/2021 1:00:00 PM 9.1 48.38 0.043 6.5 152.52 10.97
3/25/2021 1:15:00 PM 9.28 48.704 0.043 6.56 154.55 10.92
3/25/2021 1:30:00 PM 9.45 49.01 0.043 6.49 152.8 10.88
3/25/2021 1:45:00 PM 9.62 49.316 0.043 6.5 151.79 10.84
3/25/2021 2:00:00 PM 9.78 49.604 0.043 6.5 152.14 10.79
3/25/2021 2:15:00 PM 9.92 49.856 0.044 6.51 151.04 10.74
3/25/2021 2:30:00 PM 10.04 50.072 0.044 6.51 151.56 10.7
3/25/2021 2:45:00 PM 10.16 50.288 0.044 6.54 151.98 10.67
3/25/2021 3:00:00 PM 10.25 50.45 0.045 6.56 152.02 10.64
3/25/2021 3:15:00 PM 10.33 50.594 0.044 6.48 152.3 10.6
3/25/2021 3:30:00 PM 10.38 50.684 0.044 6.45 152.07 10.58
3/25/2021 3:45:00 PM 10.4 50.72 0.045 6.42 152.34 10.55
3/25/2021 4:00:00 PM 10.41 50.738 0.044 6.47 152.46 10.53
3/25/2021 4:15:00 PM 10.41 50.738 0.044 6.45 151.43 10.52
3/25/2021 4:30:00 PM 10.4 50.72 0.044 6.42 151.53 10.51
3/25/2021 4:45:00 PM 10.4 50.72 0.045 6.43 151.33 10.5
3/25/2021 5:00:00 PM 10.39 50.702 0.045 6.41 151.47 10.49
3/25/2021 5:15:00 PM 10.38 50.684 0.045 6.42 151.25 10.48
3/25/2021 5:30:00 PM 10.35 50.63 0.045 6.39 151.27 10.46
3/25/2021 5:45:00 PM 10.32 50.576 0.045 6.41 152.22 10.46
3/25/2021 6:00:00 PM 10.27 50.486 0.045 6.41 152.01 10.44
3/25/2021 6:15:00 PM 10.21 50.378 0.045 6.34 151.58 10.43
3/25/2021 6:30:00 PM 10.14 50.252 0.045 6.31 152.01 10.43
3/25/2021 6:45:00 PM 10.05 50.09 0.045 6.33 151.8 10.42
3/25/2021 7:00:00 PM 9.97 49.946 0.045 6.37 151.85 10.42
3/25/2021 7:15:00 PM 9.89 49.802 0.045 6.37 152.3 10.42
3/25/2021 7:30:00 PM 9.81 49.658 0.045 6.38 151.98 10.41
3/25/2021 7:45:00 PM 9.72 49.496 0.045 6.36 151.7 10.42
3/25/2021 8:00:00 PM 9.63 49.334 0.045 6.35 152 10.44
3/25/2021 8:15:00 PM 9.54 49.172 0.045 6.22 151.5 10.44
3/25/2021 8:30:00 PM 9.46 49.028 0.045 6.26 151.48 10.46
3/25/2021 8:45:00 PM 9.39 48.902 0.045 6.28 151.07 10.48
3/25/2021 9:00:00 PM 9.32 48.776 0.045 6.36 152.09 10.49
3/25/2021 9:15:00 PM 9.26 48.668 0.045 6.36 151.15 10.51
3/25/2021 9:30:00 PM 9.2 48.56 0.045 6.36 151.35 10.52
3/25/2021 9:45:00 PM 9.15 48.47 0.045 6.36 150.86 10.54
3/25/2021 10:00:00 PM 9.11 48.398 0.045 6.32 151.05 10.55
3/25/2021 10:15:00 PM 9.06 48.308 0.045 6.36 148.78 10.57
3/25/2021 10:30:00 PM 9 48.2 0.045 6.35 146.37 10.58
3/25/2021 10:45:00 PM 8.96 48.128 0.045 6.33 147.6 10.59
3/25/2021 11:00:00 PM 8.91 48.038 0.045 6.33 147.24 10.6
3/25/2021 11:15:00 PM 8.87 47.966 0.045 6.35 147.54 10.61
3/25/2021 11:30:00 PM 8.84 47.912 0.045 6.33 147.19 10.62
3/25/2021 11:45:00 PM 8.81 47.858 0.045 6.34 147.37 10.63
3/26/2021 12:00:00 AM 8.79 47.822 0.045 6.33 147.31 10.63
3/26/2021 12:15:00 AM 8.77 47.786 0.045 6.32 147.4 10.64
3/26/2021 12:30:00 AM 8.75 47.75 0.045 6.37 147.29 10.64
3/26/2021 12:45:00 AM 8.74 47.732 0.045 6.3 147.77 10.64
3/26/2021 1:00:00 AM 8.72 47.696 0.045 6.3 147.37 10.64
3/26/2021 1:15:00 AM 8.69 47.642 0.045 6.3 147.34 10.64
3/26/2021 1:30:00 AM 8.66 47.588 0.045 6.3 147.82 10.65
3/26/2021 1:45:00 AM 8.64 47.552 0.045 6.31 147.84 10.65
3/26/2021 2:00:00 AM 8.62 47.516 0.045 6.31 148.07 10.65
3/26/2021 2:15:00 AM 8.6 47.48 0.045 6.3 148.15 10.66
3/26/2021 2:30:00 AM 8.59 47.462 0.045 6.3 147.96 10.66
3/26/2021 2:45:00 AM 8.6 47.48 0.045 6.3 147.86 10.65
3/26/2021 3:00:00 AM 8.6 47.48 0.045 6.3 148.22 10.65
3/26/2021 3:15:00 AM 8.6 47.48 0.045 6.3 148 10.65
3/26/2021 3:30:00 AM 8.59 47.462 0.046 6.29 147.81 10.64
3/26/2021 3:45:00 AM 8.58 47.444 0.046 6.28 148.39 10.64
3/26/2021 4:00:00 AM 8.57 47.426 0.046 6.27 148.63 10.64
3/26/2021 4:15:00 AM 8.56 47.408 0.046 6.29 148.48 10.64
3/26/2021 4:30:00 AM 8.54 47.372 0.046 6.29 148.29 10.63
3/26/2021 4:45:00 AM 8.53 47.354 0.045 6.27 148.6 10.63
3/26/2021 5:00:00 AM 8.51 47.318 0.045 6.27 148.61 10.63
3/26/2021 5:15:00 AM 8.49 47.282 0.045 6.28 148.75 10.63
3/26/2021 5:30:00 AM 8.47 47.246 0.045 6.28 148.63 10.63
3/26/2021 5:45:00 AM 8.46 47.228 0.045 6.28 148.65 10.63
3/26/2021 6:00:00 AM 8.46 47.228 0.045 6.28 148.77 10.64
3/26/2021 6:15:00 AM 8.46 47.228 0.045 6.29 148.88 10.63
3/26/2021 6:30:00 AM 8.45 47.21 0.045 6.28 148.82 10.63
3/26/2021 6:45:00 AM 8.45 47.21 0.045 6.29 148.53 10.63
3/26/2021 7:00:00 AM 8.46 47.228 0.045 6.3 148.88 10.63
3/26/2021 7:15:00 AM 8.46 47.228 0.045 6.31 148.7 10.63
3/26/2021 7:30:00 AM 8.46 47.228 0.045 6.31 148.81 10.64
3/26/2021 7:45:00 AM 8.45 47.21 0.045 6.34 148.2 10.66
3/26/2021 8:00:00 AM 8.46 47.228 0.045 6.36 148.16 10.69
3/26/2021 8:15:00 AM 8.48 47.264 0.045 6.37 147.97 10.71
3/26/2021 8:30:00 AM 8.51 47.318 0.046 6.41 148.02 10.73
3/26/2021 8:45:00 AM 8.54 47.372 0.046 6.39 148.35 10.73
3/26/2021 9:00:00 AM 8.58 47.444 0.046 6.41 148.17 10.74
3/26/2021 9:15:00 AM 8.63 47.534 0.046 6.42 148.41 10.75
3/26/2021 9:30:00 AM 8.68 47.624 0.046 6.43 148.05 10.76
3/26/2021 9:45:00 AM 8.74 47.732 0.045 6.43 146.88 10.75
3/26/2021 10:00:00 AM 8.78 47.804 0.045 6.41 146.98 10.74
3/26/2021 10:15:00 AM 8.8 47.84 0.045 6.45 147.04 10.74
3/26/2021 10:30:00 AM 8.82 47.876 0.045 6.42 146.98 10.73
3/26/2021 10:45:00 AM 8.86 47.948 0.045 6.43 146.7 10.72
3/26/2021 11:00:00 AM 8.9 48.02 0.045 6.49 147.33 10.73
3/26/2021 11:15:00 AM 8.92 48.056 0.045 6.49 147.26 10.73
3/26/2021 11:30:00 AM 8.96 48.128 0.045 6.5 147.17 10.74
3/26/2021 11:45:00 AM 8.99 48.182 0.045 6.41 146.29 10.75
3/26/2021 12:00:00 PM 9.01 48.218 0.045 6.44 146.11 10.73
3/26/2021 12:15:00 PM 9 48.2 0.045 6.42 145.99 10.72
3/26/2021 12:30:00 PM 8.98 48.164 0.045 6.42 146.13 10.72
3/26/2021 12:45:00 PM 8.98 48.164 0.045 6.41 145.85 10.72
3/26/2021 1:00:00 PM 8.99 48.182 0.045 6.46 145.64 10.74
3/26/2021 1:15:00 PM 9.04 48.272 0.045 6.42 146.1 10.76
3/26/2021 1:30:00 PM 9.06 48.308 0.045 6.39 146.4 10.77
3/26/2021 1:45:00 PM 9.07 48.326 0.045 6.39 145.93 10.77
3/26/2021 2:00:00 PM 9.07 48.326 0.045 6.43 146.35 10.78
3/26/2021 2:15:00 PM 9.09 48.362 0.046 6.47 146.42 10.79
3/26/2021 2:30:00 PM 9.11 48.398 0.046 6.4 146.16 10.8
3/26/2021 2:45:00 PM 9.17 48.506 0.046 6.44 146.15 10.79
3/26/2021 3:00:00 PM 9.22 48.596 0.046 6.44 146.26 10.79
3/26/2021 3:15:00 PM 9.3 48.74 0.046 6.46 146.49 10.79
3/26/2021 3:30:00 PM 9.32 48.776 0.046 6.56 146.56 10.79
3/26/2021 3:45:00 PM 9.29 48.722 0.046 6.45 146.43 10.78
3/26/2021 4:00:00 PM 9.21 48.578 0.045 6.42 145.8 10.78
3/26/2021 4:15:00 PM 9.14 48.452 0.045 6.37 145.73 10.79
3/26/2021 4:30:00 PM 9.08 48.344 0.045 6.37 145.73 10.8
3/26/2021 4:45:00 PM 9.04 48.272 0.045 6.38 145.99 10.81
3/26/2021 5:00:00 PM 9 48.2 0.045 6.35 145.65 10.82
3/26/2021 5:15:00 PM 8.95 48.11 0.045 6.41 145.31 10.83
3/26/2021 5:30:00 PM 8.9 48.02 0.045 6.43 145.81 10.82
3/26/2021 5:45:00 PM 8.85 47.93 0.045 6.4 145.64 10.82
3/26/2021 6:00:00 PM 8.79 47.822 0.045 6.37 145.93 10.82
3/26/2021 6:15:00 PM 8.73 47.714 0.045 6.39 145.84 10.82
3/26/2021 6:30:00 PM 8.67 47.606 0.045 6.43 146.02 10.81
3/26/2021 6:45:00 PM 8.6 47.48 0.045 6.4 146.01 10.81
3/26/2021 7:00:00 PM 8.53 47.354 0.045 6.42 145.82 10.81
3/26/2021 7:15:00 PM 8.46 47.228 0.045 6.46 146.01 10.82
3/26/2021 7:30:00 PM 8.38 47.084 0.045 6.49 145.55 10.83
3/26/2021 7:45:00 PM 8.32 46.976 0.045 6.44 145.54 10.84
3/26/2021 8:00:00 PM 8.25 46.85 0.046 6.4 145.37 10.84
3/26/2021 8:15:00 PM 8.19 46.742 0.046 6.37 145.46 10.86
3/26/2021 8:30:00 PM 8.12 46.616 0.046 6.43 146.08 10.87
3/26/2021 8:45:00 PM 8.06 46.508 0.046 6.41 145.76 10.89
3/26/2021 9:00:00 PM 8 46.4 0.045 6.36 145.63 10.9
3/26/2021 9:15:00 PM 7.94 46.292 0.046 6.37 145.37 10.92
3/26/2021 9:30:00 PM 7.89 46.202 0.046 6.39 146.87 10.94
3/26/2021 9:45:00 PM 7.83 46.094 0.046 6.38 146.08 10.96
3/26/2021 10:00:00 PM 7.78 46.004 0.046 6.39 146.2 10.98
3/26/2021 10:15:00 PM 7.73 45.914 0.046 6.41 146.02 10.99
3/26/2021 10:30:00 PM 7.69 45.842 0.046 6.37 145.79 11.01
3/26/2021 10:45:00 PM 7.65 45.77 0.046 6.4 146.04 11.03
3/26/2021 11:00:00 PM 7.62 45.716 0.046 6.37 145.59 11.04
3/26/2021 11:15:00 PM 7.58 45.644 0.046 6.33 145.53 11.04
3/26/2021 11:30:00 PM 7.55 45.59 0.046 6.34 145.75 11.06
3/26/2021 11:45:00 PM 7.51 45.518 0.046 6.34 146.06 11.06
3/27/2021 12:00:00 AM 7.49 45.482 0.046 6.34 147.24 11.07
3/27/2021 12:15:00 AM 7.46 45.428 0.046 6.36 147.92 11.08
3/27/2021 12:30:00 AM 7.44 45.392 0.046 6.4 148.29 11.09
3/27/2021 12:45:00 AM 7.41 45.338 0.046 6.4 148.3 11.09
3/27/2021 1:00:00 AM 7.39 45.302 0.046 6.4 148.4 11.1
3/27/2021 1:15:00 AM 7.37 45.266 0.046 6.37 148.74 11.1
3/27/2021 1:30:00 AM 7.35 45.23 0.046 6.36 148.27 11.11
3/27/2021 1:45:00 AM 7.34 45.212 0.046 6.38 148.47 11.11
3/27/2021 2:00:00 AM 7.32 45.176 0.046 6.32 147.13 11.11
3/27/2021 2:15:00 AM 7.31 45.158 0.046 6.32 146.65 11.12
3/27/2021 2:30:00 AM 7.29 45.122 0.046 6.32 146.66 11.12
3/27/2021 2:45:00 AM 7.28 45.104 0.046 6.32 146.96 11.12
3/27/2021 3:00:00 AM 7.27 45.086 0.046 6.32 146.87 11.12
3/27/2021 3:15:00 AM 7.26 45.068 0.046 6.32 147.31 11.13
3/27/2021 3:30:00 AM 7.25 45.05 0.046 6.33 146.93 11.13
3/27/2021 3:45:00 AM 7.24 45.032 0.046 6.37 147.03 11.14
3/27/2021 4:00:00 AM 7.23 45.014 0.046 6.4 147.02 11.14
3/27/2021 4:15:00 AM 7.22 44.996 0.046 6.33 146.68 11.14
3/27/2021 4:30:00 AM 7.21 44.978 0.046 6.32 147.14 11.14
3/27/2021 4:45:00 AM 7.21 44.978 0.046 6.34 146.92 11.14
3/27/2021 5:00:00 AM 7.2 44.96 0.046 6.37 146.64 11.15
3/27/2021 5:15:00 AM 7.2 44.96 0.046 6.38 145.97 11.15
3/27/2021 5:30:00 AM 7.19 44.942 0.046 6.38 145.44 11.15
3/27/2021 5:45:00 AM 7.19 44.942 0.046 6.37 144.69 11.15
3/27/2021 6:00:00 AM 7.18 44.924 0.046 6.37 145.9 11.15
3/27/2021 6:15:00 AM 7.17 44.906 0.046 6.35 146.35 11.15
3/27/2021 6:30:00 AM 7.17 44.906 0.046 6.36 145.54 11.16
3/27/2021 6:45:00 AM 7.16 44.888 0.046 6.35 145.65 11.16
3/27/2021 7:00:00 AM 7.14 44.852 0.046 6.33 146.47 11.16
3/27/2021 7:15:00 AM 7.13 44.834 0.046 6.35 146.92 11.17
3/27/2021 7:30:00 AM 7.12 44.816 0.046 6.36 146.94 11.18
3/27/2021 7:45:00 AM 7.11 44.798 0.046 6.35 145.3 11.2
3/27/2021 8:00:00 AM 7.11 44.798 0.046 6.32 147.96 11.23
3/27/2021 8:15:00 AM 7.11 44.798 0.046 6.32 148.32 11.26
3/27/2021 8:30:00 AM 7.11 44.798 0.046 6.35 148.17 11.29
3/27/2021 8:45:00 AM 7.14 44.852 0.046 6.35 145.96 11.31
3/27/2021 9:00:00 AM 7.18 44.924 0.046 6.36 147.06 11.34
3/27/2021 9:15:00 AM 7.23 45.014 0.046 6.35 148.27 11.34
3/27/2021 9:30:00 AM 7.27 45.086 0.046 6.35 148.21 11.34
3/27/2021 9:45:00 AM 7.35 45.23 0.046 6.34 148.36 11.34
3/27/2021 10:00:00 AM 7.44 45.392 0.046 6.37 148.62 11.33
3/27/2021 10:15:00 AM 7.48 45.464 0.046 6.36 149.13 11.31
3/27/2021 10:30:00 AM 7.52 45.536 0.046 6.35 150.85 11.32
3/27/2021 10:45:00 AM 7.6 45.68 0.046 6.34 152.2 11.31
3/27/2021 11:00:00 AM 7.68 45.824 0.046 6.3 151.59 11.32
3/27/2021 11:15:00 AM 7.79 46.022 0.046 6.3 153.37 11.29
3/27/2021 11:30:00 AM 8.01 46.418 0.046 6.35 150.67 11.25
3/27/2021 11:45:00 AM 8.13 46.634 0.046 6.38 151.13 11.21
3/27/2021 12:00:00 PM 8.26 46.868 0.046 6.36 149.19 11.19
3/27/2021 12:15:00 PM 8.46 47.228 0.046 6.31 149.63 11.14
3/27/2021 12:30:00 PM 8.61 47.498 0.046 6.34 151.96 11.1
3/27/2021 12:45:00 PM 8.73 47.714 0.046 6.3 151.55 11.07
3/27/2021 1:00:00 PM 8.92 48.056 0.046 6.27 151.26 11.02
3/27/2021 1:15:00 PM 9.14 48.452 0.046 6.34 150.86 10.96
3/27/2021 1:30:00 PM 9.27 48.686 0.046 6.34 149.64 10.91
3/27/2021 1:45:00 PM 9.43 48.974 0.046 6.31 148.69 10.87
3/27/2021 2:00:00 PM 9.55 49.19 0.046 6.29 150.56 10.85
3/27/2021 2:15:00 PM 9.68 49.424 0.046 6.3 150.87 10.82
3/27/2021 2:30:00 PM 9.79 49.622 0.046 6.26 150.84 10.78
3/27/2021 2:45:00 PM 9.91 49.838 0.046 6.26 152.96 10.73
3/27/2021 3:00:00 PM 10 50 0.046 6.24 155.03 10.71
3/27/2021 3:15:00 PM 10.08 50.144 0.046 6.29 153.63 10.67
3/27/2021 3:30:00 PM 10.13 50.234 0.046 6.27 150.77 10.64
3/27/2021 3:45:00 PM 10.17 50.306 0.046 6.22 152.78 10.62
3/27/2021 4:00:00 PM 10.19 50.342 0.046 6.23 154.08 10.61
3/27/2021 4:15:00 PM 10.2 50.36 0.046 6.19 157.09 10.58
3/27/2021 4:30:00 PM 10.21 50.378 0.046 6.21 154.91 10.57
3/27/2021 4:45:00 PM 10.21 50.378 0.046 6.17 153.92 10.56
3/27/2021 5:00:00 PM 10.24 50.432 0.046 6.14 153.23 10.55
3/27/2021 5:15:00 PM 10.25 50.45 0.046 6.15 149.32 10.52
3/27/2021 5:30:00 PM 10.23 50.414 0.046 6.23 151.75 10.52
3/27/2021 5:45:00 PM 10.21 50.378 0.046 6.24 152.61 10.5
3/27/2021 6:00:00 PM 10.19 50.342 0.047 6.22 149.78 10.48
3/27/2021 6:15:00 PM 10.15 50.27 0.047 6.21 151.77 10.46
3/27/2021 6:30:00 PM 10.1 50.18 0.047 6.23 151.72 10.43
3/27/2021 6:45:00 PM 10.02 50.036 0.047 6.16 152.92 10.39
3/27/2021 7:00:00 PM 9.93 49.874 0.047 6.14 149.95 10.4
3/27/2021 7:15:00 PM 9.85 49.73 0.047 6.14 151.86 10.37
3/27/2021 7:30:00 PM 9.75 49.55 0.047 6.19 151.02 10.38
3/27/2021 7:45:00 PM 9.66 49.388 0.047 6.14 150.22 10.39
3/27/2021 8:00:00 PM 9.57 49.226 0.047 6.14 150.19 10.36
3/27/2021 8:15:00 PM 9.47 49.046 0.047 6.1 149.76 10.36
3/27/2021 8:30:00 PM 9.38 48.884 0.047 6.14 149.51 10.38
3/27/2021 8:45:00 PM 9.28 48.704 0.047 6.15 149.92 10.4
3/27/2021 9:00:00 PM 9.18 48.524 0.047 6.14 150.28 10.43
3/27/2021 9:15:00 PM 9.08 48.344 0.047 6.1 150.65 10.46
3/27/2021 9:30:00 PM 8.98 48.164 0.046 6.07 150.27 10.51
3/27/2021 9:45:00 PM 8.88 47.984 0.046 6.09 149.98 10.53
3/27/2021 10:00:00 PM 8.79 47.822 0.046 6.12 151.73 10.56
3/27/2021 10:15:00 PM 8.69 47.642 0.046 6.15 152.5 10.58
3/27/2021 10:30:00 PM 8.59 47.462 0.046 6.15 151.22 10.61
3/27/2021 10:45:00 PM 8.5 47.3 0.046 6.11 152.17 10.62
3/27/2021 11:00:00 PM 8.41 47.138 0.046 6.14 153.91 10.65
3/27/2021 11:15:00 PM 8.32 46.976 0.046 6.17 151.22 10.66
3/27/2021 11:30:00 PM 8.23 46.814 0.046 6.17 151.24 10.69
3/27/2021 11:45:00 PM 8.15 46.67 0.046 6.12 152.68 10.71
3/28/2021 12:00:00 AM 8.07 46.526 0.046 6.09 152.66 10.75
3/28/2021 12:15:00 AM 7.99 46.382 0.046 6.08 152.14 10.76
3/28/2021 12:30:00 AM 7.91 46.238 0.046 6.07 152.2 10.8
3/28/2021 12:45:00 AM 7.83 46.094 0.046 6.09 154.07 10.82
3/28/2021 1:00:00 AM 7.75 45.95 0.046 6.08 152.63 10.83
3/28/2021 1:15:00 AM 7.68 45.824 0.046 6.14 152.44 10.84
3/28/2021 1:30:00 AM 7.61 45.698 0.046 6.08 151.99 10.87
3/28/2021 1:45:00 AM 7.54 45.572 0.046 6.08 150.09 10.89
3/28/2021 2:00:00 AM 7.47 45.446 0.046 6.1 150.02 10.91
3/28/2021 2:15:00 AM 7.4 45.32 0.046 6.09 149.03 10.93
3/28/2021 2:30:00 AM 7.33 45.194 0.046 6.07 152.07 10.95
3/28/2021 2:45:00 AM 7.27 45.086 0.047 6.08 152.48 10.95
3/28/2021 3:00:00 AM 7.21 44.978 0.047 6.11 152.63 10.97
3/28/2021 3:15:00 AM 7.15 44.87 0.047 6.12 150.02 10.97
3/28/2021 3:30:00 AM 7.1 44.78 0.048 6.12 149.1 10.98
3/28/2021 3:45:00 AM 7.05 44.69 0.047 6.14 151.49 10.99
3/28/2021 4:00:00 AM 7 44.6 0.046 6.13 152.85 11.01
3/28/2021 4:15:00 AM 6.96 44.528 0.046 6.13 149.47 11.03
3/28/2021 4:30:00 AM 6.92 44.456 0.046 6.13 151.89 11.03
3/28/2021 4:45:00 AM 6.89 44.402 0.046 6.14 147.67 11.04
3/28/2021 5:00:00 AM 6.86 44.348 0.046 6.16 151.24 11.04
3/28/2021 5:15:00 AM 6.84 44.312 0.046 6.14 153.15 11.05
3/28/2021 5:30:00 AM 6.82 44.276 0.046 6.14 154.25 11.05
3/28/2021 5:45:00 AM 6.8 44.24 0.046 6.15 154.03 11.06
3/28/2021 6:00:00 AM 6.79 44.222 0.046 6.16 151.43 11.07
3/28/2021 6:15:00 AM 6.78 44.204 0.046 6.16 150.52 11.07
3/28/2021 6:30:00 AM 6.78 44.204 0.047 6.15 152.51 11.08
3/28/2021 6:45:00 AM 6.77 44.186 0.046 6.15 153.59 11.07
3/28/2021 7:00:00 AM 6.78 44.204 0.046 6.17 152.6 11.05
3/28/2021 7:15:00 AM 6.8 44.24 0.046 6.16 154.04 11.06
3/28/2021 7:30:00 AM 6.82 44.276 0.045 6.16 155.91 11.06
3/28/2021 7:45:00 AM 6.86 44.348 0.046 6.17 154.14 11.05
3/28/2021 8:00:00 AM 6.91 44.438 0.046 6.17 151.32 11.04
3/28/2021 8:15:00 AM 6.96 44.528 0.046 6.18 151.99 11.03
3/28/2021 8:30:00 AM 7 44.6 0.046 6.17 150.61 11.01
3/28/2021 8:45:00 AM 7.03 44.654 0.046 6.17 150.23 11.02
3/28/2021 9:00:00 AM 7.07 44.726 0.046 6.17 151.69 11.01
3/28/2021 9:15:00 AM 7.1 44.78 0.046 6.19 153.55 11.01
3/28/2021 9:30:00 AM 7.13 44.834 0.046 6.18 152.93 11
3/28/2021 9:45:00 AM 7.18 44.924 0.046 6.18 151.04 11
3/28/2021 10:00:00 AM 7.24 45.032 0.046 6.19 155.08 10.99
3/28/2021 10:15:00 AM 7.29 45.122 0.046 6.18 156.9 10.97
3/28/2021 10:30:00 AM 7.34 45.212 0.046 6.19 156.35 10.95
3/28/2021 10:45:00 AM 7.4 45.32 0.046 6.18 157.9 10.94
3/28/2021 11:00:00 AM 7.45 45.41 0.046 6.19 158.94 10.92
3/28/2021 11:15:00 AM 7.49 45.482 0.046 6.18 157.15 10.93
3/28/2021 11:30:00 AM 7.54 45.572 0.046 6.17 155.73 10.92
3/28/2021 11:45:00 AM 7.59 45.662 0.046 6.18 155.7 10.9
3/28/2021 12:00:00 PM 7.65 45.77 0.046 6.18 155.76 10.9
3/28/2021 12:15:00 PM 7.72 45.896 0.046 6.21 155.1 10.9
3/28/2021 12:30:00 PM 7.79 46.022 0.046 6.21 155.43 10.9
3/28/2021 12:45:00 PM 7.87 46.166 0.046 6.21 154.89 10.87
3/28/2021 1:00:00 PM 7.95 46.31 0.046 6.2 155.21 10.85
3/28/2021 1:15:00 PM 8.02 46.436 0.046 6.2 152.61 10.84
3/28/2021 1:30:00 PM 8.08 46.544 0.046 6.21 155.27 10.82
3/28/2021 1:45:00 PM 8.13 46.634 0.046 6.18 151.95 10.8
3/28/2021 2:00:00 PM 8.17 46.706 0.046 6.21 152.95 10.76
3/28/2021 2:15:00 PM 8.23 46.814 0.046 6.19 151.63 10.74
3/28/2021 2:30:00 PM 8.28 46.904 0.046 6.21 154.36 10.7
3/28/2021 2:45:00 PM 8.3 46.94 0.046 6.18 154.34 10.69
3/28/2021 3:00:00 PM 8.33 46.994 0.046 6.17 152.56 10.68
3/28/2021 3:15:00 PM 8.35 47.03 0.046 6.17 153.62 10.67
3/28/2021 3:30:00 PM 8.38 47.084 0.046 6.18 152.97 10.67
3/28/2021 3:45:00 PM 8.43 47.174 0.046 6.18 152.44 10.68
3/28/2021 4:00:00 PM 8.45 47.21 0.046 6.18 152.99 10.64
3/28/2021 4:15:00 PM 8.46 47.228 0.046 6.17 149.83 10.64
3/28/2021 4:30:00 PM 8.44 47.192 0.046 6.17 150.7 10.66
3/28/2021 4:45:00 PM 8.43 47.174 0.046 6.16 151.88 10.69
3/28/2021 5:00:00 PM 8.45 47.21 0.046 6.18 153.59 10.78
3/28/2021 5:15:00 PM 8.43 47.174 0.046 6.17 152.6 10.76
3/28/2021 5:30:00 PM 8.4 47.12 0.046 6.17 151.94 10.75
3/28/2021 5:45:00 PM 8.41 47.138 0.046 6.18 152.23 10.77
3/28/2021 6:00:00 PM 8.4 47.12 0.046 6.18 153.33 10.78
3/28/2021 6:15:00 PM 8.37 47.066 0.046 6.18 152.13 10.77
3/28/2021 6:30:00 PM 8.33 46.994 0.046 6.18 150.47 10.81
3/28/2021 6:45:00 PM 8.28 46.904 0.046 6.18 153.95 10.8
3/28/2021 7:00:00 PM 8.24 46.832 0.046 6.18 152.71 10.78
3/28/2021 7:15:00 PM 8.19 46.742 0.046 6.18 149.39 10.78
3/28/2021 7:30:00 PM 8.12 46.616 0.046 6.18 150.92 10.76
3/28/2021 7:45:00 PM 8.04 46.472 0.046 6.18 151.44 10.74
3/28/2021 8:00:00 PM 7.96 46.328 0.046 6.17 151.86 10.75
3/28/2021 8:15:00 PM 7.89 46.202 0.046 6.17 151.64 10.76
3/28/2021 8:30:00 PM 7.82 46.076 0.047 6.17 151.62 10.75
3/28/2021 8:45:00 PM 7.75 45.95 0.047 6.17 151.73 10.78
3/28/2021 9:00:00 PM 7.69 45.842 0.047 6.18 153.48 10.78
3/28/2021 9:15:00 PM 7.63 45.734 0.047 6.17 153.77 10.81
3/28/2021 9:30:00 PM 7.57 45.626 0.047 6.18 154.19 10.83
3/28/2021 9:45:00 PM 7.48 45.464 0.046 6.17 152.31 10.83
3/28/2021 10:00:00 PM 7.4 45.32 0.047 6.17 152.24 10.89
3/28/2021 10:15:00 PM 7.32 45.176 0.046 6.17 152.34 10.9
3/28/2021 10:30:00 PM 7.25 45.05 0.046 6.17 152.58 10.93
3/28/2021 10:45:00 PM 7.15 44.87 0.046 6.17 153.01 10.96
3/28/2021 11:00:00 PM 7.07 44.726 0.046 6.19 150.79 10.99
3/28/2021 11:15:00 PM 7 44.6 0.046 6.18 151.33 11.01
3/28/2021 11:30:00 PM 6.93 44.474 0.046 6.18 150.94 11.04
3/28/2021 11:45:00 PM 6.85 44.33 0.046 6.19 148.57 11.07
3/29/2021 12:00:00 AM 6.78 44.204 0.046 6.2 149.45 11.09
3/29/2021 12:15:00 AM 6.7 44.06 0.046 6.21 149.17 11.12
3/29/2021 12:30:00 AM 6.63 43.934 0.046 6.22 149.8 11.13
3/29/2021 12:45:00 AM 6.55 43.79 0.046 6.22 150.17 11.16
3/29/2021 1:00:00 AM 6.49 43.682 0.046 6.23 149.69 11.19
3/29/2021 1:15:00 AM 6.41 43.538 0.046 6.22 150.51 11.22
3/29/2021 1:30:00 AM 6.34 43.412 0.047 6.23 150.7 11.25
3/29/2021 1:45:00 AM 6.27 43.286 0.047 6.22 149.98 11.26
3/29/2021 2:00:00 AM 6.21 43.178 0.047 6.22 152 11.29
3/29/2021 2:15:00 AM 6.13 43.034 0.046 6.22 152.68 11.31
3/29/2021 2:30:00 AM 6.07 42.926 0.046 6.22 151.03 11.33
3/29/2021 2:45:00 AM 6.03 42.854 0.046 6.23 150.35 11.35
3/29/2021 3:00:00 AM 6 42.8 0.046 6.24 150.37 11.36
3/29/2021 3:15:00 AM 5.93 42.674 0.046 6.22 150.27 11.38
3/29/2021 3:30:00 AM 5.83 42.494 0.046 6.22 150.4 11.4
3/29/2021 3:45:00 AM 5.78 42.404 0.046 6.22 151.83 11.44
3/29/2021 4:00:00 AM 5.76 42.368 0.046 6.22 150.29 11.45
3/29/2021 4:15:00 AM 5.73 42.314 0.046 6.21 150.3 11.47
3/29/2021 4:30:00 AM 5.71 42.278 0.046 6.23 150.42 11.49
3/29/2021 4:45:00 AM 5.67 42.206 0.046 6.22 150.43 11.5
3/29/2021 5:00:00 AM 5.61 42.098 0.046 6.22 150.3 11.51
3/29/2021 5:15:00 AM 5.56 42.008 0.046 6.2 150.3 11.54
3/29/2021 5:30:00 AM 5.52 41.936 0.046 6.21 150.13 11.55
3/29/2021 5:45:00 AM 5.51 41.918 0.046 6.22 151.1 11.56
3/29/2021 6:00:00 AM 5.47 41.846 0.046 6.22 150.55 11.57
3/29/2021 6:15:00 AM 5.43 41.774 0.046 6.22 151.13 11.59
3/29/2021 6:30:00 AM 5.4 41.72 0.046 6.21 151.13 11.61
3/29/2021 6:45:00 AM 5.37 41.666 0.046 6.21 150.13 11.62
3/29/2021 7:00:00 AM 5.33 41.594 0.046 6.2 150.27 11.64
3/29/2021 7:15:00 AM 5.3 41.54 0.046 6.21 150.53 11.66
3/29/2021 7:30:00 AM 5.26 41.468 0.046 6.2 150.3 11.68
3/29/2021 7:45:00 AM 5.25 41.45 0.046 6.2 150.56 11.71
3/29/2021 8:00:00 AM 5.23 41.414 0.046 6.2 150.77 11.74
3/29/2021 8:15:00 AM 5.21 41.378 0.046 6.2 150.77 11.77
3/29/2021 8:30:00 AM 5.19 41.342 0.046 6.2 150.86 11.8
3/29/2021 8:45:00 AM 5.16 41.288 0.046 6.2 151.32 11.84
3/29/2021 9:00:00 AM 5.15 41.27 0.046 6.21 151.16 11.86
3/29/2021 9:15:00 AM 5.15 41.27 0.046 6.22 151.38 11.89
3/29/2021 9:30:00 AM 5.14 41.252 0.046 6.22 150.53 11.92
3/29/2021 9:45:00 AM 5.15 41.27 0.046 6.23 151.49 11.95
3/29/2021 10:00:00 AM 5.15 41.27 0.046 6.24 150.25 11.96
3/29/2021 10:15:00 AM 5.16 41.288 0.046 6.27 150.92 11.97
3/29/2021 10:30:00 AM 5.18 41.324 0.046 6.29 150.77 11.98
3/29/2021 10:45:00 AM 5.2 41.36 0.046 6.3 151.1 12
3/29/2021 11:00:00 AM 5.25 41.45 0.046 6.28 150.89 12.01
3/29/2021 11:15:00 AM 5.32 41.576 0.046 6.29 151.45 12
3/29/2021 11:30:00 AM 5.38 41.684 0.046 6.3 150.98 11.99
3/29/2021 11:45:00 AM 5.46 41.828 0.046 6.3 151.28 11.99
3/29/2021 12:00:00 PM 5.58 42.044 0.046 6.32 150.9 11.97
3/29/2021 12:15:00 PM 5.7 42.26 0.046 6.32 151.38 11.94
3/29/2021 12:30:00 PM 5.84 42.512 0.046 6.34 150.92 11.91
3/29/2021 12:45:00 PM 6.04 42.872 0.046 6.36 150.96 11.85
3/29/2021 1:00:00 PM 6.15 43.07 0.046 6.34 150.64 11.81
3/29/2021 1:15:00 PM 6.28 43.304 0.046 6.34 150.65 11.77
3/29/2021 1:30:00 PM 6.53 43.754 0.046 6.36 150.39 11.71
3/29/2021 1:45:00 PM 6.8 44.24 0.046 6.37 150.5 11.63
3/29/2021 2:00:00 PM 7 44.6 0.046 6.37 151.18 11.58
3/29/2021 2:15:00 PM 7.16 44.888 0.046 6.36 151.98 11.52
3/29/2021 2:30:00 PM 7.32 45.176 0.046 6.35 152.68 11.48
3/29/2021 2:45:00 PM 7.49 45.482 0.046 6.35 153.1 11.41
3/29/2021 3:00:00 PM 7.63 45.734 0.046 6.36 155.03 11.37
3/29/2021 3:15:00 PM 7.77 45.986 0.046 6.33 154.28 11.33
3/29/2021 3:30:00 PM 7.89 46.202 0.046 6.32 155.84 11.29
3/29/2021 3:45:00 PM 7.96 46.328 0.046 6.3 154.32 11.25
3/29/2021 4:00:00 PM 8.02 46.436 0.046 6.29 153.7 11.22
3/29/2021 4:15:00 PM 8.06 46.508 0.046 6.3 154.66 11.2
3/29/2021 4:30:00 PM 8.07 46.526 0.046 6.28 153.43 11.19
3/29/2021 4:45:00 PM 8.06 46.508 0.046 6.28 153.83 11.17
3/29/2021 5:00:00 PM 8.03 46.454 0.046 6.26 154.79 11.16
3/29/2021 5:15:00 PM 7.98 46.364 0.046 6.25 154.12 11.15
3/29/2021 5:30:00 PM 7.93 46.274 0.046 6.23 154.09 11.15
3/29/2021 5:45:00 PM 7.88 46.184 0.046 6.23 154.42 11.15
3/29/2021 6:00:00 PM 7.82 46.076 0.046 6.22 152.81 11.15
3/29/2021 6:15:00 PM 7.74 45.932 0.046 6.21 153.73 11.14
3/29/2021 6:30:00 PM 7.66 45.788 0.046 6.21 154.06 11.15
3/29/2021 6:45:00 PM 7.58 45.644 0.046 6.21 151.38 11.14
3/29/2021 7:00:00 PM 7.5 45.5 0.046 6.2 151.67 11.15
3/29/2021 7:15:00 PM 7.41 45.338 0.046 6.2 151.21 11.15
3/29/2021 7:30:00 PM 7.32 45.176 0.046 6.21 151.43 11.14
3/29/2021 7:45:00 PM 7.23 45.014 0.046 6.19 153.74 11.16
3/29/2021 8:00:00 PM 7.15 44.87 0.046 6.2 152.64 11.16
3/29/2021 8:15:00 PM 7.06 44.708 0.046 6.2 151.34 11.18
3/29/2021 8:30:00 PM 6.97 44.546 0.046 6.19 151.9 11.19
3/29/2021 8:45:00 PM 6.88 44.384 0.046 6.2 153.31 11.22
3/29/2021 9:00:00 PM 6.79 44.222 0.046 6.2 150.55 11.24
3/29/2021 9:15:00 PM 6.69 44.042 0.046 6.2 152.58 11.26
3/29/2021 9:30:00 PM 6.6 43.88 0.046 6.2 153.08 11.28
3/29/2021 9:45:00 PM 6.51 43.718 0.046 6.2 151.41 11.32
3/29/2021 10:00:00 PM 6.42 43.556 0.046 6.19 150.6 11.34
3/29/2021 10:15:00 PM 6.33 43.394 0.046 6.19 149.24 11.37
3/29/2021 10:30:00 PM 6.25 43.25 0.046 6.19 150.43 11.4
3/29/2021 10:45:00 PM 6.16 43.088 0.046 6.2 151.64 11.43
3/29/2021 11:00:00 PM 6.08 42.944 0.046 6.19 148.5 11.45
3/29/2021 11:15:00 PM 6 42.8 0.046 6.19 151.14 11.48
3/29/2021 11:30:00 PM 5.92 42.656 0.046 6.19 149.64 11.51
3/29/2021 11:45:00 PM 5.84 42.512 0.046 6.19 149.12 11.53
3/30/2021 12:00:00 AM 5.77 42.386 0.046 6.19 149.75 11.55
3/30/2021 12:15:00 AM 5.69 42.242 0.046 6.19 151.02 11.58
3/30/2021 12:30:00 AM 5.62 42.116 0.046 6.19 151.81 11.61
3/30/2021 12:45:00 AM 5.55 41.99 0.046 6.19 150.61 11.63
3/30/2021 1:00:00 AM 5.49 41.882 0.046 6.18 150.81 11.65
3/30/2021 1:15:00 AM 5.42 41.756 0.046 6.18 152.44 11.67
3/30/2021 1:30:00 AM 5.36 41.648 0.045 6.18 150.79 11.7
3/30/2021 1:45:00 AM 5.3 41.54 0.049 6.19 151.33 11.71
3/30/2021 2:00:00 AM 5.24 41.432 0.045 6.19 151.34 11.74
3/30/2021 2:15:00 AM 5.18 41.324 0.046 6.18 152.56 11.76
3/30/2021 2:30:00 AM 5.13 41.234 0.046 6.18 152.14 11.78
3/30/2021 2:45:00 AM 5.08 41.144 0.045 6.18 152.92 11.8
3/30/2021 3:00:00 AM 5.03 41.054 0.045 6.18 152.06 11.81
3/30/2021 3:15:00 AM 4.98 40.964 0.045 6.18 153.36 11.82
3/30/2021 3:30:00 AM 4.94 40.892 0.045 6.17 151.95 11.84
3/30/2021 3:45:00 AM 4.89 40.802 0.045 6.17 153.15 11.86
3/30/2021 4:00:00 AM 4.85 40.73 0.045 6.18 150.54 11.87
3/30/2021 4:15:00 AM 4.81 40.658 0.045 6.17 150.61 11.88
3/30/2021 4:30:00 AM 4.77 40.586 0.045 6.18 149.58 11.9
3/30/2021 4:45:00 AM 4.73 40.514 0.045 6.17 149.82 11.91
3/30/2021 5:00:00 AM 4.69 40.442 0.045 6.18 148.21 11.92
3/30/2021 5:15:00 AM 4.66 40.388 0.045 6.18 150.34 11.94
3/30/2021 5:30:00 AM 4.63 40.334 0.045 6.18 149.95 11.94
3/30/2021 5:45:00 AM 4.59 40.262 0.045 6.18 150.29 11.96
3/30/2021 6:00:00 AM 4.56 40.208 0.045 6.19 152.34 11.98
3/30/2021 6:15:00 AM 4.53 40.154 0.045 6.19 151.2 11.98
3/30/2021 6:30:00 AM 4.5 40.1 0.045 6.18 150.88 11.99
3/30/2021 6:45:00 AM 4.47 40.046 0.045 6.19 152.04 11.99
3/30/2021 7:00:00 AM 4.44 39.992 0.045 6.18 152.96 12.01
3/30/2021 7:15:00 AM 4.41 39.938 0.045 6.18 151.78 12.02
3/30/2021 7:30:00 AM 4.39 39.902 0.045 6.19 152.43 12.06
3/30/2021 7:45:00 AM 4.37 39.866 0.045 6.19 152.56 12.08
3/30/2021 8:00:00 AM 4.36 39.848 0.045 6.19 151.75 12.08
3/30/2021 8:15:00 AM 4.35 39.83 0.045 6.19 151.75 12.07
3/30/2021 8:30:00 AM 4.35 39.83 0.045 6.19 148.74 12.15
3/30/2021 8:45:00 AM 4.36 39.848 0.045 6.2 149.08 12.18
3/30/2021 9:00:00 AM 4.39 39.902 0.045 6.2 148.23 12.19
3/30/2021 9:15:00 AM 4.44 39.992 0.045 6.19 145.98 12.23
3/30/2021 9:30:00 AM 4.5 40.1 0.045 6.2 154.24 12.22
3/30/2021 9:45:00 AM 4.59 40.262 0.045 6.21 154.31 12.21
3/30/2021 10:00:00 AM 4.7 40.46 0.045 6.21 154.14 12.2
3/30/2021 10:15:00 AM 4.83 40.694 0.045 6.23 154.13 12.2
3/30/2021 10:30:00 AM 4.98 40.964 0.044 6.23 154.38 12.17
3/30/2021 10:45:00 AM 5.16 41.288 0.044 6.23 154.22 12.13
3/30/2021 11:00:00 AM 5.36 41.648 0.044 6.24 153.95 12.07
3/30/2021 11:15:00 AM 5.56 42.008 0.044 6.25 154.68 12.03
3/30/2021 11:30:00 AM 5.78 42.404 0.044 6.25 154.49 11.98
3/30/2021 11:45:00 AM 6 42.8 0.044 6.25 154.84 11.91
3/30/2021 12:00:00 PM 6.23 43.214 0.044 6.26 155.91 11.86
3/30/2021 12:15:00 PM 6.48 43.664 0.044 6.26 155.23 11.78
3/30/2021 12:30:00 PM 6.73 44.114 0.045 6.25 156.37 11.71
3/30/2021 12:45:00 PM 6.99 44.582 0.045 6.25 157.72 11.64
3/30/2021 1:00:00 PM 7.26 45.068 0.045 6.26 156.87 11.56
3/30/2021 1:15:00 PM 7.53 45.554 0.045 6.25 158.38 11.48
3/30/2021 1:30:00 PM 7.79 46.022 0.045 6.26 158.66 11.41
3/30/2021 1:45:00 PM 8.05 46.49 0.045 6.25 158.29 11.32
3/30/2021 2:00:00 PM 8.3 46.94 0.045 6.24 159.27 11.26
3/30/2021 2:15:00 PM 8.53 47.354 0.045 6.24 159.8 11.17
3/30/2021 2:30:00 PM 8.77 47.786 0.045 6.24 159.07 11.1
3/30/2021 2:45:00 PM 8.98 48.164 0.045 6.25 157.04 11.05
3/30/2021 3:00:00 PM 9.19 48.542 0.045 6.3 159.07 10.99
3/30/2021 3:15:00 PM 9.37 48.866 0.045 6.27 160.62 10.91
3/30/2021 3:30:00 PM 9.54 49.172 0.045 6.25 161.53 10.88
3/30/2021 3:45:00 PM 9.67 49.406 0.045 6.25 161.78 10.82
3/30/2021 4:00:00 PM 9.8 49.64 0.045 6.24 161.39 10.78
3/30/2021 4:15:00 PM 9.84 49.712 0.045 6.2 161.43 10.74
3/30/2021 4:30:00 PM 9.89 49.802 0.045 6.22 161.97 10.72
3/30/2021 4:45:00 PM 9.92 49.856 0.045 6.23 161.23 10.69
3/30/2021 5:00:00 PM 9.9 49.82 0.045 6.22 162.13 10.65
3/30/2021 5:15:00 PM 9.89 49.802 0.045 6.22 161.24 10.63
3/30/2021 5:30:00 PM 9.88 49.784 0.046 6.21 160.86 10.62
3/30/2021 5:45:00 PM 9.85 49.73 0.046 6.18 163.03 10.62
3/30/2021 6:00:00 PM 9.8 49.64 0.046 6.18 163.63 10.61
3/30/2021 6:15:00 PM 9.76 49.568 0.046 6.22 163.49 10.6
3/30/2021 6:30:00 PM 9.7 49.46 0.046 6.21 164.14 10.6
3/30/2021 6:45:00 PM 9.63 49.334 0.046 6.2 165.21 10.58
3/30/2021 7:00:00 PM 9.54 49.172 0.045 6.14 164.45 10.59
3/30/2021 7:15:00 PM 9.46 49.028 0.045 6.27 164.57 10.58
3/30/2021 7:30:00 PM 9.38 48.884 0.045 6.28 164.9 10.57
3/30/2021 7:45:00 PM 9.3 48.74 0.045 6.23 163.53 10.56
3/30/2021 8:00:00 PM 9.22 48.596 0.045 6.24 164.1 10.56
3/30/2021 8:15:00 PM 9.13 48.434 0.045 6.27 164.21 10.56
3/30/2021 8:30:00 PM 9.05 48.29 0.046 6.28 164.47 10.58
3/30/2021 8:45:00 PM 8.97 48.146 0.046 6.26 164.85 10.58
3/30/2021 9:00:00 PM 8.88 47.984 0.046 6.23 164.85 10.63
3/30/2021 9:15:00 PM 8.8 47.84 0.046 6.24 163.8 10.64
3/30/2021 9:30:00 PM 8.71 47.678 0.046 6.24 163.77 10.66
3/30/2021 9:45:00 PM 8.63 47.534 0.046 6.25 164.23 10.68
3/30/2021 10:00:00 PM 8.55 47.39 0.046 6.27 163.99 10.69
3/30/2021 10:15:00 PM 8.48 47.264 0.046 6.29 161.99 10.71
3/30/2021 10:30:00 PM 8.4 47.12 0.046 6.29 160.4 10.74
3/30/2021 10:45:00 PM 8.33 46.994 0.046 6.32 160.78 10.75
3/30/2021 11:00:00 PM 8.26 46.868 0.046 6.36 160.84 10.79
3/30/2021 11:15:00 PM 8.19 46.742 0.046 6.38 161.33 10.81
3/30/2021 11:30:00 PM 8.12 46.616 0.046 6.37 160.49 10.82
3/30/2021 11:45:00 PM 8.05 46.49 0.045 6.33 160.7 10.85
3/31/2021 12:00:00 AM 7.98 46.364 0.045 6.27 160.92 10.86
3/31/2021 12:15:00 AM 7.91 46.238 0.045 6.25 160.66 10.88
3/31/2021 12:30:00 AM 7.84 46.112 0.045 6.26 160.58 10.91
3/31/2021 12:45:00 AM 7.78 46.004 0.045 6.3 159.86 10.93
3/31/2021 1:00:00 AM 7.71 45.878 0.045 6.31 160.46 10.95
3/31/2021 1:15:00 AM 7.64 45.752 0.045 6.31 160.75 10.96
3/31/2021 1:30:00 AM 7.58 45.644 0.045 6.28 160.69 10.99
3/31/2021 1:45:00 AM 7.53 45.554 0.045 6.29 161.14 11
3/31/2021 2:00:00 AM 7.48 45.464 0.045 6.29 161.26 11
3/31/2021 2:15:00 AM 7.43 45.374 0.045 6.27 161.34 11.02
3/31/2021 2:30:00 AM 7.39 45.302 0.045 6.27 161.62 11.03
3/31/2021 2:45:00 AM 7.34 45.212 0.045 6.29 160.89 11.03
3/31/2021 3:00:00 AM 7.3 45.14 0.045 6.28 160.95 11.04
3/31/2021 3:15:00 AM 7.25 45.05 0.045 6.2 161.81 11.05
3/31/2021 3:30:00 AM 7.21 44.978 0.045 6.28 162.1 11.06
3/31/2021 3:45:00 AM 7.17 44.906 0.045 6.31 161.92 11.07
3/31/2021 4:00:00 AM 7.14 44.852 0.045 6.29 160.61 11.09
3/31/2021 4:15:00 AM 7.11 44.798 0.045 6.36 161.14 11.11
3/31/2021 4:30:00 AM 7.08 44.744 0.045 6.36 160.88 11.11
3/31/2021 4:45:00 AM 7.06 44.708 0.045 6.38 160.71 11.11
3/31/2021 5:00:00 AM 7.03 44.654 0.045 6.36 159.06 11.11
3/31/2021 5:15:00 AM 7.01 44.618 0.045 6.39 158.9 11.13
3/31/2021 5:30:00 AM 6.99 44.582 0.045 6.42 158.91 11.13
3/31/2021 5:45:00 AM 6.98 44.564 0.045 6.44 158.77 11.13
3/31/2021 6:00:00 AM 6.96 44.528 0.045 6.42 158.2 11.14
3/31/2021 6:15:00 AM 6.94 44.492 0.045 6.42 158.49 11.14
3/31/2021 6:30:00 AM 6.92 44.456 0.045 6.43 157.9 11.14
3/31/2021 6:45:00 AM 6.91 44.438 0.045 6.42 158.47 11.15
3/31/2021 7:00:00 AM 6.9 44.42 0.045 6.41 159.35 11.15
3/31/2021 7:15:00 AM 6.89 44.402 0.045 6.39 158.3 11.16
3/31/2021 7:30:00 AM 6.88 44.384 0.045 6.38 158.28 11.18
3/31/2021 7:45:00 AM 6.88 44.384 0.045 6.39 158.2 11.2
3/31/2021 8:00:00 AM 6.89 44.402 0.045 6.39 157.86 11.21
3/31/2021 8:15:00 AM 6.89 44.402 0.045 6.39 157.93 11.21
3/31/2021 8:30:00 AM 6.9 44.42 0.045 6.38 157.22 11.2
3/31/2021 8:45:00 AM 6.91 44.438 0.045 6.39 157.5 11.23
3/31/2021 9:00:00 AM 6.92 44.456 0.045 6.4 157.61 11.24
3/31/2021 9:15:00 AM 6.93 44.474 0.045 6.41 159.58 11.25
3/31/2021 9:30:00 AM 6.94 44.492 0.045 6.37 160.68 11.25
3/31/2021 9:45:00 AM 6.95 44.51 0.045 6.41 161.53 11.25
3/31/2021 10:00:00 AM 6.96 44.528 0.045 6.4 159.75 11.27